Provisional Data: Tuscarora Creek near Woodhull, NY


Please select a monitoring station.
Please select start date.
Please select start date.

Toggle Unit: C/F Toggle Unit: C/F
Sample Time Temperature (C) Temperature (F) Specific Conductivity (mS/cm) pH   Turbidity (NTU+) DO (mg/L)
6/22/2021 12:00:00 AM 21.17 70.106 0.312 7.61 6.86 7.07
6/22/2021 12:15:00 AM 21.08 69.944 0.315 7.62 9.14 7.09
6/22/2021 12:30:00 AM 20.99 69.782 0.319 7.62 7.27 7.13
6/22/2021 12:45:00 AM 20.94 69.692 0.323 7.62 7.58 7.16
6/22/2021 1:00:00 AM 20.89 69.602 0.326 7.62 8.31 7.22
6/22/2021 1:15:00 AM 20.83 69.494 0.328 7.64 8.16 7.26
6/22/2021 1:30:00 AM 20.76 69.368 0.329 7.64 8.35 7.31
6/22/2021 1:45:00 AM 20.7 69.26 0.329 7.64 9.78 7.35
6/22/2021 2:00:00 AM 20.64 69.152 0.328 7.65 8.6 7.36
6/22/2021 2:15:00 AM 20.58 69.044 0.326 7.65 9.98 7.39
6/22/2021 2:30:00 AM 20.52 68.936 0.325 7.65 9.18 7.41
6/22/2021 2:45:00 AM 20.45 68.81 0.324 7.65 8.54 7.45
6/22/2021 3:00:00 AM 20.38 68.684 0.322 7.64 8.66 7.44
6/22/2021 3:15:00 AM 20.31 68.558 0.322 7.64 10.06 7.49
6/22/2021 3:30:00 AM 20.23 68.414 0.321 7.64 8.59 7.52
6/22/2021 3:45:00 AM 20.15 68.27 0.32 7.64 9.63 7.51
6/22/2021 4:00:00 AM 20.07 68.126 0.318 7.64 9.77 7.54
6/22/2021 4:15:00 AM 19.98 67.964 0.317 7.63 9.32 7.58
6/22/2021 4:30:00 AM 19.91 67.838 0.314 7.63 8.49 7.58
6/22/2021 4:45:00 AM 19.83 67.694 0.312 7.63 10.5 7.61
6/22/2021 5:00:00 AM 19.75 67.55 0.309 7.63 9.82 7.64
6/22/2021 5:15:00 AM 19.66 67.388 0.307 7.62 8.76 7.64
6/22/2021 5:30:00 AM 19.57 67.226 0.304 7.63 8.42 7.66
6/22/2021 5:45:00 AM 19.49 67.082 0.302 7.62 8.04 7.67
6/22/2021 6:00:00 AM 19.4 66.92 0.3 7.62 8 7.69
6/22/2021 6:15:00 AM 19.31 66.758 0.298 7.62 8.02 7.74
6/22/2021 6:30:00 AM 19.23 66.614 0.295 7.63 8.53 7.83
6/22/2021 6:45:00 AM 19.15 66.47 0.293 7.6 8.4 7.93
6/22/2021 7:00:00 AM 19.08 66.344 0.291 7.64 7.93 8.03
6/22/2021 7:15:00 AM 19 66.2 0.29 7.64 7.92 8.17
6/22/2021 7:30:00 AM 18.94 66.092 0.288 7.67 8.18 8.32
6/22/2021 7:45:00 AM 18.89 66.002 0.287 7.68 7.41 8.41
6/22/2021 8:00:00 AM 18.83 65.894 0.286 7.7 7.81 8.64
6/22/2021 8:15:00 AM 18.79 65.82201 0.285 7.74 6.94 8.77
6/22/2021 8:30:00 AM 18.74 65.732 0.285 7.76 7.38 8.83
6/22/2021 8:45:00 AM 18.67 65.606 0.285 7.77 7.26 8.88
6/22/2021 9:00:00 AM 18.6 65.48 0.284 7.78 7.11 9.02
6/22/2021 9:15:00 AM 18.55 65.39 0.284 7.81 7.63 9.11
6/22/2021 9:30:00 AM 18.52 65.336 0.284 7.83 6.74 9.18
6/22/2021 9:45:00 AM 18.51 65.318 0.284 7.88 7.47 9.41
6/22/2021 10:00:00 AM 18.49 65.282 0.284 7.92 6.65 9.61
6/22/2021 10:15:00 AM 18.46 65.228 0.284 7.93 6.94 9.62
6/22/2021 10:30:00 AM 18.43 65.174 0.284 7.95 6.71 9.58
6/22/2021 10:45:00 AM 18.44 65.192 0.284 7.99 6.58 9.7
6/22/2021 11:00:00 AM 18.46 65.228 0.284 8.07 6.77 10.03
6/22/2021 11:15:00 AM 18.46 65.228 0.284 8.15 7.27 10.19
6/22/2021 11:30:00 AM 18.42 65.156 0.284 8.19 6.55 10.19
6/22/2021 11:45:00 AM 18.37 65.066 0.285 8.18 6.2 10.04
6/22/2021 12:00:00 PM 18.34 65.012 0.285 8.17 7.31 10.01
6/22/2021 12:15:00 PM 18.33 64.994 0.286 8.2 6.27 10.17
6/22/2021 12:30:00 PM 18.38 65.084 0.286 8.29 6.24 10.43
6/22/2021 12:45:00 PM 18.41 65.138 0.287 8.33 6.67 10.59
6/22/2021 1:00:00 PM 18.41 65.138 0.288 8.41 5.58 10.7
6/22/2021 1:15:00 PM 18.38 65.084 0.29 8.41 5.57 10.63
6/22/2021 1:30:00 PM 18.31 64.958 0.291 8.43 6.3 10.63
6/22/2021 1:45:00 PM 18.28 64.904 0.292 8.42 5.78 10.58
6/22/2021 2:00:00 PM 18.27 64.886 0.293 8.45 5.53 10.68
6/22/2021 2:15:00 PM 18.25 64.85 0.294 8.5 5.63 10.79
6/22/2021 2:30:00 PM 18.25 64.85 0.294 8.53 5.74 10.81
6/22/2021 2:45:00 PM 18.25 64.85 0.295 8.53 5.87 10.86
6/22/2021 3:00:00 PM 18.19 64.742 0.295 8.56 7.66 10.79
6/22/2021 3:15:00 PM 18.14 64.652 0.295 8.53 6.32 10.58
6/22/2021 3:30:00 PM 18.13 64.634 0.296 8.52 5.39 10.61
6/22/2021 3:45:00 PM 18.12 64.616 0.296 8.56 5.55 10.78
6/22/2021 4:00:00 PM 18.16 64.688 0.296 8.6 5.34 10.91
6/22/2021 4:15:00 PM 18.22 64.796 0.297 8.62 5.79 10.93
6/22/2021 4:30:00 PM 18.23 64.814 0.298 8.62 5.8 11.01
6/22/2021 4:45:00 PM 18.2 64.76 0.298 8.64 6.18 10.84
6/22/2021 5:00:00 PM 18.16 64.688 0.299 8.61 5.02 10.68
6/22/2021 5:15:00 PM 18.11 64.598 0.3 8.6 5.96 10.65
6/22/2021 5:30:00 PM 18.04 64.472 0.3 8.6 4.6 10.66
6/22/2021 5:45:00 PM 18 64.4 0.3 8.61 5.04 10.63
6/22/2021 6:00:00 PM 18 64.4 0.301 8.6 5.42 10.49
6/22/2021 6:15:00 PM 17.96 64.328 0.301 8.61 4.59 10.59
6/22/2021 6:30:00 PM 17.92 64.256 0.301 8.61 5.06 10.59
6/22/2021 6:45:00 PM 17.86 64.148 0.302 8.6 4.87 10.53
6/22/2021 7:00:00 PM 17.81 64.058 0.302 8.58 4.51 10.37
6/22/2021 7:15:00 PM 17.75 63.95 0.302 8.56 4.65 10.26
6/22/2021 7:30:00 PM 17.68 63.824 0.303 8.51 4.24 10.12
6/22/2021 7:45:00 PM 17.6 63.68 0.303 8.48 4.26 9.91
6/22/2021 8:00:00 PM 17.53 63.554 0.303 8.44 4.18 9.72
6/22/2021 8:15:00 PM 17.44 63.392 0.304 8.4 4.08 9.58
6/22/2021 8:30:00 PM 17.37 63.266 0.305 8.34 4.09 9.41
6/22/2021 8:45:00 PM 17.27 63.086 0.306 8.28 4.21 9.26
6/22/2021 9:00:00 PM 17.17 62.906 0.307 8.22 4.22 9.13
6/22/2021 9:15:00 PM 17.06 62.708 0.308 8.13 4.69 9
6/22/2021 9:30:00 PM 16.94 62.492 0.309 8.04 4.74 8.88
6/22/2021 9:45:00 PM 16.81 62.258 0.31 7.96 5.34 8.76
6/22/2021 10:00:00 PM 16.69 62.042 0.31 7.9 5.19 8.68
6/22/2021 10:15:00 PM 16.57 61.826 0.311 7.84 5.08 8.61
6/22/2021 10:30:00 PM 16.45 61.61 0.312 7.79 4.76 8.58
6/22/2021 10:45:00 PM 16.33 61.394 0.312 7.75 6.41 8.55
6/22/2021 11:00:00 PM 16.22 61.196 0.313 7.72 5.67 8.53
6/22/2021 11:15:00 PM 16.11 60.998 0.314 7.69 4.81 8.5
6/22/2021 11:30:00 PM 16.04 60.872 0.313 7.68 5.93 8.53
6/22/2021 11:45:00 PM 15.9 60.62 0.314 7.65 5.7 8.5
6/23/2021 12:00:00 AM 15.8 60.44 0.314 7.63 5.75 8.52
6/23/2021 12:15:00 AM 15.7 60.26 0.314 7.61 5.06 8.51
6/23/2021 12:30:00 AM 15.6 60.08 0.315 7.6 5.27 8.51
6/23/2021 12:45:00 AM 15.51 59.918 0.315 7.59 5.11 8.54
6/23/2021 1:00:00 AM 15.42 59.756 0.315 7.58 5.62 8.53
6/23/2021 1:15:00 AM 15.34 59.612 0.315 7.59 5.63 8.57
6/23/2021 1:30:00 AM 15.25 59.45 0.315 7.58 4.48 8.6
6/23/2021 1:45:00 AM 15.16 59.288 0.315 7.57 6.57 8.63
6/23/2021 2:00:00 AM 15.07 59.126 0.315 7.56 5.65 8.6
6/23/2021 2:15:00 AM 14.99 58.982 0.315 7.57 5.65 8.64
6/23/2021 2:30:00 AM 14.9 58.82 0.315 7.57 6.49 8.64
6/23/2021 2:45:00 AM 14.82 58.676 0.315 7.56 5.48 8.69
6/23/2021 3:00:00 AM 14.74 58.532 0.315 7.57 5.29 8.72
6/23/2021 3:15:00 AM 14.66 58.388 0.315 7.56 4.34 8.74
6/23/2021 3:30:00 AM 14.58 58.244 0.315 7.57 5.26 8.75
6/23/2021 3:45:00 AM 14.5 58.1 0.315 7.55 4.85 8.78
6/23/2021 4:00:00 AM 14.42 57.956 0.315 7.57 5.14 8.81
6/23/2021 4:15:00 AM 14.34 57.812 0.315 7.54 4.64 8.81
6/23/2021 4:30:00 AM 14.26 57.668 0.315 7.56 5.53 8.82
6/23/2021 4:45:00 AM 14.18 57.524 0.315 7.56 5.46 8.85
6/23/2021 5:00:00 AM 14.11 57.398 0.315 7.56 5.37 8.89
6/23/2021 5:15:00 AM 14.04 57.272 0.315 7.56 4.7 8.9
6/23/2021 5:30:00 AM 13.96 57.128 0.315 7.56 4.72 8.92
6/23/2021 5:45:00 AM 13.89 57.002 0.315 7.57 5.2 8.95
6/23/2021 6:00:00 AM 13.81 56.858 0.315 7.56 10.54 8.92
6/23/2021 6:15:00 AM 13.76 56.768 0.315 7.56 14.91 8.99
6/23/2021 6:30:00 AM 13.69 56.642 0.316 7.57 10.92 9.03
6/23/2021 6:45:00 AM 13.65 56.57 0.316 7.58 18.45 9.11
6/23/2021 7:00:00 AM 13.62 56.516 0.316 7.59 20.14 9.2
6/23/2021 7:15:00 AM 13.59 56.462 0.317 7.61 24.98 9.33
6/23/2021 7:30:00 AM 13.58 56.444 0.317 7.64 13.38 9.43
6/23/2021 7:45:00 AM 13.57 56.426 0.318 7.66 14.06 9.57
6/23/2021 8:00:00 AM 13.58 56.444 0.318 7.68 10.44 9.66
6/23/2021 8:15:00 AM 13.59 56.462 0.319 7.7 11.14 9.72
6/23/2021 8:30:00 AM 13.64 56.552 0.319 7.74 11.19 9.82
6/23/2021 8:45:00 AM 13.7 56.66 0.319 7.77 7.81 10
6/23/2021 9:00:00 AM 13.8 56.84 0.319 7.81 9.19 10.14
6/23/2021 9:15:00 AM 13.96 57.128 0.319 7.87 11.7 10.34
6/23/2021 9:30:00 AM 14.15 57.47 0.319 7.92 7.38 10.54
6/23/2021 9:45:00 AM 14.37 57.866 0.319 7.95 9.05 10.73
6/23/2021 10:00:00 AM 14.58 58.244 0.318 8.01 6.31 10.82
6/23/2021 10:15:00 AM 14.84 58.712 0.319 8.07 4.04 11.06
6/23/2021 10:30:00 AM 15.09 59.162 0.319 8.07 10.78 11.18
6/23/2021 10:45:00 AM 15.28 59.504 0.319 8.05 11.12 11.22
6/23/2021 11:00:00 AM 15.2 59.36 0.319 8.12 9.87 11.37
6/23/2021 11:15:00 AM 15.26 59.468 0.319 8.14 11.03 11.31
6/23/2021 11:30:00 AM 15.53 59.954 0.319 8.16 7.81 11.36
6/23/2021 11:45:00 AM 15.4 59.72 0.319 8.22 7.91 11.37
6/23/2021 12:00:00 PM 15.7 60.26 0.319 8.25 3.95 11.49
6/23/2021 12:15:00 PM 16 60.8 0.319 8.33 4.1 11.62
6/23/2021 12:30:00 PM 16.29 61.322 0.318 8.36 4.17 11.98
6/23/2021 12:45:00 PM 16.39 61.502 0.319 8.39 4.6 11.92
6/23/2021 1:00:00 PM 16.63 61.934 0.318 8.47 3.75 11.84
6/23/2021 1:15:00 PM 16.96 62.528 0.318 8.48 5.06 12.34
6/23/2021 1:30:00 PM 17.29 63.122 0.319 8.5 5.91 12.24
6/23/2021 1:45:00 PM 17.57 63.626 0.319 8.53 5.06 12.25
6/23/2021 2:00:00 PM 17.91 64.238 0.32 8.57 5.2 12.3
6/23/2021 2:15:00 PM 18.12 64.616 0.321 8.6 5.25 12.29
6/23/2021 2:30:00 PM 18.41 65.138 0.321 8.63 4.52 12.19
6/23/2021 2:45:00 PM 19.06 66.308 0.323 8.67 4.83 12.19
6/23/2021 3:00:00 PM 19.43 66.974 0.324 8.72 5.26 12.21
6/23/2021 3:15:00 PM 19.68 67.424 0.323 8.73 6.25 12.12
6/23/2021 3:30:00 PM 20.87 69.566 0.32 8.92 9.02 11.66
6/23/2021 3:45:00 PM 21.26 70.268 0.318 8.97 3.76 11.51
6/23/2021 4:00:00 PM 21.51 70.718 0.318 8.98 3.07 11.19
6/23/2021 4:15:00 PM 21.63 70.934 0.318 8.99 3.18 11.06
6/23/2021 4:30:00 PM 21.67 71.006 0.318 8.99 4.72 10.91
6/23/2021 4:45:00 PM 21.63 70.934 0.318 8.97 4.54 10.7
6/23/2021 5:00:00 PM 21.62 70.916 0.318 8.97 3.85 10.5
6/23/2021 5:15:00 PM 21.57 70.826 0.317 8.96 3.35 10.41
6/23/2021 5:30:00 PM 21.48 70.664 0.317 8.94 3.43 10.22
6/23/2021 5:45:00 PM 21.41 70.538 0.318 8.92 4.19 10.13
6/23/2021 6:00:00 PM 21.29 70.32201 0.318 8.91 3.26 10
6/23/2021 6:15:00 PM 21.16 70.088 0.317 8.9 3.22 9.89
6/23/2021 6:30:00 PM 21.07 69.926 0.317 8.87 4.1 9.7
6/23/2021 6:45:00 PM 20.97 69.746 0.318 8.85 3.5 9.55
6/23/2021 7:00:00 PM 20.84 69.512 0.318 8.82 3.42 9.39
6/23/2021 7:15:00 PM 20.75 69.35 0.318 8.78 3.94 9.23
6/23/2021 7:30:00 PM 20.61 69.098 0.318 8.73 3.35 9.05
6/23/2021 7:45:00 PM 20.45 68.81 0.318 8.68 3.47 8.92
6/23/2021 8:00:00 PM 20.29 68.522 0.318 8.63 3.52 8.8
6/23/2021 8:15:00 PM 20.14 68.252 0.318 8.58 3.86 8.65
6/23/2021 8:30:00 PM 19.97 67.946 0.318 8.52 3.61 8.51
6/23/2021 8:45:00 PM 19.81 67.658 0.318 8.47 3.34 8.42
6/23/2021 9:00:00 PM 19.64 67.352 0.318 8.4 3.44 8.31
6/23/2021 9:15:00 PM 19.47 67.046 0.318 8.34 3.48 8.16
6/23/2021 9:30:00 PM 19.3 66.74 0.318 8.26 3.6 8.04
6/23/2021 9:45:00 PM 19.13 66.434 0.318 8.17 4.14 7.98
6/23/2021 10:00:00 PM 18.96 66.128 0.318 8.06 5.38 7.89
6/23/2021 10:15:00 PM 18.79 65.82201 0.318 8.01 4.99 7.86
6/23/2021 10:30:00 PM 18.6 65.48 0.318 7.95 4.13 7.85
6/23/2021 10:45:00 PM 18.43 65.174 0.319 7.89 4.2 7.82
6/23/2021 11:00:00 PM 18.26 64.868 0.319 7.84 4.98 7.78
6/23/2021 11:15:00 PM 18.08 64.544 0.32 7.8 7.34 7.73
6/23/2021 11:30:00 PM 17.91 64.238 0.32 7.75 6.93 7.76
6/23/2021 11:45:00 PM 17.76 63.968 0.321 7.75 4.22 7.82
6/24/2021 12:00:00 AM 17.61 63.698 0.322 7.73 4.22 7.85
6/24/2021 12:15:00 AM 17.47 63.446 0.323 7.7 4.2 7.84
6/24/2021 12:30:00 AM 17.33 63.194 0.323 7.66 5.75 7.88
6/24/2021 12:45:00 AM 17.21 62.978 0.324 7.68 4.21 7.88
6/24/2021 1:00:00 AM 17.09 62.762 0.324 7.67 4 7.9
6/24/2021 1:15:00 AM 16.97 62.546 0.325 7.63 4.3 7.93
6/24/2021 1:30:00 AM 16.86 62.348 0.325 7.65 4.17 7.94
6/24/2021 1:45:00 AM 16.75 62.15 0.325 7.64 3.8 7.97
6/24/2021 2:00:00 AM 16.65 61.97 0.326 7.64 4.93 7.97
6/24/2021 2:15:00 AM 16.54 61.772 0.326 7.63 4.62 8.02
6/24/2021 2:30:00 AM 16.44 61.592 0.326 7.63 4.07 8.03
6/24/2021 2:45:00 AM 16.34 61.412 0.326 7.63 4.49 8.1
6/24/2021 3:00:00 AM 16.23 61.214 0.326 7.62 4.18 8.09
6/24/2021 3:15:00 AM 16.14 61.052 0.326 7.61 9.03 8.06
6/24/2021 3:30:00 AM 16.04 60.872 0.326 7.6 3.94 8.16
6/24/2021 3:45:00 AM 15.94 60.692 0.326 7.61 4.98 8.21
6/24/2021 4:00:00 AM 15.84 60.512 0.325 7.56 3.94 8.23
6/24/2021 4:15:00 AM 15.74 60.332 0.325 7.58 4.17 8.26
6/24/2021 4:30:00 AM 15.64 60.152 0.325 7.58 4.55 8.3
6/24/2021 4:45:00 AM 15.55 59.99 0.325 7.54 4.33 8.31
6/24/2021 5:00:00 AM 15.46 59.828 0.325 7.57 3.81 8.35
6/24/2021 5:15:00 AM 15.36 59.648 0.325 7.54 4.08 8.39
6/24/2021 5:30:00 AM 15.27 59.486 0.325 7.56 3.71 8.44
6/24/2021 5:45:00 AM 15.17 59.306 0.325 7.56 3.88 8.46
6/24/2021 6:00:00 AM 15.08 59.144 0.325 7.56 4.53 8.49
6/24/2021 6:15:00 AM 15 59 0.325 7.53 13.76 8.46
6/24/2021 6:30:00 AM 14.92 58.856 0.325 7.55 15.86 8.54
6/24/2021 6:45:00 AM 14.85 58.73 0.325 7.56 13.78 8.65
6/24/2021 7:00:00 AM 14.8 58.64 0.325 7.57 17.32 8.74
6/24/2021 7:15:00 AM 14.76 58.568 0.325 7.58 17.45 8.89
6/24/2021 7:30:00 AM 14.73 58.514 0.325 7.59 13.96 9.01
6/24/2021 7:45:00 AM 14.7 58.46 0.325 7.6 12.7 9.14
6/24/2021 8:00:00 AM 14.69 58.442 0.325 7.64 19.21 9.32
6/24/2021 8:15:00 AM 14.69 58.442 0.325 7.62 13.13 9.37
6/24/2021 8:30:00 AM 14.7 58.46 0.325 7.66 14.96 9.46
6/24/2021 8:45:00 AM 14.74 58.532 0.325 7.69 6.42 9.59
6/24/2021 9:00:00 AM 14.83 58.694 0.325 7.7 9.71 9.72
6/24/2021 9:15:00 AM 14.95 58.91 0.325 7.75 10.61 9.88
6/24/2021 9:30:00 AM 15.1 59.18 0.326 7.76 5.18 9.97
6/24/2021 9:45:00 AM 15.32 59.576 0.326 7.8 4.1 10.19
6/24/2021 10:00:00 AM 15.47 59.846 0.326 7.84 3.1 10.32
6/24/2021 10:15:00 AM 15.68 60.224 0.327 7.88 3.33 10.45
6/24/2021 10:30:00 AM 15.58 60.044 0.327 7.88 3.54 10.54
6/24/2021 10:45:00 AM 15.57 60.026 0.327 7.89 3.39 10.57
6/24/2021 11:00:00 AM 15.6 60.08 0.327 7.91 3.82 10.51
6/24/2021 11:15:00 AM 15.71 60.278 0.327 7.93 3.29 10.57
6/24/2021 11:30:00 AM 15.84 60.512 0.327 7.96 3.21 10.63
6/24/2021 11:45:00 AM 16.04 60.872 0.327 8.01 3.21 10.64
6/24/2021 12:00:00 PM 16.19 61.142 0.327 8.04 3.24 10.73
6/24/2021 12:15:00 PM 16.51 61.718 0.327 8.08 3.78 10.9
6/24/2021 12:30:00 PM 16.83 62.294 0.327 8.16 3.95 11.27
6/24/2021 12:45:00 PM 17.15 62.87 0.327 8.21 4.4 11.5
6/24/2021 1:00:00 PM 17.45 63.41 0.327 8.28 3.64 11.58
6/24/2021 1:15:00 PM 17.78 64.004 0.328 8.35 3.88 11.61
6/24/2021 1:30:00 PM 18.12 64.616 0.327 8.41 3.97 11.69
6/24/2021 1:45:00 PM 18.32 64.976 0.328 8.43 4.17 11.55
6/24/2021 2:00:00 PM 18.45 65.21 0.329 8.43 4.09 11.55
6/24/2021 2:15:00 PM 18.61 65.498 0.329 8.46 5.29 11.59
6/24/2021 2:30:00 PM 18.75 65.75 0.329 8.44 4.69 11.69
6/24/2021 2:45:00 PM 18.43 65.174 0.33 8.46 5.16 12.12
6/24/2021 3:00:00 PM 19.25 66.65 0.33 8.56 5.29 12.22
6/24/2021 3:15:00 PM 18.71 65.67799 0.331 8.47 5 12.07
6/24/2021 3:30:00 PM 18.99 66.182 0.332 8.47 5.88 12
6/24/2021 3:45:00 PM 19.15 66.47 0.331 8.56 5.55 12.26
6/24/2021 4:00:00 PM 19.23 66.614 0.33 8.55 5.79 12.27
6/24/2021 4:15:00 PM 19.21 66.578 0.331 8.56 8.2 12.45
6/24/2021 4:30:00 PM 19.33 66.794 0.331 8.57 5.95 12.57
6/24/2021 4:45:00 PM 19.74 67.532 0.33 8.61 5.35 12.63
6/24/2021 5:00:00 PM 19.89 67.802 0.33 8.58 6.43 12.71
6/24/2021 5:15:00 PM 19.93 67.874 0.33 8.59 6.33 12.37
6/24/2021 5:30:00 PM 19.99 67.982 0.331 8.61 6.28 12.65
6/24/2021 5:45:00 PM 19.97 67.946 0.331 8.6 6.21 12.25
6/24/2021 6:00:00 PM 19.92 67.856 0.33 8.59 6.44 12.33
6/24/2021 6:15:00 PM 19.94 67.892 0.33 8.59 6.98 11.96
6/24/2021 6:30:00 PM 20.14 68.252 0.33 8.57 5.89 12.11
6/24/2021 6:45:00 PM 20.03 68.054 0.329 8.54 8.9 11.66
6/24/2021 7:00:00 PM 20.09 68.162 0.329 8.6 5.46 11.71
6/24/2021 7:15:00 PM 20.14 68.252 0.329 8.62 6.03 11.84
6/24/2021 7:30:00 PM 20.19 68.342 0.33 8.55 5.18 11.37
6/24/2021 7:45:00 PM 20.14 68.252 0.331 8.55 5.15 11.12
6/24/2021 8:00:00 PM 20.26 68.468 0.331 8.53 5.15 11.01
6/24/2021 8:15:00 PM 20.34 68.612 0.333 8.47 6.36 10.2
6/24/2021 8:30:00 PM 21 69.8 0.332 8.47 6.55 9.57
6/24/2021 8:45:00 PM 20.9 69.62 0.334 8.48 5.66 10.17
6/24/2021 9:00:00 PM 20.78 69.404 0.334 8.45 4.39 10.25
6/24/2021 9:15:00 PM 20.88 69.584 0.334 8.37 4.18 8.88
6/24/2021 9:30:00 PM 20.95 69.71 0.334 8.27 4.65 8.03
6/24/2021 9:45:00 PM 20.93 69.674 0.334 8.18 4.19 7.43
6/24/2021 10:00:00 PM 20.82 69.476 0.334 8.08 5.33 6.92
6/24/2021 10:15:00 PM 20.67 69.206 0.335 7.99 4.48 6.78
6/24/2021 10:30:00 PM 20.52 68.936 0.336 7.92 4.51 6.71
6/24/2021 10:45:00 PM 20.36 68.648 0.336 7.88 4.67 6.74
6/24/2021 11:00:00 PM 20.21 68.378 0.337 7.84 4.57 6.73
6/24/2021 11:15:00 PM 20.06 68.108 0.337 7.8 4.49 6.78
6/24/2021 11:30:00 PM 19.92 67.856 0.337 7.76 4.26 6.81
6/24/2021 11:45:00 PM 19.76 67.568 0.338 7.72 4.31 6.82
6/25/2021 12:00:00 AM 19.62 67.316 0.338 7.71 4.21 6.87
6/25/2021 12:15:00 AM 19.47 67.046 0.338 7.68 4.14 6.9
6/25/2021 12:30:00 AM 19.34 66.812 0.338 7.67 3.99 6.93
6/25/2021 12:45:00 AM 19.19 66.542 0.338 7.65 4.6 6.95
6/25/2021 1:00:00 AM 19.06 66.308 0.338 7.63 4.27 6.95
6/25/2021 1:15:00 AM 18.92 66.056 0.338 7.63 4 7.02
6/25/2021 1:30:00 AM 18.79 65.82201 0.339 7.62 4.13 7.04
6/25/2021 1:45:00 AM 18.66 65.588 0.339 7.61 4.53 7.1
6/25/2021 2:00:00 AM 18.54 65.372 0.339 7.6 4.69 7.13
6/25/2021 2:15:00 AM 18.41 65.138 0.339 7.6 4.73 7.16
6/25/2021 2:30:00 AM 18.28 64.904 0.339 7.59 5.25 7.16
6/25/2021 2:45:00 AM 18.17 64.706 0.34 7.59 4.41 7.25
6/25/2021 3:00:00 AM 18.05 64.49 0.34 7.59 4.67 7.3
6/25/2021 3:15:00 AM 17.93 64.274 0.341 7.58 4.35 7.35
6/25/2021 3:30:00 AM 17.82 64.076 0.341 7.58 4.35 7.37
6/25/2021 3:45:00 AM 17.71 63.878 0.341 7.58 4.23 7.41
6/25/2021 4:00:00 AM 17.61 63.698 0.342 7.58 4.54 7.46
6/25/2021 4:15:00 AM 17.51 63.518 0.343 7.58 5.09 7.48
6/25/2021 4:30:00 AM 17.4 63.32 0.343 7.59 5.45 7.5
6/25/2021 4:45:00 AM 17.3 63.14 0.344 7.57 4.64 7.54
6/25/2021 5:00:00 AM 17.2 62.96 0.344 7.58 4.92 7.57
6/25/2021 5:15:00 AM 17.1 62.78 0.344 7.57 5.56 7.56
6/25/2021 5:30:00 AM 17.01 62.618 0.344 7.57 8.08 7.63
6/25/2021 5:45:00 AM 16.91 62.438 0.344 7.58 4.4 7.73
6/25/2021 6:00:00 AM 16.83 62.294 0.344 7.57 4.12 7.76
6/25/2021 6:15:00 AM 16.76 62.168 0.344 7.57 4 7.81
6/25/2021 6:30:00 AM 16.68 62.024 0.344 7.58 7.63 7.86
6/25/2021 6:45:00 AM 16.62 61.916 0.344 7.58 4.55 8.03
6/25/2021 7:00:00 AM 16.57 61.826 0.344 7.57 10.75 8.08
6/25/2021 7:15:00 AM 16.55 61.79 0.344 7.58 11.2 8.31
6/25/2021 7:30:00 AM 16.54 61.772 0.344 7.6 9.53 8.49
6/25/2021 7:45:00 AM 16.54 61.772 0.343 7.62 9.74 8.62
6/25/2021 8:00:00 AM 16.56 61.808 0.342 7.64 5.8 8.92
6/25/2021 8:15:00 AM 16.59 61.862 0.341 7.69 8.02 9.15
6/25/2021 8:30:00 AM 16.65 61.97 0.341 7.72 9.85 9.37
6/25/2021 8:45:00 AM 16.71 62.078 0.341 7.75 10.61 9.57
6/25/2021 9:00:00 AM 16.78 62.204 0.341 7.8 9.65 9.77
6/25/2021 9:15:00 AM 16.88 62.384 0.341 7.82 9.49 9.94
6/25/2021 9:30:00 AM 16.99 62.582 0.34 7.87 5.56 10.08
6/25/2021 9:45:00 AM 17.13 62.834 0.34 7.89 6.8 10.22
6/25/2021 10:00:00 AM 17.24 63.032 0.34 7.89 4.82 10.15
6/25/2021 10:15:00 AM 17.35 63.23 0.34 7.94 12.4 10.51
6/25/2021 10:30:00 AM 17.26 63.068 0.339 7.97 6.27 10.55
6/25/2021 10:45:00 AM 17.34 63.212 0.339 7.98 4.57 10.57
6/25/2021 11:00:00 AM 17.37 63.266 0.339 7.99 4.9 10.5
6/25/2021 11:15:00 AM 17.5 63.5 0.339 8.03 5.64 10.66
6/25/2021 11:30:00 AM 17.59 63.662 0.339 8.03 11.42 10.74
6/25/2021 11:45:00 AM 17.76 63.968 0.339 8.04 14.97 10.74
6/25/2021 12:00:00 PM 17.78 64.004 0.339 8.11 4.19 10.81
6/25/2021 12:15:00 PM 17.95 64.31 0.339 8.12 16.1 10.9
6/25/2021 12:30:00 PM 18.25 64.85 0.339 8.17 5.4 11.04
6/25/2021 12:45:00 PM 18.44 65.192 0.339 8.18 6.49 11.18
6/25/2021 1:00:00 PM 18.54 65.372 0.339 8.19 4.8 11.29
6/25/2021 1:15:00 PM 18.7 65.66 0.339 8.25 6.11 11.59
6/25/2021 1:30:00 PM 19.01 66.218 0.339 8.33 5.05 11.66
6/25/2021 1:45:00 PM 18.78 65.804 0.339 8.33 5.64 11.99
6/25/2021 2:00:00 PM 19.08 66.344 0.339 8.36 4.49 11.89
6/25/2021 2:15:00 PM 19.39 66.902 0.339 8.4 6.12 12.04
6/25/2021 2:30:00 PM 18.85 65.93 0.339 8.38 4.76 12.08
6/25/2021 2:45:00 PM 19.18 66.524 0.337 8.38 4.77 11.91
6/25/2021 3:00:00 PM 19.36 66.848 0.34 8.41 4.67 12
6/25/2021 3:15:00 PM 19.17 66.506 0.341 8.36 7.46 11.87
6/25/2021 3:30:00 PM 19.42 66.956 0.34 8.4 5.05 11.84
6/25/2021 3:45:00 PM 19.76 67.568 0.341 8.45 5.33 12.05
6/25/2021 4:00:00 PM 19.48 67.064 0.34 8.43 4.77 12.06
6/25/2021 4:15:00 PM 19.98 67.964 0.34 8.47 9.09 12.11
6/25/2021 4:30:00 PM 20.09 68.162 0.34 8.5 5.54 12.28
6/25/2021 4:45:00 PM 19.73 67.514 0.34 8.47 5.26 12.26
6/25/2021 5:00:00 PM 19.96 67.92799 0.34 8.48 6.54 12.07
6/25/2021 5:15:00 PM 20 68 0.34 8.49 6.11 12.41
6/25/2021 5:30:00 PM 20.02 68.036 0.34 8.51 9.22 12.48
6/25/2021 5:45:00 PM 20.4 68.72 0.34 8.52 7.97 12.55
6/25/2021 6:00:00 PM 20.04 68.07201 0.34 8.48 12.19 12.38
6/25/2021 6:15:00 PM 20.07 68.126 0.34 8.48 9.3 12.31
6/25/2021 6:30:00 PM 20.22 68.396 0.34 8.48 7.86 12.25
6/25/2021 6:45:00 PM 20.3 68.54 0.34 8.47 10.45 12.09
6/25/2021 7:00:00 PM 20.14 68.252 0.339 8.43 10.95 11.87
6/25/2021 7:15:00 PM 20.3 68.54 0.339 8.46 9.48 11.74
6/25/2021 7:30:00 PM 20.3 68.54 0.337 8.43 7.91 11.4
6/25/2021 7:45:00 PM 20.25 68.45 0.338 8.4 6.81 11.29
6/25/2021 8:00:00 PM 20.25 68.45 0.338 8.42 7.02 10.86
6/25/2021 8:15:00 PM 20.18 68.324 0.338 8.3 7.87 10.94
6/25/2021 8:30:00 PM 20.22 68.396 0.337 8.34 7.45 10.69
6/25/2021 8:45:00 PM 20.13 68.234 0.337 8.33 10.64 10.36
6/25/2021 9:00:00 PM 20.1 68.18 0.336 8.24 7.6 10.01
6/25/2021 9:15:00 PM 20.06 68.108 0.336 8.23 10.09 10.07
6/25/2021 9:30:00 PM 20.07 68.126 0.334 8.19 9.21 9.6
6/25/2021 9:45:00 PM 19.98 67.964 0.334 8.09 6.11 9.49
6/25/2021 10:00:00 PM 19.93 67.874 0.334 8.14 7.02 9.33
6/25/2021 10:15:00 PM 19.86 67.748 0.334 8.16 6.58 9.62
6/25/2021 10:30:00 PM 19.84 67.712 0.332 8.22 5.25 10.03
6/25/2021 10:45:00 PM 19.81 67.658 0.331 8.19 11.91 9.8
6/25/2021 11:00:00 PM 19.79 67.622 0.33 8.15 6.82 9.82
6/25/2021 11:15:00 PM 19.73 67.514 0.329 8.14 6.44 9.67
6/25/2021 11:30:00 PM 19.67 67.406 0.328 8.1 5.92 9.41
6/25/2021 11:45:00 PM 19.64 67.352 0.327 8.05 6.33 9.15
6/26/2021 12:00:00 AM 19.71 67.478 0.327 7.99 5.65 9.06
6/26/2021 12:15:00 AM 19.54 67.172 0.327 8.01 6.42 9.17
6/26/2021 12:30:00 AM 19.58 67.244 0.326 7.95 6.03 8.9
6/26/2021 12:45:00 AM 19.52 67.136 0.327 7.92 6.56 8.86
6/26/2021 1:00:00 AM 19.31 66.758 0.325 7.99 5.88 9.26
6/26/2021 1:15:00 AM 19.4 66.92 0.325 7.9 5.4 9.06
6/26/2021 1:30:00 AM 19.53 67.154 0.329 7.79 6.84 8.31
6/26/2021 1:45:00 AM 19.44 66.992 0.328 7.72 6.64 7.72
6/26/2021 2:00:00 AM 19.66 67.388 0.33 7.64 5.68 7.16
6/26/2021 2:15:00 AM 19.91 67.838 0.335 7.57 5.76 6.71
6/26/2021 2:30:00 AM 19.86 67.748 0.339 7.59 5.78 6.74
6/26/2021 2:45:00 AM 19.84 67.712 0.34 7.59 5.39 6.75
6/26/2021 3:00:00 AM 19.78 67.604 0.342 7.58 5.52 6.71
6/26/2021 3:15:00 AM 19.72 67.496 0.342 7.58 5.6 6.76
6/26/2021 3:30:00 AM 19.67 67.406 0.343 7.58 6.71 6.66
6/26/2021 3:45:00 AM 19.61 67.298 0.344 7.58 4.98 6.8
6/26/2021 4:00:00 AM 19.53 67.154 0.344 7.57 5.16 6.85
6/26/2021 4:15:00 AM 19.46 67.028 0.345 7.58 6.19 6.86
6/26/2021 4:30:00 AM 19.38 66.884 0.346 7.57 6.21 6.91
6/26/2021 4:45:00 AM 19.29 66.722 0.346 7.56 5.14 6.88
6/26/2021 5:00:00 AM 19.23 66.614 0.346 7.57 4.74 6.98
6/26/2021 5:15:00 AM 19.16 66.488 0.346 7.57 6.51 6.96
6/26/2021 5:30:00 AM 19.09 66.362 0.347 7.57 5.11 7.01
6/26/2021 5:45:00 AM 19.04 66.272 0.348 7.57 5.5 7.02
6/26/2021 6:00:00 AM 18.99 66.182 0.348 7.56 10.7 6.96
6/26/2021 6:15:00 AM 18.94 66.092 0.349 7.56 6.06 7.03
6/26/2021 6:30:00 AM 18.87 65.966 0.349 7.58 5.36 7.15
6/26/2021 6:45:00 AM 18.85 65.93 0.35 7.59 4.94 7.24
6/26/2021 7:00:00 AM 18.82 65.876 0.35 7.58 4.68 7.31
6/26/2021 7:15:00 AM 18.82 65.876 0.351 7.6 4.74 7.41
6/26/2021 7:30:00 AM 18.81 65.858 0.351 7.6 4.85 7.54
6/26/2021 7:45:00 AM 18.82 65.876 0.351 7.63 5.66 7.65
6/26/2021 8:00:00 AM 18.82 65.876 0.352 7.63 5.05 7.75
6/26/2021 8:15:00 AM 18.85 65.93 0.352 7.65 4.71 7.92
6/26/2021 8:30:00 AM 18.89 66.002 0.352 7.68 4.76 8.16
6/26/2021 8:45:00 AM 18.94 66.092 0.352 7.71 4.67 8.46
6/26/2021 9:00:00 AM 18.99 66.182 0.352 7.74 4.91 8.61
6/26/2021 9:15:00 AM 19.01 66.218 0.351 7.74 5.32 8.49
6/26/2021 9:30:00 AM 18.76 65.768 0.347 7.63 7.36 7.83
6/26/2021 9:45:00 AM 18.74 65.732 0.343 7.63 6.35 7.85
6/26/2021 10:00:00 AM 18.73 65.714 0.341 7.6 6.93 7.92
6/26/2021 10:15:00 AM 18.81 65.858 0.342 7.65 6.04 8.01
6/26/2021 10:30:00 AM 18.85 65.93 0.342 7.67 6.07 8.1
6/26/2021 10:45:00 AM 18.94 66.092 0.343 7.69 5.86 8.33
6/26/2021 11:00:00 AM 19.04 66.272 0.343 7.73 9.13 8.75
6/26/2021 11:15:00 AM 19.15 66.47 0.344 7.77 6.98 8.81
6/26/2021 11:30:00 AM 19.17 66.506 0.345 7.76 9.15 9.05
6/26/2021 11:45:00 AM 19.24 66.632 0.344 7.8 6.76 9.24
6/26/2021 12:00:00 PM 19.39 66.902 0.345 7.84 8.18 9.41
6/26/2021 12:15:00 PM 19.6 67.28 0.346 7.91 6.92 9.84
6/26/2021 12:30:00 PM 19.79 67.622 0.346 7.94 7.49 10.09
6/26/2021 12:45:00 PM 20.06 68.108 0.347 8.01 8.19 10.36
6/26/2021 1:00:00 PM 20.18 68.324 0.347 8.04 7.59 10.4
6/26/2021 1:15:00 PM 20.39 68.702 0.348 8.12 6.71 10.63
6/26/2021 1:30:00 PM 20.15 68.27 0.348 8.04 9.54 10.39
6/26/2021 1:45:00 PM 20.49 68.882 0.348 8.14 6.92 10.61
6/26/2021 2:00:00 PM 20.97 69.746 0.349 8.24 7.54 11.01
6/26/2021 2:15:00 PM 20.15 68.27 0.349 8.09 9.67 10.84
6/26/2021 2:30:00 PM 20.33 68.594 0.348 8.1 7.89 10.82
6/26/2021 2:45:00 PM 20.57 69.026 0.349 8.18 7.58 11.07
6/26/2021 3:00:00 PM 20.37 68.666 0.348 8.18 6.27 10.95
6/26/2021 3:15:00 PM 20.82 69.476 0.349 8.26 6.1 11.24
6/26/2021 3:30:00 PM 20.79 69.422 0.349 8.24 5.86 11.3
6/26/2021 3:45:00 PM 21.01 69.818 0.35 8.28 6.09 11.3
6/26/2021 4:00:00 PM 20.94 69.692 0.35 8.24 8.29 11.19
6/26/2021 4:15:00 PM 20.88 69.584 0.349 8.26 6.7 11.46
6/26/2021 4:30:00 PM 21.3 70.34 0.35 8.3 7.6 11.62
6/26/2021 4:45:00 PM 20.98 69.764 0.35 8.21 11.42 11.31
6/26/2021 5:00:00 PM 20.84 69.512 0.35 8.27 7.86 11.53
6/26/2021 5:15:00 PM 21.07 69.926 0.349 8.29 7.85 11.54
6/26/2021 5:30:00 PM 21.45 70.61 0.349 8.36 14.31 11.55
6/26/2021 5:45:00 PM 21.3 70.34 0.348 8.3 16.88 11.64
6/26/2021 6:00:00 PM 21.35 70.43 0.349 8.29 7.95 11.44
6/26/2021 6:15:00 PM 21.15 70.07 0.348 8.23 9.41 11.35
6/26/2021 6:30:00 PM 21.43 70.574 0.348 8.29 7.3 11.21
6/26/2021 6:45:00 PM 21.42 70.556 0.348 8.2 10.98 11.01
6/26/2021 7:00:00 PM 21.31 70.358 0.348 8.17 9.22 10.51
6/26/2021 7:15:00 PM 21.25 70.25 0.348 8.09 10.07 10.37
6/26/2021 7:30:00 PM 21.43 70.574 0.348 8.11 10.09 10.43
6/26/2021 7:45:00 PM 21.32 70.376 0.348 8.06 9.48 9.99
6/26/2021 8:00:00 PM 21.44 70.592 0.348 8.07 9.78 9.97
6/26/2021 8:15:00 PM 21.39 70.502 0.348 7.99 10.83 9.51
6/26/2021 8:30:00 PM 21.38 70.484 0.349 7.96 10.15 9.28
6/26/2021 8:45:00 PM 21.4 70.52 0.348 7.93 9.74 8.86
6/26/2021 9:00:00 PM 21.34 70.412 0.349 7.83 9.49 8.43
6/26/2021 9:15:00 PM 21.31 70.358 0.349 7.83 10.69 8.35
6/26/2021 9:30:00 PM 21.29 70.32201 0.35 7.82 10.35 8.25
6/26/2021 9:45:00 PM 21.23 70.214 0.349 7.86 8.78 8.02
6/26/2021 10:00:00 PM 21.19 70.142 0.349 7.8 8.25 8.06
6/26/2021 10:15:00 PM 21.17 70.106 0.348 7.87 7.85 8.24
6/26/2021 10:30:00 PM 21.18 70.124 0.347 7.85 7.82 7.94
6/26/2021 10:45:00 PM 21.14 70.052 0.346 7.77 10.04 7.63
6/26/2021 11:00:00 PM 21.11 69.998 0.346 7.81 10.31 7.35
6/26/2021 11:15:00 PM 21.07 69.926 0.345 7.75 11.29 7.36
6/26/2021 11:30:00 PM 21.02 69.836 0.343 7.69 10.02 7.13
6/26/2021 11:45:00 PM 20.99 69.782 0.341 7.7 8.91 6.83
6/27/2021 12:00:00 AM 20.93 69.674 0.339 7.62 10 6.33
6/27/2021 12:15:00 AM 20.91 69.638 0.336 7.66 9.88 6.73
6/27/2021 12:30:00 AM 20.89 69.602 0.335 7.65 9.57 6.71
6/27/2021 12:45:00 AM 20.77 69.386 0.332 7.75 9.66 7.51
6/27/2021 1:00:00 AM 20.74 69.332 0.33 7.71 9.27 7.29
6/27/2021 1:15:00 AM 20.73 69.314 0.329 7.67 7.92 6.94
6/27/2021 1:30:00 AM 20.75 69.35 0.328 7.63 8.22 6.39
6/27/2021 1:45:00 AM 20.7 69.26 0.328 7.59 9.6 6.19
6/27/2021 2:00:00 AM 20.69 69.242 0.327 7.54 9.43 6.1
6/27/2021 2:15:00 AM 20.64 69.152 0.327 7.54 10.49 6
6/27/2021 2:30:00 AM 20.66 69.188 0.327 7.53 8.69 6.07
6/27/2021 2:45:00 AM 20.59 69.062 0.327 7.51 10.31 6.22
6/27/2021 3:00:00 AM 20.62 69.116 0.328 7.5 9.08 6.09
6/27/2021 3:15:00 AM 20.57 69.026 0.329 7.51 9.13 6.16
6/27/2021 3:30:00 AM 20.57 69.026 0.33 7.5 8.86 6.12
6/27/2021 3:45:00 AM 20.82 69.476 0.335 7.51 8.12 6.02
6/27/2021 4:00:00 AM 20.81 69.458 0.338 7.5 7.21 5.92
6/27/2021 4:15:00 AM 20.78 69.404 0.34 7.5 8.48 5.8
6/27/2021 4:30:00 AM 20.87 69.566 0.342 7.51 6.01 6.03
6/27/2021 4:45:00 AM 20.9 69.62 0.345 7.53 5.78 6.17
6/27/2021 5:00:00 AM 20.86 69.548 0.347 7.52 7.2 6.11
6/27/2021 5:15:00 AM 20.82 69.476 0.349 7.5 7.28 6.28
6/27/2021 5:30:00 AM 20.77 69.386 0.35 7.52 6.9 6.32
6/27/2021 5:45:00 AM 20.71 69.278 0.352 7.52 8 6.25
6/27/2021 6:00:00 AM 20.64 69.152 0.353 7.52 8.03 6.16
6/27/2021 6:15:00 AM 20.57 69.026 0.353 7.52 6.71 6.41
6/27/2021 6:30:00 AM 20.51 68.918 0.354 7.53 5.61 6.49
6/27/2021 6:45:00 AM 20.44 68.792 0.355 7.54 7.81 6.63
6/27/2021 7:00:00 AM 20.4 68.72 0.355 7.55 5.67 6.74
6/27/2021 7:15:00 AM 20.36 68.648 0.356 7.56 5.19 6.86
6/27/2021 7:30:00 AM 20.33 68.594 0.356 7.57 4.85 7.06
6/27/2021 7:45:00 AM 20.34 68.612 0.357 7.59 4.99 7.28
6/27/2021 8:00:00 AM 20.35 68.63 0.357 7.61 4.79 7.51
6/27/2021 8:15:00 AM 20.37 68.666 0.357 7.63 4.63 7.73
6/27/2021 8:30:00 AM 20.4 68.72 0.358 7.65 4.73 7.83
6/27/2021 8:45:00 AM 20.42 68.756 0.358 7.65 5.35 8.01
6/27/2021 9:00:00 AM 20.46 68.828 0.359 7.7 5.6 8.33
6/27/2021 9:15:00 AM 20.4 68.72 0.358 7.64 8.53 7.53
6/27/2021 9:30:00 AM 20.31 68.558 0.355 7.61 8.38 7.48
6/27/2021 9:45:00 AM 20.28 68.504 0.352 7.61 6.62 7.63
6/27/2021 10:00:00 AM 20.37 68.666 0.351 7.64 6.14 7.94
6/27/2021 10:15:00 AM 20.39 68.702 0.35 7.66 6.49 8.05
6/27/2021 10:30:00 AM 20.47 68.846 0.35 7.67 6.54 8.19
6/27/2021 10:45:00 AM 20.61 69.098 0.35 7.69 7.64 8.31
6/27/2021 11:00:00 AM 20.72 69.296 0.351 7.72 9.51 8.48
6/27/2021 11:15:00 AM 20.91 69.638 0.353 7.76 7.16 8.8
6/27/2021 11:30:00 AM 20.85 69.53 0.354 7.77 8.15 8.75
6/27/2021 11:45:00 AM 20.97 69.746 0.355 7.78 6.92 8.91
6/27/2021 12:00:00 PM 21.13 70.034 0.356 7.82 6.84 9.15
6/27/2021 12:15:00 PM 21.28 70.304 0.357 7.84 7.31 9.21
6/27/2021 12:30:00 PM 21.43 70.574 0.359 7.83 8.1 9.27
6/27/2021 12:45:00 PM 21.53 70.754 0.359 7.86 7.03 9.24
6/27/2021 1:00:00 PM 21.71 71.078 0.36 7.92 6.54 9.59
6/27/2021 1:15:00 PM 21.77 71.186 0.361 7.88 9.04 9.45
6/27/2021 1:30:00 PM 21.54 70.772 0.36 7.92 7.37 9.66
6/27/2021 1:45:00 PM 21.89 71.402 0.361 7.96 7.65 9.75
6/27/2021 2:00:00 PM 21.99 71.582 0.361 7.98 18.32 9.93
6/27/2021 2:15:00 PM 22.21 71.978 0.361 8.03 8.11 9.93
6/27/2021 2:30:00 PM 21.85 71.33 0.361 8 8.68 9.93
6/27/2021 2:45:00 PM 22.07 71.726 0.361 8.03 7.33 10.05
6/27/2021 3:00:00 PM 22.13 71.834 0.36 8.02 7.68 10.07
6/27/2021 3:15:00 PM 22.42 72.356 0.36 8.04 9.56 10.15
6/27/2021 3:30:00 PM 22.41 72.338 0.36 8.02 12.66 10.17
6/27/2021 3:45:00 PM 22.64 72.752 0.359 8.03 10.61 10.24
6/27/2021 4:00:00 PM 22.21 71.978 0.358 8.04 7.74 10.36
6/27/2021 4:15:00 PM 22.32 72.176 0.359 8.06 8.98 10.56
6/27/2021 4:30:00 PM 22.55 72.59 0.357 8.07 8.51 10.5
6/27/2021 4:45:00 PM 22.75 72.95 0.357 8.08 8.18 10.68
6/27/2021 5:00:00 PM 22.51 72.518 0.357 8.04 11.52 10.47
6/27/2021 5:15:00 PM 22.48 72.464 0.357 8.01 13.2 10.38
6/27/2021 5:30:00 PM 22.25 72.05 0.357 8.03 12.02 10.36
6/27/2021 5:45:00 PM 22.65 72.77 0.356 8.03 9.16 10.07
6/27/2021 6:00:00 PM 22.77 72.986 0.355 7.99 8.87 9.96
6/27/2021 6:15:00 PM 22.79 73.022 0.355 7.97 9.67 9.75
6/27/2021 6:30:00 PM 22.56 72.608 0.356 7.88 12.32 8.93
6/27/2021 6:45:00 PM 22.7 72.86 0.355 7.93 10.71 9.19
6/27/2021 7:00:00 PM 23.02 73.436 0.355 7.95 9.21 9.41
6/27/2021 7:15:00 PM 22.58 72.644 0.355 7.79 12.43 8.48
6/27/2021 7:30:00 PM 22.59 72.662 0.355 7.81 12.01 8.42
6/27/2021 7:45:00 PM 22.67 72.806 0.355 7.84 9.16 8.5
6/27/2021 8:00:00 PM 22.8 73.04 0.354 7.87 11.84 8.57
6/27/2021 8:15:00 PM 22.78 73.004 0.355 7.76 10.49 7.96
6/27/2021 8:30:00 PM 22.8 73.04 0.355 7.75 11.26 7.98
6/27/2021 8:45:00 PM 22.79 73.022 0.355 7.71 10.79 7.33
6/27/2021 9:00:00 PM 22.71 72.878 0.355 7.64 11.41 6.96
6/27/2021 9:15:00 PM 22.74 72.932 0.355 7.62 9.34 6.58
6/27/2021 9:30:00 PM 22.71 72.878 0.355 7.63 10.22 6.52
6/27/2021 9:45:00 PM 22.63 72.734 0.355 7.54 10.49 5.79
6/27/2021 10:00:00 PM 22.68 72.824 0.355 7.58 9.87 6.15
6/27/2021 10:15:00 PM 22.68 72.824 0.354 7.51 11.97 5.94
6/27/2021 10:30:00 PM 22.65 72.77 0.355 7.5 11.23 5.44
6/27/2021 10:45:00 PM 22.6 72.68 0.355 7.46 12.41 5.34
6/27/2021 11:00:00 PM 22.55 72.59 0.355 7.48 11.7 5.28
6/27/2021 11:15:00 PM 22.52 72.536 0.355 7.51 12.18 5.27
6/27/2021 11:30:00 PM 22.47 72.446 0.355 7.52 10.95 5.26
6/27/2021 11:45:00 PM 22.38 72.284 0.353 7.47 10.77 5.69
6/28/2021 12:00:00 AM 22.32 72.176 0.351 7.5 9.43 5.72
6/28/2021 12:15:00 AM 22.27 72.086 0.349 7.48 13.77 5.71
6/28/2021 12:30:00 AM 22.2 71.96 0.348 7.53 14.57 6.58
6/28/2021 12:45:00 AM 22.17 71.906 0.347 7.5 10.1 6.18
6/28/2021 1:00:00 AM 22.08 71.744 0.347 7.54 12.26 6.79
6/28/2021 1:15:00 AM 22 71.6 0.346 7.56 9.86 6.81
6/28/2021 1:30:00 AM 21.93 71.474 0.346 7.56 9.15 6.62
6/28/2021 1:45:00 AM 21.86 71.348 0.345 7.56 8.64 6.52
6/28/2021 2:00:00 AM 21.75 71.15 0.344 7.53 8.86 6.46
6/28/2021 2:15:00 AM 21.74 71.132 0.343 7.5 7.77 6.27
6/28/2021 2:30:00 AM 21.67 71.006 0.343 7.46 9.67 5.86
6/28/2021 2:45:00 AM 21.61 70.898 0.342 7.46 8.25 5.8
6/28/2021 3:00:00 AM 21.63 70.934 0.343 7.43 9.84 5.34
6/28/2021 3:15:00 AM 21.58 70.844 0.345 7.42 14.21 5.18
6/28/2021 3:30:00 AM 21.59 70.862 0.345 7.39 10 5.23
6/28/2021 3:45:00 AM 21.62 70.916 0.346 7.42 7.39 5.27
6/28/2021 4:00:00 AM 21.69 71.042 0.35 7.45 8.49 5.25
6/28/2021 4:15:00 AM 21.67 71.006 0.355 7.47 7.58 5.65
6/28/2021 4:30:00 AM 21.61 70.898 0.359 7.49 7.1 5.88
6/28/2021 4:45:00 AM 21.52 70.736 0.361 7.48 8.12 5.91
6/28/2021 5:00:00 AM 21.43 70.574 0.363 7.49 8.55 6.03
6/28/2021 5:15:00 AM 21.35 70.43 0.364 7.48 7.03 6.03
6/28/2021 5:30:00 AM 21.25 70.25 0.365 7.49 6.9 6.1
6/28/2021 5:45:00 AM 21.17 70.106 0.366 7.49 7.67 6.07
6/28/2021 6:00:00 AM 21.08 69.944 0.367 7.5 7 6.21
6/28/2021 6:15:00 AM 21 69.8 0.368 7.5 7.62 6.25
6/28/2021 6:30:00 AM 20.93 69.674 0.368 7.5 6.52 6.34
6/28/2021 6:45:00 AM 20.86 69.548 0.369 7.5 7.11 6.32
6/28/2021 7:00:00 AM 20.81 69.458 0.369 7.5 7.31 6.4
6/28/2021 7:15:00 AM 20.75 69.35 0.37 7.51 17.4 6.45
6/28/2021 7:30:00 AM 20.72 69.296 0.37 7.51 8.54 6.51
6/28/2021 7:45:00 AM 20.71 69.278 0.37 7.52 6.26 6.79
6/28/2021 8:00:00 AM 20.7 69.26 0.371 7.55 6.25 7.02
6/28/2021 8:15:00 AM 20.69 69.242 0.371 7.54 6.42 7.09
6/28/2021 8:30:00 AM 20.7 69.26 0.371 7.55 6.52 7.17
6/28/2021 8:45:00 AM 20.73 69.314 0.371 7.55 7.88 7.19
6/28/2021 9:00:00 AM 20.77 69.386 0.371 7.59 6.5 7.4
6/28/2021 9:15:00 AM 20.7 69.26 0.369 7.52 10.68 6.94
6/28/2021 9:30:00 AM 20.66 69.188 0.366 7.51 11.35 6.8
6/28/2021 9:45:00 AM 20.74 69.332 0.364 7.48 11.69 7.04
6/28/2021 10:00:00 AM 20.8 69.44 0.363 7.53 19.5 7.06
6/28/2021 10:15:00 AM 20.91 69.638 0.363 7.57 9.62 7.33
6/28/2021 10:30:00 AM 20.96 69.728 0.364 7.59 8.86 7.49
6/28/2021 10:45:00 AM 21.02 69.836 0.363 7.57 9.5 7.62
6/28/2021 11:00:00 AM 21.21 70.17799 0.365 7.59 8.89 7.54
6/28/2021 11:15:00 AM 21.31 70.358 0.366 7.62 9.12 7.64
6/28/2021 11:30:00 AM 21.36 70.448 0.367 7.62 11.05 7.76
6/28/2021 11:45:00 AM 21.38 70.484 0.367 7.62 8.96 7.84
6/28/2021 12:00:00 PM 21.63 70.934 0.367 7.65 8.18 7.91
6/28/2021 12:15:00 PM 21.83 71.294 0.368 7.68 8.3 8.22
6/28/2021 12:30:00 PM 21.95 71.51 0.369 7.69 8.87 8.28
6/28/2021 12:45:00 PM 21.78 71.204 0.369 7.65 13.94 8.3
6/28/2021 1:00:00 PM 22.02 71.636 0.369 7.67 17.56 8.13
6/28/2021 1:15:00 PM 22.08 71.744 0.369 7.7 11.96 8.4
6/28/2021 1:30:00 PM 22.17 71.906 0.37 7.72 12.42 8.51
6/28/2021 1:45:00 PM 22.02 71.636 0.369 7.71 11.58 8.4
6/28/2021 2:00:00 PM 22.44 72.392 0.37 7.74 11.71 8.67
6/28/2021 2:15:00 PM 22.18 71.924 0.369 7.75 9.4 8.77
6/28/2021 2:30:00 PM 22.49 72.482 0.37 7.78 10.15 8.77
6/28/2021 2:45:00 PM 22.57 72.626 0.369 7.78 9.52 8.81
6/28/2021 3:00:00 PM 22.46 72.42799 0.37 7.75 13.84 8.72
6/28/2021 3:15:00 PM 22.75 72.95 0.369 7.81 9.77 9.12
6/28/2021 3:30:00 PM 23.01 73.418 0.372 7.79 13.94 8.98
6/28/2021 3:45:00 PM 22.35 72.23 0.369 7.74 9.04 8.66
6/28/2021 4:00:00 PM 22.77 72.986 0.37 7.78 9.12 8.83
6/28/2021 4:15:00 PM 22.89 73.202 0.37 7.76 9.4 8.95
6/28/2021 4:30:00 PM 22.91 73.238 0.37 7.76 11.58 8.82
6/28/2021 4:45:00 PM 22.87 73.166 0.371 7.7 14.05 8.36
6/28/2021 5:00:00 PM 22.7 72.86 0.37 7.75 10.82 9.1
6/28/2021 5:15:00 PM 22.84 73.112 0.369 7.73 11.11 8.58
6/28/2021 5:30:00 PM 23.03 73.454 0.37 7.76 12.01 8.87
6/28/2021 5:45:00 PM 22.89 73.202 0.37 7.69 14.67 8.63
6/28/2021 6:00:00 PM 22.96 73.328 0.37 7.67 13.38 8.19
6/28/2021 6:15:00 PM 22.97 73.346 0.37 7.65 14.11 8.16
6/28/2021 6:30:00 PM 23.03 73.454 0.37 7.67 13.6 7.82
6/28/2021 6:45:00 PM 23.08 73.544 0.37 7.63 11.93 8.04
6/28/2021 7:00:00 PM 23.13 73.634 0.37 7.63 13.67 7.63
6/28/2021 7:15:00 PM 22.88 73.184 0.37 7.53 18.18 7.02
6/28/2021 7:30:00 PM 23.23 73.814 0.37 7.66 12.76 8
6/28/2021 7:45:00 PM 22.91 73.238 0.37 7.56 15.38 7.31
6/28/2021 8:00:00 PM 23 73.4 0.37 7.56 14.41 7.45
6/28/2021 8:15:00 PM 23.1 73.58 0.369 7.57 13.1 7.32
6/28/2021 8:30:00 PM 22.9 73.22 0.369 7.49 18.35 6.36
6/28/2021 8:45:00 PM 22.93 73.274 0.369 7.53 16.35 6.82
6/28/2021 9:00:00 PM 22.91 73.238 0.368 7.5 15.41 6.55
6/28/2021 9:15:00 PM 22.87 73.166 0.368 7.51 17.28 6.67
6/28/2021 9:30:00 PM 22.84 73.112 0.368 7.48 14.17 6.33
6/28/2021 9:45:00 PM 22.82 73.076 0.368 7.5 15.26 6.01
6/28/2021 10:00:00 PM 22.82 73.076 0.368 7.53 13.64 6.23
6/28/2021 10:15:00 PM 22.79 73.022 0.366 7.55 14.23 6.54
6/28/2021 10:30:00 PM 22.75 72.95 0.365 7.55 13.14 6.22
6/28/2021 10:45:00 PM 22.76 72.968 0.364 7.49 27.38 6.47
6/28/2021 11:00:00 PM 22.7 72.86 0.364 7.51 20.27 6.61
6/28/2021 11:15:00 PM 22.74 72.932 0.364 7.55 10.89 6.99
6/28/2021 11:30:00 PM 23.2 73.76 0.361 7.55 9.93 6.91
6/28/2021 11:45:00 PM 23.2 73.76 0.361 7.53 8.99 6.26
6/29/2021 12:00:00 AM 23.33 73.994 0.358 7.53 9.19 6.16
6/29/2021 12:15:00 AM 23.35 74.03 0.358 7.55 9.5 6.08
6/29/2021 12:30:00 AM 23.29 73.922 0.358 7.55 9.33 6.07
6/29/2021 12:45:00 AM 23.18 73.724 0.358 7.54 9.55 6.04
6/29/2021 1:00:00 AM 23.1 73.58 0.358 7.55 9.06 6.07
6/29/2021 1:15:00 AM 22.98 73.364 0.358 7.55 9.12 6.2
6/29/2021 1:30:00 AM 22.87 73.166 0.358 7.55 9.42 6.26
6/29/2021 1:45:00 AM 22.76 72.968 0.359 7.51 11.12 6.29
6/29/2021 2:00:00 AM 22.64 72.752 0.359 7.53 9.99 6.32
6/29/2021 2:15:00 AM 22.54 72.57201 0.359 7.54 10.23 6.35
6/29/2021 2:30:00 AM 22.44 72.392 0.36 7.54 10.45 6.37
6/29/2021 2:45:00 AM 22.33 72.194 0.36 7.54 10.19 6.4
6/29/2021 3:00:00 AM 22.24 72.032 0.361 7.54 10.01 6.41
6/29/2021 3:15:00 AM 22.15 71.87 0.361 7.54 9.84 6.46
6/29/2021 3:30:00 AM 22.06 71.708 0.362 7.54 10.09 6.47
6/29/2021 3:45:00 AM 21.97 71.546 0.362 7.54 9.47 6.5
6/29/2021 4:00:00 AM 21.88 71.384 0.363 7.54 9.28 6.52
6/29/2021 4:15:00 AM 21.79 71.222 0.364 7.5 9.7 6.5
6/29/2021 4:30:00 AM 21.7 71.06 0.365 7.53 8.86 6.55
6/29/2021 4:45:00 AM 21.61 70.898 0.367 7.53 9.63 6.57
6/29/2021 5:00:00 AM 21.52 70.736 0.369 7.5 9.32 6.55
6/29/2021 5:15:00 AM 21.43 70.574 0.371 7.52 9.71 6.56
6/29/2021 5:30:00 AM 21.35 70.43 0.374 7.53 9.17 6.62
6/29/2021 5:45:00 AM 21.27 70.286 0.378 7.52 9.33 6.62
6/29/2021 6:00:00 AM 21.2 70.16 0.382 7.52 8.5 6.65
6/29/2021 6:15:00 AM 21.13 70.034 0.386 7.52 8.66 6.67
6/29/2021 6:30:00 AM 21.07 69.926 0.391 7.52 8.35 6.73
6/29/2021 6:45:00 AM 21.01 69.818 0.396 7.52 8.81 6.79
6/29/2021 7:00:00 AM 20.97 69.746 0.4 7.52 8.13 6.88
6/29/2021 7:15:00 AM 20.94 69.692 0.405 7.53 8.17 7.03
6/29/2021 7:30:00 AM 20.9 69.62 0.409 7.54 7.55 7.21
6/29/2021 7:45:00 AM 20.89 69.602 0.414 7.56 7.85 7.34
6/29/2021 8:00:00 AM 20.88 69.584 0.417 7.56 8.89 7.6
6/29/2021 8:15:00 AM 20.88 69.584 0.42 7.6 7.68 7.72
6/29/2021 8:30:00 AM 20.88 69.584 0.423 7.61 8.32 7.83
6/29/2021 8:45:00 AM 20.9 69.62 0.424 7.61 8.08 7.81
6/29/2021 9:00:00 AM 20.92 69.656 0.426 7.63 7.13 7.91
6/29/2021 9:15:00 AM 20.98 69.764 0.427 7.66 6.85 8.11
6/29/2021 9:30:00 AM 21.05 69.89 0.427 7.66 6.6 8.19
6/29/2021 9:45:00 AM 21.16 70.088 0.427 7.7 6.67 8.42
6/29/2021 10:00:00 AM 21.27 70.286 0.428 7.68 7.25 8.37
6/29/2021 10:15:00 AM 21.26 70.268 0.428 7.68 8.55 8.52
6/29/2021 10:30:00 AM 21.28 70.304 0.428 7.67 7.83 8.54
6/29/2021 10:45:00 AM 21.37 70.466 0.428 7.71 9.37 8.62
6/29/2021 11:00:00 AM 21.52 70.736 0.428 7.71 11.76 8.68
6/29/2021 11:15:00 AM 21.68 71.024 0.428 7.73 11.77 8.7
6/29/2021 11:30:00 AM 21.54 70.772 0.428 7.71 11.58 8.72
6/29/2021 11:45:00 AM 21.59 70.862 0.427 7.71 9.36 8.76
6/29/2021 12:00:00 PM 21.8 71.24 0.427 7.74 7.9 8.76
6/29/2021 12:15:00 PM 21.96 71.528 0.427 7.77 7.87 9.02
6/29/2021 12:30:00 PM 22.11 71.798 0.428 7.76 8.32 9.13
6/29/2021 12:45:00 PM 22.28 72.104 0.428 7.8 9.66 9.47
6/29/2021 1:00:00 PM 22.34 72.212 0.427 7.77 8.82 9.3
6/29/2021 1:15:00 PM 22.51 72.518 0.428 7.81 8.02 9.43
6/29/2021 1:30:00 PM 22.45 72.41 0.428 7.76 10.28 9.29
6/29/2021 1:45:00 PM 22.6 72.68 0.427 7.77 9.53 9.36
6/29/2021 2:00:00 PM 22.56 72.608 0.428 7.75 11.57 9.27
6/29/2021 2:15:00 PM 22.67 72.806 0.427 7.78 10.13 9.45
6/29/2021 2:30:00 PM 22.81 73.058 0.428 7.8 10.03 9.45
6/29/2021 2:45:00 PM 22.71 72.878 0.427 7.8 9.4 9.33
6/29/2021 3:00:00 PM 23.12 73.616 0.426 7.82 8.49 9.47
6/29/2021 3:15:00 PM 22.93 73.274 0.426 7.84 8.74 9.42
6/29/2021 3:30:00 PM 23.13 73.634 0.426 7.84 8.08 9.36
6/29/2021 3:45:00 PM 22.97 73.346 0.425 7.87 9.85 9.64
6/29/2021 4:00:00 PM 23.15 73.67 0.425 7.87 8.53 9.72
6/29/2021 4:15:00 PM 23.37 74.066 0.425 7.9 10.69 9.93
6/29/2021 4:30:00 PM 23.22 73.796 0.425 7.84 11.79 9.17
6/29/2021 4:45:00 PM 23.05 73.49 0.424 7.85 9.97 9.72
6/29/2021 5:00:00 PM 23.32 73.976 0.424 7.86 9.48 9.64
6/29/2021 5:15:00 PM 23.38 74.084 0.425 7.86 10.71 9.61
6/29/2021 5:30:00 PM 23.12 73.616 0.424 7.83 10.01 9.69
6/29/2021 5:45:00 PM 23.33 73.994 0.424 7.81 12.56 9.6
6/29/2021 6:00:00 PM 23.38 74.084 0.423 7.79 12.22 9.45
6/29/2021 6:15:00 PM 23.38 74.084 0.424 7.76 13.28 9.02
6/29/2021 6:30:00 PM 23.3 73.94 0.424 7.71 13.75 8.97
6/29/2021 6:45:00 PM 23.41 74.138 0.423 7.71 11.07 8.84
6/29/2021 7:00:00 PM 23.3 73.94 0.423 7.69 12.16 8.49
6/29/2021 7:15:00 PM 23.46 74.228 0.423 7.71 11.71 8.86
6/29/2021 7:30:00 PM 23.41 74.138 0.422 7.69 11.56 8.25
6/29/2021 7:45:00 PM 23.49 74.282 0.422 7.69 10.94 8.53
6/29/2021 8:00:00 PM 23.53 74.354 0.421 7.63 11.09 8.01
6/29/2021 8:15:00 PM 23.61 74.498 0.421 7.63 11.73 8.67
6/29/2021 8:30:00 PM 23.58 74.444 0.422 7.59 13.23 7.34
6/29/2021 8:45:00 PM 23.59 74.462 0.422 7.53 13.38 7.17
6/29/2021 9:00:00 PM 23.57 74.426 0.421 7.5 15.98 6.67
6/29/2021 9:15:00 PM 23.6 74.48 0.42 7.53 14.15 6.81
6/29/2021 9:30:00 PM 23.57 74.426 0.42 7.56 13.04 6.71
6/29/2021 9:45:00 PM 23.53 74.354 0.418 7.48 16 6.26
6/29/2021 10:00:00 PM 23.57 74.426 0.416 7.52 14.16 6.13
6/29/2021 10:15:00 PM 23.51 74.318 0.416 7.46 14.46 5.91
6/29/2021 10:30:00 PM 23.53 74.354 0.415 7.47 13.7 5.69
6/29/2021 10:45:00 PM 23.51 74.318 0.414 7.43 14.17 5.53
6/29/2021 11:00:00 PM 23.46 74.228 0.414 7.43 14.65 5.28
6/29/2021 11:15:00 PM 23.44 74.192 0.413 7.41 20.52 4.96
6/29/2021 11:30:00 PM 23.38 74.084 0.412 7.42 11.33 5.61
6/29/2021 11:45:00 PM 23.32 73.976 0.411 7.42 13.42 5.38
6/30/2021 12:00:00 AM 23.27 73.886 0.409 7.48 11.92 5.98
6/30/2021 12:15:00 AM 23.29 73.922 0.406 7.46 10.89 5.9
6/30/2021 12:30:00 AM 23.21 73.778 0.404 7.44 13.32 5.36
6/30/2021 12:45:00 AM 22.89 73.202 0.407 7.51 8.64 6.44
6/30/2021 1:00:00 AM 22.87 73.166 0.408 7.5 8.93 6.43
6/30/2021 1:15:00 AM 22.8 73.04 0.404 7.53 9.17 6.71
6/30/2021 1:30:00 AM 22.64 72.752 0.405 7.5 9.75 6.46
6/30/2021 1:45:00 AM 22.48 72.464 0.404 7.46 10.65 6.04
6/30/2021 2:00:00 AM 22.38 72.284 0.4 7.44 9.09 5.73
6/30/2021 2:15:00 AM 22.23 72.014 0.391 7.43 11.03 5.88
6/30/2021 2:30:00 AM 22.09 71.762 0.388 7.41 9.85 5.81
6/30/2021 2:45:00 AM 22 71.6 0.386 7.42 14.98 5.81
6/30/2021 3:00:00 AM 21.92 71.456 0.386 7.42 20.16 5.98
6/30/2021 3:15:00 AM 21.84 71.312 0.388 7.4 21.27 5.83
6/30/2021 3:30:00 AM 21.77 71.186 0.39 7.38 21.92 5.63
6/30/2021 3:45:00 AM 21.71 71.078 0.392 7.37 19.73 5.55
6/30/2021 4:00:00 AM 21.67 71.006 0.392 7.38 17.57 5.61
6/30/2021 4:15:00 AM 21.58 70.844 0.393 7.37 18.48 5.62
6/30/2021 4:30:00 AM 21.53 70.754 0.392 7.38 16.19 5.7
6/30/2021 4:45:00 AM 21.49 70.682 0.391 7.37 14.66 5.63
6/30/2021 5:00:00 AM 21.42 70.556 0.39 7.36 14.08 5.55
6/30/2021 5:15:00 AM 21.48 70.664 0.388 7.34 23.34 5.28
6/30/2021 5:30:00 AM 21.41 70.538 0.388 7.36 15.84 5.55
6/30/2021 5:45:00 AM 21.35 70.43 0.385 7.35 15.56 5.47
6/30/2021 6:00:00 AM 21.32 70.376 0.383 7.34 13.81 5.52
6/30/2021 6:15:00 AM 21.29 70.32201 0.381 7.32 13.22 5.38
6/30/2021 6:30:00 AM 21.39 70.502 0.379 7.35 16.09 5.44
6/30/2021 6:45:00 AM 21.28 70.304 0.377 7.33 16.25 5.31
6/30/2021 7:00:00 AM 21.31 70.358 0.377 7.32 14.82 5.35
6/30/2021 7:15:00 AM 21.35 70.43 0.375 7.36 14.04 5.51
6/30/2021 7:30:00 AM 21.2 70.16 0.373 7.33 16.24 5.36
6/30/2021 7:45:00 AM 21.14 70.052 0.371 7.35 14.87 5.69
6/30/2021 8:00:00 AM 21.13 70.034 0.37 7.35 14.65 5.76
6/30/2021 8:15:00 AM 21.03 69.854 0.368 7.36 14.38 5.91
6/30/2021 8:30:00 AM 21 69.8 0.366 7.36 13.26 6.03
6/30/2021 8:45:00 AM 21 69.8 0.365 7.35 13.23 5.98
6/30/2021 9:00:00 AM 20.97 69.746 0.363 7.35 13.93 6.15
6/30/2021 9:15:00 AM 20.93 69.674 0.363 7.37 13.54 6.21
6/30/2021 9:30:00 AM 20.91 69.638 0.361 7.38 12.53 6.2
6/30/2021 9:45:00 AM 20.92 69.656 0.361 7.36 12.73 6.28
6/30/2021 10:00:00 AM 20.95 69.71 0.36 7.36 12.17 6.15
6/30/2021 10:15:00 AM 20.97 69.746 0.36 7.36 12.27 6.2
6/30/2021 10:30:00 AM 20.94 69.692 0.359 7.42 13.06 6.63
6/30/2021 10:45:00 AM 20.97 69.746 0.358 7.45 12.09 6.96
6/30/2021 11:00:00 AM 21.02 69.836 0.358 7.46 10.18 7.04
6/30/2021 11:15:00 AM 21.15 70.07 0.357 7.43 10.46 7.03
6/30/2021 11:30:00 AM 21.32 70.376 0.358 7.48 12.14 7.21
6/30/2021 11:45:00 AM 21.39 70.502 0.359 7.48 17.34 7.22
6/30/2021 12:00:00 PM 21.42 70.556 0.359 7.51 10.33 7.44
6/30/2021 12:15:00 PM 21.71 71.078 0.36 7.54 8.89 7.43
6/30/2021 12:30:00 PM 21.83 71.294 0.362 7.55 9.42 7.54
6/30/2021 12:45:00 PM 21.99 71.582 0.362 7.59 8.51 7.78
6/30/2021 1:00:00 PM 22.25 72.05 0.364 7.69 12.59 8.31
6/30/2021 1:15:00 PM 22.26 72.068 0.365 7.65 12.57 8.1
6/30/2021 1:30:00 PM 22.57 72.626 0.367 7.74 9.75 8.64
6/30/2021 1:45:00 PM 22.62 72.716 0.369 7.75 11.4 8.33
6/30/2021 2:00:00 PM 22.43 72.374 0.369 7.74 12.02 8.89
6/30/2021 2:15:00 PM 22.55 72.59 0.369 7.76 9.93 8.93
6/30/2021 2:30:00 PM 22.92 73.256 0.37 7.83 10.97 9.26
6/30/2021 2:45:00 PM 22.82 73.076 0.37 7.81 11.64 9.15
6/30/2021 3:00:00 PM 22.72 72.896 0.37 7.83 11.81 9.33
6/30/2021 3:15:00 PM 22.74 72.932 0.37 7.84 8.27 9.46
6/30/2021 3:30:00 PM 22.88 73.184 0.371 7.86 11.32 9.58
6/30/2021 3:45:00 PM 22.84 73.112 0.37 7.85 9.61 9.56
6/30/2021 4:00:00 PM 23.22 73.796 0.371 7.93 11.96 9.92
6/30/2021 4:15:00 PM 23.04 73.472 0.371 7.78 12.33 8.75
6/30/2021 4:30:00 PM 22.88 73.184 0.371 7.8 12.89 9.19
6/30/2021 4:45:00 PM 22.83 73.094 0.37 7.84 11.01 9.38
6/30/2021 5:00:00 PM 23.08 73.544 0.371 7.82 10.17 9.21
6/30/2021 5:15:00 PM 22.97 73.346 0.371 7.82 10.54 9.2
6/30/2021 5:30:00 PM 23.09 73.562 0.371 7.84 9.4 9.2
6/30/2021 5:45:00 PM 23.07 73.526 0.37 7.82 9.97 8.89
6/30/2021 6:00:00 PM 23.11 73.598 0.371 7.8 9.37 8.94
6/30/2021 6:15:00 PM 23.03 73.454 0.371 7.78 10.69 8.59
6/30/2021 6:30:00 PM 23 73.4 0.37 7.81 9.62 8.53
6/30/2021 6:45:00 PM 23.03 73.454 0.37 7.79 8.07 8.9
6/30/2021 7:00:00 PM 23.01 73.418 0.37 7.75 9.44 8.51
6/30/2021 7:15:00 PM 22.96 73.328 0.37 7.74 9.12 8.42
6/30/2021 7:30:00 PM 22.82 73.076 0.369 7.75 9.53 8.21
6/30/2021 7:45:00 PM 22.74 72.932 0.369 7.75 9.62 8.67
6/30/2021 8:00:00 PM 22.73 72.914 0.369 7.72 8.64 8.17
6/30/2021 8:15:00 PM 22.67 72.806 0.369 7.76 9.37 8.46
6/30/2021 8:30:00 PM 22.63 72.734 0.369 7.69 9.18 7.68
6/30/2021 8:45:00 PM 22.52 72.536 0.368 7.72 8 8.04
6/30/2021 9:00:00 PM 22.44 72.392 0.367 7.73 9.27 7.95
6/30/2021 9:15:00 PM 22.38 72.284 0.367 7.75 6.31 7.7
6/30/2021 9:30:00 PM 22.37 72.266 0.368 7.66 6.93 7.13
6/30/2021 9:45:00 PM 22.32 72.176 0.367 7.66 8.38 7.14
6/30/2021 10:00:00 PM 22.25 72.05 0.367 7.63 9.65 6.97
6/30/2021 10:15:00 PM 22.18 71.924 0.367 7.62 8.78 6.87
6/30/2021 10:30:00 PM 22.12 71.816 0.367 7.61 7.02 6.9
6/30/2021 10:45:00 PM 22.08 71.744 0.367 7.59 9.56 6.68
6/30/2021 11:00:00 PM 22.04 71.672 0.367 7.56 8.76 6.53
6/30/2021 11:15:00 PM 22.01 71.618 0.367 7.54 8.13 6.35
6/30/2021 11:30:00 PM 21.95 71.51 0.367 7.5 10.74 6.19
6/30/2021 11:45:00 PM 21.89 71.402 0.367 7.49 8.69 6.06
7/1/2021 12:00:00 AM 21.83 71.294 0.368 7.49 9.35 6.04
7/1/2021 12:15:00 AM 21.78 71.204 0.368 7.47 8.02 5.86
7/1/2021 12:30:00 AM 21.75 71.15 0.368 7.45 8.84 5.64
7/1/2021 12:45:00 AM 21.7 71.06 0.369 7.45 9.26 5.78
7/1/2021 1:00:00 AM 21.65 70.97 0.369 7.43 10.58 5.55
7/1/2021 1:15:00 AM 21.6 70.88 0.37 7.43 9.61 5.6
7/1/2021 1:30:00 AM 21.55 70.79 0.37 7.42 8.63 5.47
7/1/2021 1:45:00 AM 21.51 70.718 0.37 7.41 7.55 5.42
7/1/2021 2:00:00 AM 21.47 70.646 0.37 7.4 8.68 5.36
7/1/2021 2:15:00 AM 21.43 70.574 0.371 7.39 9.11 5.4
7/1/2021 2:30:00 AM 21.38 70.484 0.371 7.4 7.72 5.45
7/1/2021 2:45:00 AM 21.34 70.412 0.372 7.4 9.58 5.44
7/1/2021 3:00:00 AM 21.3 70.34 0.372 7.35 9.48 5.35
7/1/2021 3:15:00 AM 21.25 70.25 0.372 7.39 10.37 5.39
7/1/2021 3:30:00 AM 21.21 70.17799 0.373 7.38 9.08 5.32
7/1/2021 3:45:00 AM 21.17 70.106 0.373 7.38 8.82 5.31
7/1/2021 4:00:00 AM 21.14 70.052 0.387 7.36 9.25 5.21
7/1/2021 4:15:00 AM 21.09 69.962 0.387 7.37 9.96 5.38
7/1/2021 4:30:00 AM 21.08 69.944 0.387 7.36 10.39 5.26
7/1/2021 4:45:00 AM 21.01 69.818 0.387 7.36 9.18 5.39
7/1/2021 5:00:00 AM 20.98 69.764 0.388 7.36 10.22 5.44
7/1/2021 5:15:00 AM 21.04 69.872 0.39 7.37 13.26 5.33
7/1/2021 5:30:00 AM 21.07 69.926 0.392 7.36 11.43 5.26
7/1/2021 5:45:00 AM 21.02 69.836 0.392 7.37 11.22 5.38
7/1/2021 6:00:00 AM 20.96 69.728 0.393 7.38 10.51 5.42
7/1/2021 6:15:00 AM 21.1 69.98 0.396 7.4 12.05 5.4
7/1/2021 6:30:00 AM 21.05 69.89 0.399 7.39 11.97 5.37
7/1/2021 6:45:00 AM 21.04 69.872 0.4 7.42 12.97 5.57
7/1/2021 7:00:00 AM 21.17 70.106 0.403 7.47 9.81 5.92
7/1/2021 7:15:00 AM 21.13 70.034 0.405 7.45 9.28 5.91
7/1/2021 7:30:00 AM 21.24 70.232 0.408 7.53 8.16 6.55
7/1/2021 7:45:00 AM 21.1 69.98 0.409 7.54 9.04 6.21
7/1/2021 8:00:00 AM 21.04 69.872 0.407 7.51 9.98 6.49
7/1/2021 8:15:00 AM 20.88 69.584 0.409 7.5 11.95 6.33
7/1/2021 8:30:00 AM 20.71 69.278 0.405 7.42 9.39 6.26
7/1/2021 8:45:00 AM 20.8 69.44 0.405 7.49 10.11 6.31
7/1/2021 9:00:00 AM 20.75 69.35 0.403 7.46 23.72 6.54
7/1/2021 9:15:00 AM 20.74 69.332 0.4 7.45 12.04 6.53
7/1/2021 9:30:00 AM 20.65 69.17 0.4 7.45 12.68 6.7
7/1/2021 9:45:00 AM 20.77 69.386 0.4 7.48 10 6.85
7/1/2021 10:00:00 AM 20.72 69.296 0.4 7.48 16.02 6.8
7/1/2021 10:15:00 AM 20.65 69.17 0.398 7.45 10.84 6.73
7/1/2021 10:30:00 AM 20.67 69.206 0.399 7.47 10.69 6.82
7/1/2021 10:45:00 AM 20.66 69.188 0.397 7.46 10.27 6.75
7/1/2021 11:00:00 AM 20.71 69.278 0.397 7.48 10.33 6.91
7/1/2021 11:15:00 AM 20.78 69.404 0.398 7.5 11.45 6.92
7/1/2021 11:30:00 AM 20.91 69.638 0.4 7.56 13.24 7.13
7/1/2021 11:45:00 AM 20.82 69.476 0.399 7.55 11.3 7.11
7/1/2021 12:00:00 PM 20.83 69.494 0.4 7.55 10.52 7.12
7/1/2021 12:15:00 PM 20.91 69.638 0.402 7.59 9.38 7.16
7/1/2021 12:30:00 PM 21.34 70.412 0.403 7.77 12.1 8.21
7/1/2021 12:45:00 PM 21.5 70.7 0.406 7.88 10.79 8.75
7/1/2021 1:00:00 PM 21.47 70.646 0.406 7.86 8.97 8.47
7/1/2021 1:15:00 PM 21.51 70.718 0.405 7.91 8.76 9.01
7/1/2021 1:30:00 PM 21.56 70.808 0.404 7.97 7.8 9.33
7/1/2021 1:45:00 PM 21.6 70.88 0.403 8.05 7.16 9.68
7/1/2021 2:00:00 PM 21.51 70.718 0.403 8.04 6.87 9.49
7/1/2021 2:15:00 PM 21.59 70.862 0.403 8.07 6.83 9.6
7/1/2021 2:30:00 PM 21.23 70.214 0.403 7.91 8.3 9.24
7/1/2021 2:45:00 PM 21.39 70.502 0.403 7.97 8.4 9.28
7/1/2021 3:00:00 PM 21.31 70.358 0.403 7.91 8.71 9.18
7/1/2021 3:15:00 PM 21.13 70.034 0.401 7.86 9.09 9.17
7/1/2021 3:30:00 PM 21.02 69.836 0.399 7.85 8.73 9.05
7/1/2021 3:45:00 PM 21.35 70.43 0.4 7.97 8.23 8.96
7/1/2021 4:00:00 PM 21.62 70.916 0.4 8.12 8.71 9.53
7/1/2021 4:15:00 PM 22.03 71.654 0.399 8.27 6.86 9.98
7/1/2021 4:30:00 PM 21.98 71.564 0.398 8.21 7.31 9.6
7/1/2021 4:45:00 PM 21.94 71.492 0.397 8.21 8.36 9.68
7/1/2021 5:00:00 PM 21.91 71.438 0.396 8.24 8.43 9.63
7/1/2021 5:15:00 PM 21.93 71.474 0.397 8.25 6.43 9.72
7/1/2021 5:30:00 PM 21.96 71.528 0.397 8.28 5.9 9.76
7/1/2021 5:45:00 PM 22 71.6 0.398 8.3 6.5 9.82
7/1/2021 6:00:00 PM 22.05 71.69 0.399 8.36 5.98 9.94
7/1/2021 6:15:00 PM 22.06 71.708 0.398 8.38 5.97 9.92
7/1/2021 6:30:00 PM 22.06 71.708 0.398 8.37 5.96 9.82
7/1/2021 6:45:00 PM 22.02 71.636 0.398 8.36 6.77 9.64
7/1/2021 7:00:00 PM 21.98 71.564 0.398 8.32 6.64 9.37
7/1/2021 7:15:00 PM 21.9 71.42 0.398 8.25 6.08 9.04
7/1/2021 7:30:00 PM 21.82 71.276 0.398 8.19 6.67 8.8
7/1/2021 7:45:00 PM 21.75 71.15 0.399 8.14 6.86 8.6
7/1/2021 8:00:00 PM 21.68 71.024 0.4 8.09 6.91 8.49
7/1/2021 8:15:00 PM 21.62 70.916 0.4 8.07 6.91 8.35
7/1/2021 8:30:00 PM 21.57 70.826 0.401 8.04 6.4 8.25
7/1/2021 8:45:00 PM 21.5 70.7 0.402 8.01 6.32 8.16
7/1/2021 9:00:00 PM 21.43 70.574 0.402 7.98 6.06 8.04
7/1/2021 9:15:00 PM 21.36 70.448 0.402 7.95 8.74 7.88
7/1/2021 9:30:00 PM 21.29 70.32201 0.403 7.91 7.17 7.75
7/1/2021 9:45:00 PM 21.21 70.17799 0.403 7.87 7.98 7.62
7/1/2021 10:00:00 PM 21.13 70.034 0.403 7.81 8.51 7.51
7/1/2021 10:15:00 PM 21.05 69.89 0.403 7.8 8.24 7.48
7/1/2021 10:30:00 PM 20.9 69.62 0.403 7.78 8.15 7.54
7/1/2021 10:45:00 PM 20.76 69.368 0.402 7.76 9.09 7.57
7/1/2021 11:00:00 PM 20.59 69.062 0.399 7.74 9.11 7.59
7/1/2021 11:15:00 PM 20.45 68.81 0.398 7.73 8.57 7.57
7/1/2021 11:30:00 PM 20.37 68.666 0.397 7.69 9.19 7.52
7/1/2021 11:45:00 PM 20.3 68.54 0.399 7.66 9.2 7.48
7/2/2021 12:00:00 AM 20.23 68.414 0.402 7.65 9.13 7.48
7/2/2021 12:15:00 AM 20.15 68.27 0.405 7.64 9.73 7.47
7/2/2021 12:30:00 AM 20.05 68.09 0.408 7.63 10.62 7.5
7/2/2021 12:45:00 AM 19.94 67.892 0.412 7.6 10.26 7.52
7/2/2021 1:00:00 AM 19.83 67.694 0.414 7.62 10.42 7.55
7/2/2021 1:15:00 AM 19.73 67.514 0.415 7.61 10.38 7.6
7/2/2021 1:30:00 AM 19.64 67.352 0.415 7.6 11.46 7.64
7/2/2021 1:45:00 AM 19.55 67.19 0.415 7.61 11.01 7.65
7/2/2021 2:00:00 AM 19.45 67.01 0.413 7.6 10.09 7.7
7/2/2021 2:15:00 AM 19.36 66.848 0.412 7.59 12.29 7.7
7/2/2021 2:30:00 AM 19.28 66.704 0.411 7.61 11.94 7.81
7/2/2021 2:45:00 AM 19.23 66.614 0.41 7.6 12.39 7.78
7/2/2021 3:00:00 AM 19.19 66.542 0.409 7.59 12.27 7.84
7/2/2021 3:15:00 AM 19.14 66.452 0.408 7.62 11.67 7.83
7/2/2021 3:30:00 AM 19.09 66.362 0.407 7.63 9.76 7.88
7/2/2021 3:45:00 AM 19.04 66.272 0.405 7.63 10.75 7.88
7/2/2021 4:00:00 AM 19.01 66.218 0.403 7.64 11.76 7.92
7/2/2021 4:15:00 AM 18.96 66.128 0.4 7.64 12.53 7.95
7/2/2021 4:30:00 AM 18.92 66.056 0.398 7.64 11.24 7.94
7/2/2021 4:45:00 AM 18.86 65.948 0.395 7.65 10.39 7.98
7/2/2021 5:00:00 AM 18.79 65.82201 0.392 7.64 12.96 8
7/2/2021 5:15:00 AM 18.73 65.714 0.39 7.64 12.64 8
7/2/2021 5:30:00 AM 18.67 65.606 0.389 7.63 14.11 8
7/2/2021 5:45:00 AM 18.6 65.48 0.388 7.6 12.87 7.93
7/2/2021 6:00:00 AM 18.56 65.408 0.388 7.62 12.87 7.97
7/2/2021 6:15:00 AM 18.51 65.318 0.388 7.63 13.55 8.05
7/2/2021 6:30:00 AM 18.46 65.228 0.389 7.6 12.85 8.01
7/2/2021 6:45:00 AM 18.43 65.174 0.388 7.62 12.48 8.14
7/2/2021 7:00:00 AM 18.4 65.12 0.387 7.64 11.17 8.22
7/2/2021 7:15:00 AM 18.36 65.048 0.385 7.66 12.75 8.29
7/2/2021 7:30:00 AM 18.33 64.994 0.383 7.67 12.69 8.29
7/2/2021 7:45:00 AM 18.32 64.976 0.382 7.7 12.27 8.42
7/2/2021 8:00:00 AM 18.33 64.994 0.379 7.73 11.82 8.68
7/2/2021 8:15:00 AM 18.34 65.012 0.378 7.77 12.47 8.93
7/2/2021 8:30:00 AM 18.36 65.048 0.375 7.83 12.3 9.11
7/2/2021 8:45:00 AM 18.39 65.102 0.374 7.86 12.38 9.25
7/2/2021 9:00:00 AM 18.51 65.318 0.373 7.86 12.46 9.49
7/2/2021 9:15:00 AM 18.63 65.534 0.372 7.95 13.06 9.75
7/2/2021 9:30:00 AM 18.76 65.768 0.371 7.97 10.74 9.82
7/2/2021 9:45:00 AM 18.87 65.966 0.37 8.02 11.09 9.96
7/2/2021 10:00:00 AM 18.9 66.02 0.368 8.07 11.57 9.97
7/2/2021 10:15:00 AM 18.97 66.146 0.367 8.1 11.17 10.04
7/2/2021 10:30:00 AM 19.06 66.308 0.367 8.13 11.82 10.09
7/2/2021 10:45:00 AM 19.15 66.47 0.366 8.15 11.17 10.18
7/2/2021 11:00:00 AM 19.24 66.632 0.365 8.21 11.03 10.3
7/2/2021 11:15:00 AM 19.36 66.848 0.365 8.25 10.13 10.39
7/2/2021 11:30:00 AM 19.47 67.046 0.365 8.24 9.84 10.4
7/2/2021 11:45:00 AM 19.52 67.136 0.364 8.29 9.38 10.44
7/2/2021 12:00:00 PM 19.57 67.226 0.364 8.29 9.42 10.34
7/2/2021 12:15:00 PM 19.7 67.46 0.363 8.31 9.71 10.49
7/2/2021 12:30:00 PM 19.94 67.892 0.362 8.36 8.91 10.61
7/2/2021 12:45:00 PM 20.23 68.414 0.362 8.36 8.38 10.68
7/2/2021 1:00:00 PM 20.61 69.098 0.361 8.4 9.07 10.75
7/2/2021 1:15:00 PM 20.92 69.656 0.36 8.42 7.36 10.81
7/2/2021 1:30:00 PM 21.07 69.926 0.359 8.48 9.15 10.75
7/2/2021 1:45:00 PM 21.25 70.25 0.358 8.43 7.84 10.68
7/2/2021 2:00:00 PM 21.55 70.79 0.357 8.51 7.83 10.86
7/2/2021 2:15:00 PM 21.76 71.168 0.356 8.55 7.34 10.84
7/2/2021 2:30:00 PM 21.76 71.168 0.354 8.56 7.79 10.74
7/2/2021 2:45:00 PM 21.66 70.988 0.352 8.57 7.65 10.52
7/2/2021 3:00:00 PM 21.56 70.808 0.35 8.56 7.55 10.34
7/2/2021 3:15:00 PM 21.65 70.97 0.35 8.55 6.98 10.26
7/2/2021 3:30:00 PM 21.82 71.276 0.35 8.56 7.41 10.31
7/2/2021 3:45:00 PM 21.94 71.492 0.349 8.59 6.8 10.3
7/2/2021 4:00:00 PM 22.01 71.618 0.348 8.61 6.91 9.99
7/2/2021 4:15:00 PM 21.58 70.844 0.346 8.53 8.43 9.22
7/2/2021 4:30:00 PM 21.1 69.98 0.339 8.4 14.23 8.85
7/2/2021 4:45:00 PM 20.82 69.476 0.334 8.32 9.41 8.73
7/2/2021 5:00:00 PM 20.81 69.458 0.333 8.3 7.61 8.73
7/2/2021 5:15:00 PM 20.88 69.584 0.336 8.28 7.88 8.86
7/2/2021 5:30:00 PM 20.84 69.512 0.337 8.35 10.2 9.26
7/2/2021 5:45:00 PM 20.56 69.008 0.334 8.32 11.43 9.32
7/2/2021 6:00:00 PM 20.25 68.45 0.331 8.23 13.21 9.12
7/2/2021 6:15:00 PM 19.98 67.964 0.328 8.14 11.32 9.04
7/2/2021 6:30:00 PM 19.83 67.694 0.328 8.13 11.41 9.24
7/2/2021 6:45:00 PM 19.81 67.658 0.33 8.15 8.05 9.43
7/2/2021 7:00:00 PM 19.81 67.658 0.331 8.16 9.42 9.51
7/2/2021 7:15:00 PM 19.79 67.622 0.333 8.17 11.6 9.48
7/2/2021 7:30:00 PM 19.75 67.55 0.335 8.13 12.34 9.32
7/2/2021 7:45:00 PM 19.71 67.478 0.338 8.1 13 9.28
7/2/2021 8:00:00 PM 19.7 67.46 0.341 8.1 12.48 9.28
7/2/2021 8:15:00 PM 19.68 67.424 0.344 8.13 10.13 9.25
7/2/2021 8:30:00 PM 19.64 67.352 0.346 8.1 8.98 9.17
7/2/2021 8:45:00 PM 19.59 67.262 0.349 8.07 8.62 8.99
7/2/2021 9:00:00 PM 19.51 67.118 0.351 8.02 9.44 8.75
7/2/2021 9:15:00 PM 19.42 66.956 0.353 7.96 10.69 8.54
7/2/2021 9:30:00 PM 19.35 66.83 0.354 7.91 12.17 8.43
7/2/2021 9:45:00 PM 19.29 66.722 0.354 7.88 13.75 8.37
7/2/2021 10:00:00 PM 19.23 66.614 0.355 7.85 16.6 8.3
7/2/2021 10:15:00 PM 19.18 66.524 0.357 7.83 11.64 8.24
7/2/2021 10:30:00 PM 19.12 66.416 0.36 7.8 14.7 8.21
7/2/2021 10:45:00 PM 19.08 66.344 0.364 7.78 13.38 8.19
7/2/2021 11:00:00 PM 19.05 66.29 0.367 7.76 14.57 8.16
7/2/2021 11:15:00 PM 19 66.2 0.369 7.75 17.11 8.16
7/2/2021 11:30:00 PM 18.94 66.092 0.371 7.73 21.39 8.14
7/2/2021 11:45:00 PM 18.89 66.002 0.373 7.72 23.57 8.14
7/3/2021 12:00:00 AM 18.84 65.912 0.373 7.68 27.51 8.13
7/3/2021 12:15:00 AM 18.78 65.804 0.373 7.7 28.55 8.13
7/3/2021 12:30:00 AM 18.71 65.67799 0.371 7.69 25.62 8.14
7/3/2021 12:45:00 AM 18.64 65.552 0.368 7.68 29.06 8.14
7/3/2021 1:00:00 AM 18.57 65.426 0.364 7.67 25.93 8.15
7/3/2021 1:15:00 AM 18.49 65.282 0.36 7.65 24 8.15
7/3/2021 1:30:00 AM 18.43 65.174 0.355 7.62 20.73 8.15
7/3/2021 1:45:00 AM 18.37 65.066 0.35 7.61 23.77 8.18
7/3/2021 2:00:00 AM 18.31 64.958 0.346 7.59 18.25 8.17
7/3/2021 2:15:00 AM 18.27 64.886 0.343 7.6 19.91 8.19
7/3/2021 2:30:00 AM 18.22 64.796 0.34 7.6 20.32 8.23
7/3/2021 2:45:00 AM 18.18 64.724 0.338 7.59 18.55 8.22
7/3/2021 3:00:00 AM 18.13 64.634 0.336 7.59 17.4 8.23
7/3/2021 3:15:00 AM 18.06 64.508 0.334 7.6 17.04 8.3
7/3/2021 3:30:00 AM 17.99 64.382 0.332 7.59 18.57 8.3
7/3/2021 3:45:00 AM 17.95 64.31 0.33 7.59 18.3 8.31
7/3/2021 4:00:00 AM 17.91 64.238 0.328 7.59 17.77 8.3
7/3/2021 4:15:00 AM 17.87 64.166 0.327 7.58 18.93 8.29
7/3/2021 4:30:00 AM 17.82 64.076 0.326 7.58 21.81 8.3
7/3/2021 4:45:00 AM 17.76 63.968 0.324 7.58 18.77 8.32
7/3/2021 5:00:00 AM 17.69 63.842 0.322 7.56 21.32 8.33
7/3/2021 5:15:00 AM 17.64 63.752 0.321 7.56 19.46 8.34
7/3/2021 5:30:00 AM 17.59 63.662 0.321 7.56 19.48 8.33
7/3/2021 5:45:00 AM 17.55 63.59 0.32 7.55 19.6 8.35
7/3/2021 6:00:00 AM 17.51 63.518 0.319 7.56 19.38 8.34
7/3/2021 6:15:00 AM 17.47 63.446 0.319 7.56 18.1 8.36
7/3/2021 6:30:00 AM 17.44 63.392 0.319 7.56 17.81 8.44
7/3/2021 6:45:00 AM 17.42 63.356 0.319 7.53 15.48 8.47
7/3/2021 7:00:00 AM 17.41 63.338 0.319 7.6 14.66 8.61
7/3/2021 7:15:00 AM 17.39 63.302 0.319 7.61 14.51 8.68
7/3/2021 7:30:00 AM 17.36 63.248 0.318 7.63 14.51 8.73
7/3/2021 7:45:00 AM 17.33 63.194 0.318 7.63 13.01 8.7
7/3/2021 8:00:00 AM 17.31 63.158 0.318 7.64 13.58 8.76
7/3/2021 8:15:00 AM 17.31 63.158 0.318 7.67 11.36 8.92
7/3/2021 8:30:00 AM 17.33 63.194 0.318 7.71 12.55 9.07
7/3/2021 8:45:00 AM 17.34 63.212 0.318 7.72 11.18 9.17
7/3/2021 9:00:00 AM 17.35 63.23 0.318 7.74 10.97 9.2
7/3/2021 9:15:00 AM 17.36 63.248 0.319 7.76 10.8 9.33
7/3/2021 9:30:00 AM 17.39 63.302 0.32 7.8 11.28 9.51
7/3/2021 9:45:00 AM 17.42 63.356 0.32 7.82 9.58 9.62
7/3/2021 10:00:00 AM 17.47 63.446 0.321 7.87 10.22 9.77
7/3/2021 10:15:00 AM 17.55 63.59 0.322 7.91 9.8 9.98
7/3/2021 10:30:00 AM 17.6 63.68 0.324 7.94 8.83 10.11
7/3/2021 10:45:00 AM 17.64 63.752 0.326 7.98 8.31 10.12
7/3/2021 11:00:00 AM 17.76 63.968 0.329 8.02 8.23 10.24
7/3/2021 11:15:00 AM 17.99 64.382 0.333 8.08 7.88 10.51
7/3/2021 11:30:00 AM 18.19 64.742 0.337 8.13 7.96 10.67
7/3/2021 11:45:00 AM 18.52 65.336 0.342 8.2 7.87 10.76
7/3/2021 12:00:00 PM 18.76 65.768 0.346 8.24 6.89 10.86
7/3/2021 12:15:00 PM 18.9 66.02 0.35 8.29 7.36 10.85
7/3/2021 12:30:00 PM 18.91 66.038 0.353 8.32 7.82 10.83
7/3/2021 12:45:00 PM 19.04 66.272 0.355 8.34 6.9 10.8
7/3/2021 1:00:00 PM 19.26 66.668 0.357 8.34 7.05 10.95
7/3/2021 1:15:00 PM 19.38 66.884 0.359 8.39 6.66 10.97
7/3/2021 1:30:00 PM 19.47 67.046 0.361 8.41 8.85 10.81
7/3/2021 1:45:00 PM 19.54 67.172 0.362 8.43 7.08 10.83
7/3/2021 2:00:00 PM 19.64 67.352 0.362 8.45 7.55 10.92
7/3/2021 2:15:00 PM 19.76 67.568 0.363 8.48 6.88 10.97
7/3/2021 2:30:00 PM 19.88 67.784 0.364 8.51 6.74 10.95
7/3/2021 2:45:00 PM 19.99 67.982 0.364 8.52 6.89 10.98
7/3/2021 3:00:00 PM 20.12 68.216 0.364 8.54 7.29 10.98
7/3/2021 3:15:00 PM 20.27 68.486 0.365 8.55 6.54 10.97
7/3/2021 3:30:00 PM 20.42 68.756 0.364 8.57 5.98 10.9
7/3/2021 3:45:00 PM 20.55 68.99 0.364 8.57 6.13 10.82
7/3/2021 4:00:00 PM 20.63 69.134 0.364 8.59 5.94 10.72
7/3/2021 4:15:00 PM 20.63 69.134 0.364 8.58 7.58 10.51
7/3/2021 4:30:00 PM 20.64 69.152 0.363 8.58 6.23 10.4
7/3/2021 4:45:00 PM 20.64 69.152 0.363 8.57 5.76 10.38
7/3/2021 5:00:00 PM 20.64 69.152 0.362 8.58 5.71 10.38
7/3/2021 5:15:00 PM 20.68 69.224 0.362 8.59 5.86 10.28
7/3/2021 5:30:00 PM 20.71 69.278 0.361 8.57 5.52 10.15
7/3/2021 5:45:00 PM 20.64 69.152 0.361 8.54 5.47 10.01
7/3/2021 6:00:00 PM 20.59 69.062 0.36 8.52 5.93 9.89
7/3/2021 6:15:00 PM 20.53 68.954 0.36 8.49 5.48 9.79
7/3/2021 6:30:00 PM 20.46 68.828 0.36 8.46 5.93 9.69
7/3/2021 6:45:00 PM 20.39 68.702 0.36 8.44 5.16 9.65
7/3/2021 7:00:00 PM 20.29 68.522 0.36 8.41 5.51 9.51
7/3/2021 7:15:00 PM 20.17 68.306 0.36 8.35 5.48 9.28
7/3/2021 7:30:00 PM 20.05 68.09 0.36 8.28 5.37 9.07
7/3/2021 7:45:00 PM 19.98 67.964 0.361 8.24 5.7 8.99
7/3/2021 8:00:00 PM 19.91 67.838 0.362 8.14 5.53 8.86
7/3/2021 8:15:00 PM 19.83 67.694 0.363 8.11 5.76 8.74
7/3/2021 8:30:00 PM 19.74 67.532 0.364 8.05 5.22 8.6
7/3/2021 8:45:00 PM 19.65 67.37 0.364 8 5.59 8.48
7/3/2021 9:00:00 PM 19.55 67.19 0.365 7.93 5.5 8.34
7/3/2021 9:15:00 PM 19.43 66.974 0.366 7.87 5.69 8.24
7/3/2021 9:30:00 PM 19.32 66.776 0.366 7.83 6.26 8.16
7/3/2021 9:45:00 PM 19.22 66.596 0.366 7.79 6.87 8.1
7/3/2021 10:00:00 PM 19.13 66.434 0.367 7.75 6.85 8.03
7/3/2021 10:15:00 PM 19.05 66.29 0.366 7.73 5.99 8
7/3/2021 10:30:00 PM 18.99 66.182 0.366 7.72 6.6 7.97
7/3/2021 10:45:00 PM 18.94 66.092 0.366 7.69 6.95 7.94
7/3/2021 11:00:00 PM 18.89 66.002 0.367 7.66 6.49 7.93
7/3/2021 11:15:00 PM 18.85 65.93 0.367 7.61 9.06 7.86
7/3/2021 11:30:00 PM 18.82 65.876 0.367 7.64 7.68 7.9
7/3/2021 11:45:00 PM 18.77 65.786 0.367 7.62 7.19 7.92
7/4/2021 12:00:00 AM 18.72 65.696 0.367 7.62 6.41 7.91
7/4/2021 12:15:00 AM 18.67 65.606 0.368 7.61 6.48 7.93
7/4/2021 12:30:00 AM 18.64 65.552 0.367 7.61 7 7.93
7/4/2021 12:45:00 AM 18.6 65.48 0.368 7.59 7.1 7.92
7/4/2021 1:00:00 AM 18.57 65.426 0.368 7.59 7.51 7.92
7/4/2021 1:15:00 AM 18.53 65.354 0.368 7.59 7.41 7.9
7/4/2021 1:30:00 AM 18.49 65.282 0.368 7.57 7.13 7.9
7/4/2021 1:45:00 AM 18.46 65.228 0.368 7.57 6.95 7.92
7/4/2021 2:00:00 AM 18.43 65.174 0.368 7.57 6.63 7.92
7/4/2021 2:15:00 AM 18.39 65.102 0.368 7.58 7.45 7.94
7/4/2021 2:30:00 AM 18.32 64.976 0.369 7.56 6.56 7.94
7/4/2021 2:45:00 AM 18.26 64.868 0.369 7.56 6.32 7.96
7/4/2021 3:00:00 AM 18.2 64.76 0.369 7.56 6.56 7.98
7/4/2021 3:15:00 AM 18.13 64.634 0.369 7.53 7.32 7.98
7/4/2021 3:30:00 AM 18.07 64.526 0.369 7.56 6.29 8.02
7/4/2021 3:45:00 AM 18.02 64.436 0.369 7.56 6.27 8.02
7/4/2021 4:00:00 AM 17.97 64.346 0.369 7.56 6.41 8.01
7/4/2021 4:15:00 AM 17.93 64.274 0.369 7.56 6.72 8.05
7/4/2021 4:30:00 AM 17.9 64.22 0.369 7.57 6.26 8.04
7/4/2021 4:45:00 AM 17.86 64.148 0.37 7.55 9.41 8
7/4/2021 5:00:00 AM 17.82 64.076 0.37 7.54 7.16 8.01
7/4/2021 5:15:00 AM 17.78 64.004 0.37 7.54 6.03 8.03
7/4/2021 5:30:00 AM 17.75 63.95 0.371 7.53 6.65 8.01
7/4/2021 5:45:00 AM 17.72 63.896 0.372 7.54 5.88 8.06
7/4/2021 6:00:00 AM 17.68 63.824 0.372 7.53 5.37 8.04
7/4/2021 6:15:00 AM 17.66 63.788 0.373 7.54 6.17 8.08
7/4/2021 6:30:00 AM 17.62 63.716 0.374 7.51 5.52 8.09
7/4/2021 6:45:00 AM 17.6 63.68 0.375 7.52 6.73 8.16
7/4/2021 7:00:00 AM 17.6 63.68 0.377 7.52 5.6 8.29
7/4/2021 7:15:00 AM 17.61 63.698 0.378 7.53 5.47 8.41
7/4/2021 7:30:00 AM 17.63 63.734 0.378 7.56 5.55 8.74
7/4/2021 7:45:00 AM 17.65 63.77 0.379 7.6 6.16 8.99
7/4/2021 8:00:00 AM 17.67 63.806 0.379 7.63 5.39 9.12
7/4/2021 8:15:00 AM 17.71 63.878 0.379 7.65 5.56 9.19
7/4/2021 8:30:00 AM 17.76 63.968 0.379 7.68 5.72 9.41
7/4/2021 8:45:00 AM 17.8 64.04 0.379 7.73 5.71 9.66
7/4/2021 9:00:00 AM 17.82 64.076 0.379 7.73 4.98 9.69
7/4/2021 9:15:00 AM 17.88 64.184 0.378 7.78 5.81 9.72
7/4/2021 9:30:00 AM 17.98 64.364 0.377 7.8 5.12 9.76
7/4/2021 9:45:00 AM 18.12 64.616 0.378 7.8 5.16 9.87
7/4/2021 10:00:00 AM 18.31 64.958 0.378 7.84 4.8 10.02
7/4/2021 10:15:00 AM 18.5 65.3 0.378 7.86 4.56 10.12
7/4/2021 10:30:00 AM 18.72 65.696 0.379 7.87 4.52 10.23
7/4/2021 10:45:00 AM 18.99 66.182 0.379 7.9 4.94 10.45
7/4/2021 11:00:00 AM 18.98 66.164 0.38 7.92 5.29 10.63
7/4/2021 11:15:00 AM 18.92 66.056 0.379 7.94 5.16 10.66
7/4/2021 11:30:00 AM 18.96 66.128 0.379 7.97 5.7 10.65
7/4/2021 11:45:00 AM 19.08 66.344 0.379 7.96 4.86 10.76
7/4/2021 12:00:00 PM 19.29 66.722 0.377 8.1 4.44 10.82
7/4/2021 12:15:00 PM 19.52 67.136 0.375 8.2 4.88 10.99
7/4/2021 12:30:00 PM 19.77 67.586 0.375 8.2 5.74 11.48
7/4/2021 12:45:00 PM 20.02 68.036 0.377 8.23 6.23 11.76
7/4/2021 1:00:00 PM 20.22 68.396 0.378 8.26 5.62 11.94
7/4/2021 1:15:00 PM 20.45 68.81 0.378 8.31 6.65 12.15
7/4/2021 1:30:00 PM 20.75 69.35 0.38 8.31 6.45 11.84
7/4/2021 1:45:00 PM 20.78 69.404 0.379 8.34 5.58 11.93
7/4/2021 2:00:00 PM 21.05 69.89 0.38 8.35 5.45 11.75
7/4/2021 2:15:00 PM 21.73 71.114 0.382 8.43 5 11.63
7/4/2021 2:30:00 PM 22.69 72.842 0.379 8.64 5.01 11.43
7/4/2021 2:45:00 PM 22.97 73.346 0.378 8.69 4.09 11.01
7/4/2021 3:00:00 PM 22.95 73.31 0.376 8.72 4.18 10.83
7/4/2021 3:15:00 PM 23.01 73.418 0.377 8.65 4.75 10.72
7/4/2021 3:30:00 PM 22.97 73.346 0.377 8.71 4.06 10.7
7/4/2021 3:45:00 PM 22.95 73.31 0.376 8.71 4.07 10.58
7/4/2021 4:00:00 PM 22.97 73.346 0.376 8.7 4.26 10.28
7/4/2021 4:15:00 PM 23 73.4 0.376 8.68 3.95 10.21
7/4/2021 4:30:00 PM 22.93 73.274 0.375 8.7 3.99 10.25
7/4/2021 4:45:00 PM 23.02 73.436 0.374 8.75 4.11 10.19
7/4/2021 5:00:00 PM 23.16 73.688 0.374 8.76 3.91 10
7/4/2021 5:15:00 PM 23.13 73.634 0.373 8.73 5.52 9.8
7/4/2021 5:30:00 PM 23.12 73.616 0.373 8.73 4.19 9.74
7/4/2021 5:45:00 PM 23.19 73.742 0.373 8.73 4.04 9.59
7/4/2021 6:00:00 PM 23.19 73.742 0.372 8.72 3.96 9.46
7/4/2021 6:15:00 PM 23.16 73.688 0.372 8.71 4.06 9.37
7/4/2021 6:30:00 PM 23.13 73.634 0.372 8.68 4.01 9.27
7/4/2021 6:45:00 PM 23.05 73.49 0.372 8.64 3.76 9.14
7/4/2021 7:00:00 PM 22.95 73.31 0.373 8.6 3.97 8.96
7/4/2021 7:15:00 PM 22.83 73.094 0.373 8.56 4.65 8.78
7/4/2021 7:30:00 PM 22.73 72.914 0.374 8.51 3.95 8.65
7/4/2021 7:45:00 PM 22.62 72.716 0.374 8.45 4.25 8.52
7/4/2021 8:00:00 PM 22.51 72.518 0.375 8.39 4.43 8.39
7/4/2021 8:15:00 PM 22.38 72.284 0.375 8.33 3.97 8.25
7/4/2021 8:30:00 PM 22.23 72.014 0.376 8.26 4.94 8.07
7/4/2021 8:45:00 PM 22.08 71.744 0.377 8.19 4.15 7.97
7/4/2021 9:00:00 PM 21.93 71.474 0.377 8.12 4.44 7.83
7/4/2021 9:15:00 PM 21.78 71.204 0.378 8.06 4.91 7.73
7/4/2021 9:30:00 PM 21.62 70.916 0.378 7.99 5.34 7.6
7/4/2021 9:45:00 PM 21.47 70.646 0.379 7.93 5.19 7.51
7/4/2021 10:00:00 PM 21.31 70.358 0.38 7.87 6.16 7.46
7/4/2021 10:15:00 PM 21.16 70.088 0.38 7.82 6.81 7.42
7/4/2021 10:30:00 PM 20.99 69.782 0.381 7.78 5.82 7.39
7/4/2021 10:45:00 PM 20.85 69.53 0.382 7.75 5.69 7.39
7/4/2021 11:00:00 PM 20.71 69.278 0.382 7.71 6.25 7.36
7/4/2021 11:15:00 PM 20.57 69.026 0.383 7.69 5.58 7.37
7/4/2021 11:30:00 PM 20.43 68.774 0.384 7.67 6.13 7.37
7/4/2021 11:45:00 PM 20.32 68.576 0.385 7.65 5.92 7.36
7/5/2021 12:00:00 AM 20.19 68.342 0.386 7.63 5.81 7.36
7/5/2021 12:15:00 AM 20.07 68.126 0.386 7.63 6.32 7.39
7/5/2021 12:30:00 AM 19.95 67.91 0.386 7.61 5.95 7.41
7/5/2021 12:45:00 AM 19.84 67.712 0.387 7.6 5.54 7.42
7/5/2021 1:00:00 AM 19.74 67.532 0.388 7.59 5.79 7.44
7/5/2021 1:15:00 AM 19.63 67.334 0.388 7.6 5.72 7.48
7/5/2021 1:30:00 AM 19.52 67.136 0.389 7.58 5.31 7.47
7/5/2021 1:45:00 AM 19.43 66.974 0.389 7.58 5.67 7.51
7/5/2021 2:00:00 AM 19.34 66.812 0.389 7.57 6.24 7.52
7/5/2021 2:15:00 AM 19.24 66.632 0.389 7.53 5.72 7.55
7/5/2021 2:30:00 AM 19.14 66.452 0.389 7.55 6.45 7.56
7/5/2021 2:45:00 AM 19.04 66.272 0.389 7.54 5.74 7.59
7/5/2021 3:00:00 AM 18.95 66.11 0.389 7.53 5.79 7.61
7/5/2021 3:15:00 AM 18.87 65.966 0.388 7.52 5.46 7.62
7/5/2021 3:30:00 AM 18.79 65.82201 0.388 7.52 5.27 7.64
7/5/2021 3:45:00 AM 18.69 65.642 0.388 7.51 5.74 7.67
7/5/2021 4:00:00 AM 18.6 65.48 0.388 7.51 5.63 7.7
7/5/2021 4:15:00 AM 18.51 65.318 0.388 7.5 5.58 7.71
7/5/2021 4:30:00 AM 18.43 65.174 0.388 7.5 4.99 7.71
7/5/2021 4:45:00 AM 18.35 65.03 0.388 7.5 5.58 7.74
7/5/2021 5:00:00 AM 18.27 64.886 0.387 7.5 6.02 7.79
7/5/2021 5:15:00 AM 18.18 64.724 0.387 7.49 5.36 7.8
7/5/2021 5:30:00 AM 18.1 64.58 0.387 7.49 8.8 7.79
7/5/2021 5:45:00 AM 18.02 64.436 0.387 7.49 9.48 7.82
7/5/2021 6:00:00 AM 17.94 64.292 0.387 7.49 6.84 7.78
7/5/2021 6:15:00 AM 17.86 64.148 0.387 7.48 10.62 7.83
7/5/2021 6:30:00 AM 17.79 64.022 0.387 7.49 5.6 7.94
7/5/2021 6:45:00 AM 17.74 63.932 0.387 7.5 4.7 8.08
7/5/2021 7:00:00 AM 17.68 63.824 0.387 7.51 4.84 8.21
7/5/2021 7:15:00 AM 17.64 63.752 0.387 7.52 5.18 8.35
7/5/2021 7:30:00 AM 17.61 63.698 0.387 7.54 5.27 8.47
7/5/2021 7:45:00 AM 17.58 63.644 0.387 7.56 4.87 8.7
7/5/2021 8:00:00 AM 17.58 63.644 0.387 7.59 4.52 8.87
7/5/2021 8:15:00 AM 17.59 63.662 0.387 7.62 4.86 9.09
7/5/2021 8:30:00 AM 17.61 63.698 0.387 7.63 4.26 9.23
7/5/2021 8:45:00 AM 17.65 63.77 0.387 7.67 4.44 9.43
7/5/2021 9:00:00 AM 17.72 63.896 0.387 7.7 4.5 9.62
7/5/2021 9:15:00 AM 17.82 64.076 0.387 7.71 4.24 9.76
7/5/2021 9:30:00 AM 17.94 64.292 0.388 7.74 4.27 9.94
7/5/2021 9:45:00 AM 18.08 64.544 0.389 7.75 4.62 10.15
7/5/2021 10:00:00 AM 18.25 64.85 0.39 7.77 4.81 10.39
7/5/2021 10:15:00 AM 18.43 65.174 0.39 7.82 5.08 10.52
7/5/2021 10:30:00 AM 18.61 65.498 0.391 7.84 4.9 10.66
7/5/2021 10:45:00 AM 18.54 65.372 0.391 7.88 5.8 10.91
7/5/2021 11:00:00 AM 18.52 65.336 0.389 7.9 4.95 10.97
7/5/2021 11:15:00 AM 18.56 65.408 0.39 7.92 5.96 11.07
7/5/2021 11:30:00 AM 18.68 65.624 0.39 7.91 5.37 11.01
7/5/2021 11:45:00 AM 18.84 65.912 0.391 7.93 6.49 11.26
7/5/2021 12:00:00 PM 18.9 66.02 0.391 7.92 5.11 11.15
7/5/2021 12:15:00 PM 19.19 66.542 0.392 8 4.84 11.28
7/5/2021 12:30:00 PM 19.38 66.884 0.392 8.07 5.2 11.57
7/5/2021 12:45:00 PM 19.59 67.262 0.391 8.17 5.11 11.85
7/5/2021 1:00:00 PM 19.84 67.712 0.391 8.19 6.19 11.99
7/5/2021 1:15:00 PM 19.97 67.946 0.392 8.2 5.73 11.98
7/5/2021 1:30:00 PM 20.13 68.234 0.393 8.2 4.67 11.64
7/5/2021 1:45:00 PM 20.3 68.54 0.393 8.19 5.68 11.97
7/5/2021 2:00:00 PM 20.27 68.486 0.392 8.26 7.39 12.5
7/5/2021 2:15:00 PM 20.5 68.9 0.393 8.26 5.05 12.06
7/5/2021 2:30:00 PM 20.51 68.918 0.391 8.29 7.28 12.73
7/5/2021 2:45:00 PM 20.56 69.008 0.393 8.32 7.41 12.95
7/5/2021 3:00:00 PM 20.9 69.62 0.392 8.35 7.53 12.9
7/5/2021 3:15:00 PM 20.66 69.188 0.39 8.37 10.9 13.35
7/5/2021 3:30:00 PM 20.83 69.494 0.392 8.39 6.25 13.19
7/5/2021 3:45:00 PM 20.9 69.62 0.391 8.4 6.75 13.01
7/5/2021 4:00:00 PM 21.02 69.836 0.391 8.46 7.26 13.34
7/5/2021 4:15:00 PM 21.11 69.998 0.39 8.47 6.57 13.59
7/5/2021 4:30:00 PM 21.17 70.106 0.391 8.48 9.23 13.56
7/5/2021 4:45:00 PM 21.47 70.646 0.391 8.49 6.17 13.56
7/5/2021 5:00:00 PM 21.35 70.43 0.391 8.51 9.28 13.69
7/5/2021 5:15:00 PM 21.33 70.394 0.391 8.48 7.43 13.81
7/5/2021 5:30:00 PM 21.52 70.736 0.391 8.5 6.09 13.84
7/5/2021 5:45:00 PM 21.58 70.844 0.391 8.51 6.65 13.6
7/5/2021 6:00:00 PM 21.53 70.754 0.391 8.49 6.29 13.58
7/5/2021 6:15:00 PM 21.54 70.772 0.39 8.49 6.78 13.48
7/5/2021 6:30:00 PM 21.51 70.718 0.389 8.52 5.96 13.52
7/5/2021 6:45:00 PM 21.68 71.024 0.388 8.5 8.22 13.17
7/5/2021 7:00:00 PM 21.59 70.862 0.388 8.48 10.84 13.15
7/5/2021 7:15:00 PM 21.61 70.898 0.387 8.49 6.41 13.05
7/5/2021 7:30:00 PM 21.67 71.006 0.385 8.5 6.12 12.9
7/5/2021 7:45:00 PM 21.66 70.988 0.382 8.49 6.25 12.53
7/5/2021 8:00:00 PM 21.64 70.952 0.377 8.39 7.83 11.6
7/5/2021 8:15:00 PM 21.55 70.79 0.375 8.43 7.33 11.6
7/5/2021 8:30:00 PM 21.54 70.772 0.373 8.41 5.98 11.23
7/5/2021 8:45:00 PM 21.49 70.682 0.372 8.36 6.9 10.81
7/5/2021 9:00:00 PM 21.51 70.718 0.37 8.37 6.55 10.89
7/5/2021 9:15:00 PM 21.44 70.592 0.369 8.38 6.31 10.48
7/5/2021 9:30:00 PM 21.4 70.52 0.369 8.31 6.22 10.25
7/5/2021 9:45:00 PM 21.32 70.376 0.369 8.23 6.63 9.91
7/5/2021 10:00:00 PM 21.3 70.34 0.368 8.26 6.38 9.99
7/5/2021 10:15:00 PM 21.24 70.232 0.365 8.25 5.04 9.62
7/5/2021 10:30:00 PM 21.16 70.088 0.361 8.3 5.03 9.62
7/5/2021 10:45:00 PM 21.16 70.088 0.359 8.28 4.92 9.69
7/5/2021 11:00:00 PM 21.11 69.998 0.357 8.12 5.19 9.09
7/5/2021 11:15:00 PM 21.05 69.89 0.354 8.06 5.5 8.85
7/5/2021 11:30:00 PM 21.01 69.818 0.353 8.07 4.67 8.95
7/5/2021 11:45:00 PM 20.93 69.674 0.351 8.01 5.15 8.86
7/6/2021 12:00:00 AM 20.92 69.656 0.349 7.92 5.09 8.59
7/6/2021 12:15:00 AM 20.88 69.584 0.346 7.84 4.99 8.06
7/6/2021 12:30:00 AM 20.84 69.512 0.345 7.81 5.18 8.19
7/6/2021 12:45:00 AM 20.82 69.476 0.346 7.85 4.93 8.32
7/6/2021 1:00:00 AM 20.77 69.386 0.347 7.87 4.88 8.61
7/6/2021 1:15:00 AM 20.76 69.368 0.348 7.81 5.83 8.26
7/6/2021 1:30:00 AM 20.94 69.692 0.352 7.71 5.07 7.95
7/6/2021 1:45:00 AM 21.04 69.872 0.357 7.66 5.47 7.65
7/6/2021 2:00:00 AM 21.17 70.106 0.363 7.62 5.66 7.3
7/6/2021 2:15:00 AM 21.32 70.376 0.371 7.6 5.65 6.98
7/6/2021 2:30:00 AM 21.39 70.502 0.376 7.58 5.86 6.91
7/6/2021 2:45:00 AM 21.14 70.052 0.378 7.6 5.67 7.23
7/6/2021 3:00:00 AM 21 69.8 0.378 7.63 6.16 7.69
7/6/2021 3:15:00 AM 21.25 70.25 0.384 7.57 6.55 7.02
7/6/2021 3:30:00 AM 21.24 70.232 0.389 7.56 6.11 6.88
7/6/2021 3:45:00 AM 21.17 70.106 0.392 7.56 6.02 6.85
7/6/2021 4:00:00 AM 21.1 69.98 0.394 7.56 5.35 6.85
7/6/2021 4:15:00 AM 21.04 69.872 0.396 7.56 5.37 6.9
7/6/2021 4:30:00 AM 20.98 69.764 0.397 7.55 5.91 6.89
7/6/2021 4:45:00 AM 20.92 69.656 0.398 7.56 5.56 6.94
7/6/2021 5:00:00 AM 20.86 69.548 0.399 7.56 7.18 6.94
7/6/2021 5:15:00 AM 20.8 69.44 0.4 7.56 6.3 6.97
7/6/2021 5:30:00 AM 20.74 69.332 0.4 7.55 5.36 6.93
7/6/2021 5:45:00 AM 20.68 69.224 0.401 7.54 5.13 6.81
7/6/2021 6:00:00 AM 20.61 69.098 0.401 7.53 37.88 6.82
7/6/2021 6:15:00 AM 20.55 68.99 0.401 7.54 5.83 6.9
7/6/2021 6:30:00 AM 20.5 68.9 0.401 7.54 5.26 6.92
7/6/2021 6:45:00 AM 20.45 68.81 0.401 7.53 5.62 6.89
7/6/2021 7:00:00 AM 20.41 68.738 0.401 7.53 5.37 7.09
7/6/2021 7:15:00 AM 20.38 68.684 0.401 7.55 5.28 7.17
7/6/2021 7:30:00 AM 20.36 68.648 0.401 7.56 5.87 7.34
7/6/2021 7:45:00 AM 20.37 68.666 0.4 7.58 14.98 7.52
7/6/2021 8:00:00 AM 20.39 68.702 0.4 7.61 6.88 7.79
7/6/2021 8:15:00 AM 20.43 68.774 0.4 7.63 5.48 7.98
7/6/2021 8:30:00 AM 20.49 68.882 0.4 7.64 4.58 8.17
7/6/2021 8:45:00 AM 20.57 69.026 0.4 7.67 4.78 8.43
7/6/2021 9:00:00 AM 20.66 69.188 0.4 7.71 5.17 8.7
7/6/2021 9:15:00 AM 20.5 68.9 0.398 7.62 6.97 8.2
7/6/2021 9:30:00 AM 20.57 69.026 0.397 7.67 12.18 8.57
7/6/2021 9:45:00 AM 20.48 68.864 0.395 7.63 6.26 8.24
7/6/2021 10:00:00 AM 20.6 69.08 0.395 7.64 8.87 8.28
7/6/2021 10:15:00 AM 20.66 69.188 0.396 7.67 6.45 8.4
7/6/2021 10:30:00 AM 20.73 69.314 0.396 7.71 5.29 8.8
7/6/2021 10:45:00 AM 20.81 69.458 0.396 7.73 5.39 8.96
7/6/2021 11:00:00 AM 20.88 69.584 0.397 7.76 5.3 9.2
7/6/2021 11:15:00 AM 20.96 69.728 0.397 7.79 5.75 9.48
7/6/2021 11:30:00 AM 21.04 69.872 0.397 7.75 6.17 9.53
7/6/2021 11:45:00 AM 21.09 69.962 0.397 7.81 7.31 9.74
7/6/2021 12:00:00 PM 21.18 70.124 0.397 7.83 5.64 9.82
7/6/2021 12:15:00 PM 21.34 70.412 0.398 7.86 7.63 10
7/6/2021 12:30:00 PM 21.49 70.682 0.398 7.88 5.7 10.1
7/6/2021 12:45:00 PM 21.54 70.772 0.398 7.86 7.13 10.14
7/6/2021 1:00:00 PM 21.68 71.024 0.398 7.94 6.16 10.34
7/6/2021 1:15:00 PM 21.86 71.348 0.398 8.02 5.85 10.66
7/6/2021 1:30:00 PM 21.95 71.51 0.398 8 6.65 10.6
7/6/2021 1:45:00 PM 22.08 71.744 0.397 7.99 6.83 10.45
7/6/2021 2:00:00 PM 22.04 71.672 0.397 7.97 7.64 10.46
7/6/2021 2:15:00 PM 22.03 71.654 0.397 7.95 8.02 10.25
7/6/2021 2:30:00 PM 21.8 71.24 0.396 7.92 10.09 10.15
7/6/2021 2:45:00 PM 21.72 71.096 0.395 7.89 9.15 9.78
7/6/2021 3:00:00 PM 21.76 71.168 0.394 7.94 7.19 10.06
7/6/2021 3:15:00 PM 21.8 71.24 0.394 7.89 7.21 9.7
7/6/2021 3:30:00 PM 21.85 71.33 0.393 7.95 7.1 10.14
7/6/2021 3:45:00 PM 21.9 71.42 0.388 8.02 8.45 10.71
7/6/2021 4:00:00 PM 21.89 71.402 0.385 8.07 6.18 10.95
7/6/2021 4:15:00 PM 21.94 71.492 0.382 8.12 6.57 11.12
7/6/2021 4:30:00 PM 22.01 71.618 0.379 8.14 4.87 10.95
7/6/2021 4:45:00 PM 21.94 71.492 0.375 8.12 5.49 10.87
7/6/2021 5:00:00 PM 22.07 71.726 0.374 8.12 6.38 10.65
7/6/2021 5:15:00 PM 22.15 71.87 0.371 8.13 6.16 10.62
7/6/2021 5:30:00 PM 22.23 72.014 0.371 8.16 6.07 10.72
7/6/2021 5:45:00 PM 22.13 71.834 0.367 8.14 6.66 10.55
7/6/2021 6:00:00 PM 22.28 72.104 0.364 8.18 7.96 10.26
7/6/2021 6:15:00 PM 22.3 72.14 0.362 8.16 8.6 10.2
7/6/2021 6:30:00 PM 22.18 71.924 0.359 8.2 5.65 10.33
7/6/2021 6:45:00 PM 22.14 71.852 0.358 8.16 5.72 10.11
7/6/2021 7:00:00 PM 22.16 71.888 0.358 8.1 8.45 9.85
7/6/2021 7:15:00 PM 22.11 71.798 0.357 8.13 6.31 10.03
7/6/2021 7:30:00 PM 22.11 71.798 0.356 8.12 6.3 10.03
7/6/2021 7:45:00 PM 22.08 71.744 0.355 8.1 6.26 9.91
7/6/2021 8:00:00 PM 22.06 71.708 0.355 8.02 6.36 9.45
7/6/2021 8:15:00 PM 22.05 71.69 0.354 7.97 6.95 9.3
7/6/2021 8:30:00 PM 22.01 71.618 0.353 7.95 9.12 9.13
7/6/2021 8:45:00 PM 21.98 71.564 0.353 7.94 6.67 8.89
7/6/2021 9:00:00 PM 21.96 71.528 0.352 8.01 8.34 8.75
7/6/2021 9:15:00 PM 21.92 71.456 0.352 8.01 8.72 8.95
7/6/2021 9:30:00 PM 21.86 71.348 0.352 8.01 7.49 9.23
7/6/2021 9:45:00 PM 21.87 71.366 0.352 8 6.41 9.1
7/6/2021 10:00:00 PM 21.83 71.294 0.352 7.95 6.49 8.75
7/6/2021 10:15:00 PM 21.81 71.258 0.353 7.92 6.82 8.47
7/6/2021 10:30:00 PM 21.76 71.168 0.352 7.91 6.56 8.74
7/6/2021 10:45:00 PM 21.71 71.078 0.353 7.92 6.92 8.93
7/6/2021 11:00:00 PM 21.66 70.988 0.352 7.9 6.13 8.69
7/6/2021 11:15:00 PM 21.61 70.898 0.351 7.85 6.26 8.55
7/6/2021 11:30:00 PM 21.58 70.844 0.352 7.85 6.43 8.54
7/6/2021 11:45:00 PM 21.56 70.808 0.353 7.79 6.44 8.17
7/7/2021 12:00:00 AM 21.68 71.024 0.358 7.71 9.31 7.62
7/7/2021 12:15:00 AM 21.92 71.456 0.365 7.65 8.77 7.13
7/7/2021 12:30:00 AM 22.08 71.744 0.37 7.63 6.84 6.79
7/7/2021 12:45:00 AM 22.2 71.96 0.378 7.61 5.86 6.67
7/7/2021 1:00:00 AM 22.16 71.888 0.383 7.6 5.55 6.64
7/7/2021 1:15:00 AM 22.07 71.726 0.387 7.6 6.11 6.7
7/7/2021 1:30:00 AM 21.99 71.582 0.39 7.58 6.4 6.72
7/7/2021 1:45:00 AM 21.89 71.402 0.392 7.58 7.47 6.75
7/7/2021 2:00:00 AM 21.8 71.24 0.394 7.57 5.85 6.75
7/7/2021 2:15:00 AM 21.71 71.078 0.395 7.57 6.39 6.77
7/7/2021 2:30:00 AM 21.61 70.898 0.396 7.57 6.77 6.82
7/7/2021 2:45:00 AM 21.53 70.754 0.397 7.57 5.94 6.86
7/7/2021 3:00:00 AM 21.45 70.61 0.398 7.57 6.5 6.88
7/7/2021 3:15:00 AM 21.36 70.448 0.4 7.57 6.02 6.9
7/7/2021 3:30:00 AM 21.29 70.32201 0.4 7.57 7.26 6.94
7/7/2021 3:45:00 AM 21.21 70.17799 0.401 7.56 6.35 6.95
7/7/2021 4:00:00 AM 21.15 70.07 0.402 7.56 6.62 6.99
7/7/2021 4:15:00 AM 21.07 69.926 0.403 7.56 5.85 6.99
7/7/2021 4:30:00 AM 21.01 69.818 0.404 7.56 6.21 7.02
7/7/2021 4:45:00 AM 20.95 69.71 0.405 7.55 5.67 7.03
7/7/2021 5:00:00 AM 20.89 69.602 0.406 7.55 7.62 7.02
7/7/2021 5:15:00 AM 20.84 69.512 0.406 7.55 5.74 7.06
7/7/2021 5:30:00 AM 20.79 69.422 0.407 7.55 5.68 7.07
7/7/2021 5:45:00 AM 20.73 69.314 0.407 7.55 5.67 7.12
7/7/2021 6:00:00 AM 20.68 69.224 0.407 7.55 5.29 7.1
7/7/2021 6:15:00 AM 20.64 69.152 0.407 7.55 5.86 7.08
7/7/2021 6:30:00 AM 20.61 69.098 0.406 7.54 5.41 7.05
7/7/2021 6:45:00 AM 20.58 69.044 0.406 7.54 4.94 7.16
7/7/2021 7:00:00 AM 20.55 68.99 0.406 7.54 5.27 7.17
7/7/2021 7:15:00 AM 20.52 68.936 0.405 7.55 8.73 7.34
7/7/2021 7:30:00 AM 20.5 68.9 0.405 7.56 5.18 7.45
7/7/2021 7:45:00 AM 20.49 68.882 0.405 7.57 5.81 7.58
7/7/2021 8:00:00 AM 20.49 68.882 0.405 7.59 5.62 7.81
7/7/2021 8:15:00 AM 20.49 68.882 0.405 7.61 5.47 7.96
7/7/2021 8:30:00 AM 20.51 68.918 0.405 7.63 5.23 8.15
7/7/2021 8:45:00 AM 20.53 68.954 0.405 7.64 5.97 8.23
7/7/2021 9:00:00 AM 20.57 69.026 0.405 7.67 5.13 8.43
7/7/2021 9:15:00 AM 20.66 69.188 0.404 7.73 5 8.73
7/7/2021 9:30:00 AM 20.75 69.35 0.403 7.76 4.88 8.95
7/7/2021 9:45:00 AM 20.87 69.566 0.403 7.79 5.17 9.18
7/7/2021 10:00:00 AM 20.95 69.71 0.403 7.77 5.57 9.08
7/7/2021 10:15:00 AM 20.94 69.692 0.403 7.78 6.18 9.43
7/7/2021 10:30:00 AM 20.92 69.656 0.402 7.79 6.17 9.44
7/7/2021 10:45:00 AM 20.97 69.746 0.402 7.78 5.76 9.25
7/7/2021 11:00:00 AM 21.04 69.872 0.402 7.81 5.85 9.41
7/7/2021 11:15:00 AM 21.09 69.962 0.402 7.78 6.15 9.33
7/7/2021 11:30:00 AM 21.19 70.142 0.402 7.83 6.84 9.57
7/7/2021 11:45:00 AM 21.29 70.32201 0.402 7.84 7.1 9.63
7/7/2021 12:00:00 PM 21.46 70.628 0.402 7.87 6.63 9.98
7/7/2021 12:15:00 PM 21.66 70.988 0.402 7.94 5.66 10.21
7/7/2021 12:30:00 PM 21.85 71.33 0.402 7.97 6.96 10.51
7/7/2021 12:45:00 PM 22.03 71.654 0.402 8.01 6.3 10.83
7/7/2021 1:00:00 PM 22.14 71.852 0.401 8 5.75 10.71
7/7/2021 1:15:00 PM 22.26 72.068 0.401 8.03 12.29 10.88
7/7/2021 1:30:00 PM 22.4 72.32 0.401 8.07 7.62 10.58
7/7/2021 1:45:00 PM 22.43 72.374 0.401 8.02 7.74 10.71
7/7/2021 2:00:00 PM 22.44 72.392 0.401 8.01 7.43 10.73
7/7/2021 2:15:00 PM 22.68 72.824 0.401 8.07 6.04 10.42
7/7/2021 2:30:00 PM 22.61 72.698 0.4 8.14 7.84 11.17
7/7/2021 2:45:00 PM 22.73 72.914 0.401 8.09 6.19 10.64
7/7/2021 3:00:00 PM 22.83 73.094 0.4 8.12 6.31 10.77
7/7/2021 3:15:00 PM 22.83 73.094 0.4 8.09 5.76 10.69
7/7/2021 3:30:00 PM 23.28 73.904 0.399 8.26 8.95 11.81
7/7/2021 3:45:00 PM 23.1 73.58 0.398 8.21 11.77 11.7
7/7/2021 4:00:00 PM 22.94 73.292 0.399 8.18 7.11 11.75
7/7/2021 4:15:00 PM 23.08 73.544 0.399 8.17 7.79 10.7
7/7/2021 4:30:00 PM 23.28 73.904 0.398 8.2 5.97 11
7/7/2021 4:45:00 PM 23.19 73.742 0.397 8.19 7.19 11.63
7/7/2021 5:00:00 PM 23.31 73.958 0.397 8.18 7.67 11.32
7/7/2021 5:15:00 PM 23.37 74.066 0.393 8.25 8.55 11.63
7/7/2021 5:30:00 PM 23.4 74.12 0.393 8.23 7.17 11.28
7/7/2021 5:45:00 PM 23.59 74.462 0.389 8.29 8.6 11.51
7/7/2021 6:00:00 PM 23.43 74.174 0.39 8.23 7.26 11.29
7/7/2021 6:15:00 PM 23.42 74.156 0.388 8.2 7.12 11.28
7/7/2021 6:30:00 PM 23.42 74.156 0.389 8.19 6.93 10.77
7/7/2021 6:45:00 PM 23.36 74.048 0.389 8.11 6.75 10.33
7/7/2021 7:00:00 PM 23.46 74.228 0.388 8.1 8.11 10.18
7/7/2021 7:15:00 PM 23.17 73.706 0.387 8.15 7.46 10.84
7/7/2021 7:30:00 PM 23.26 73.868 0.387 8.13 5.92 10.44
7/7/2021 7:45:00 PM 23.35 74.03 0.384 8.14 5.22 10.01
7/7/2021 8:00:00 PM 23.31 73.958 0.383 8.07 5.87 9.93
7/7/2021 8:15:00 PM 23.18 73.724 0.38 8.12 9.09 10.04
7/7/2021 8:30:00 PM 23.29 73.922 0.378 8.2 10.36 10.13
7/7/2021 8:45:00 PM 23.32 73.976 0.376 8.07 8.13 9.19
7/7/2021 9:00:00 PM 23.94 75.092 0.374 7.99 10 7.74
7/7/2021 9:15:00 PM 24.08 75.344 0.367 7.87 11.49 7.03
7/7/2021 9:30:00 PM 23.92 75.056 0.365 7.83 8.47 6.89
7/7/2021 9:45:00 PM 23.88 74.984 0.367 7.81 7.59 6.79
7/7/2021 10:00:00 PM 23.89 75.002 0.37 7.79 10.09 6.72
7/7/2021 10:15:00 PM 23.83 74.894 0.373 7.75 10.66 6.68
7/7/2021 10:30:00 PM 23.71 74.67799 0.374 7.72 10.29 6.68
7/7/2021 10:45:00 PM 23.52 74.336 0.374 7.67 10.89 6.63
7/7/2021 11:00:00 PM 23.31 73.958 0.372 7.63 12.44 6.7
7/7/2021 11:15:00 PM 23.13 73.634 0.369 7.6 11.43 6.73
7/7/2021 11:30:00 PM 22.97 73.346 0.368 7.6 13.34 6.79
7/7/2021 11:45:00 PM 22.78 73.004 0.368 7.6 10.24 6.92
7/8/2021 12:00:00 AM 22.53 72.554 0.366 7.67 34.48 7.27
7/8/2021 12:15:00 AM 22.5 72.5 0.37 7.71 32.35 7.5
7/8/2021 12:30:00 AM 22.23 72.014 0.388 7.7 93.47 7.71
7/8/2021 12:45:00 AM 22 71.6 0.362 7.67 199.88 7.84
7/8/2021 1:00:00 AM 21.45 70.61 0.324 7.67 324.95 8.01
7/8/2021 1:15:00 AM 21.09 69.962 0.32 7.66 345.98 8.06
7/8/2021 1:30:00 AM 20.98 69.764 0.327 7.65 284.58 8.09
7/8/2021 1:45:00 AM 20.87 69.566 0.33 7.65 272.4 8.11
7/8/2021 2:00:00 AM 20.7 69.26 0.327 7.6 238.63 8.15
7/8/2021 2:15:00 AM 20.51 68.918 0.318 7.62 318.06 8.2
7/8/2021 2:30:00 AM 20.35 68.63 0.307 7.6 382.21 8.24
7/8/2021 2:45:00 AM 20.22 68.396 0.297 7.59 331.69 8.25
7/8/2021 3:00:00 AM 20.11 68.198 0.289 7.57 309.94 8.27
7/8/2021 3:15:00 AM 20.02 68.036 0.283 7.57 228.62 8.29
7/8/2021 3:30:00 AM 19.95 67.91 0.28 7.56 214.44 8.31
7/8/2021 3:45:00 AM 19.87 67.766 0.278 7.56 228.18 8.33
7/8/2021 4:00:00 AM 19.81 67.658 0.276 7.56 227.19 8.34
7/8/2021 4:15:00 AM 19.74 67.532 0.276 7.56 191.74 8.34
7/8/2021 4:30:00 AM 19.67 67.406 0.276 7.55 129.94 8.34
7/8/2021 4:45:00 AM 19.6 67.28 0.276 7.54 192.07 8.36
7/8/2021 5:00:00 AM 19.54 67.172 0.275 7.55 139.64 8.37
7/8/2021 5:15:00 AM 19.48 67.064 0.275 7.54 142 8.38
7/8/2021 5:30:00 AM 19.43 66.974 0.276 7.54 142.59 8.4
7/8/2021 5:45:00 AM 19.38 66.884 0.276 7.54 143.74 8.41
7/8/2021 6:00:00 AM 19.33 66.794 0.276 7.54 101.55 8.42
7/8/2021 6:15:00 AM 19.28 66.704 0.277 7.54 89.82 8.43
7/8/2021 6:30:00 AM 19.25 66.65 0.277 7.54 89.96 8.43
7/8/2021 6:45:00 AM 19.21 66.578 0.277 7.55 113.95 8.46
7/8/2021 7:00:00 AM 19.17 66.506 0.278 7.55 97.13 8.47
7/8/2021 7:15:00 AM 19.14 66.452 0.279 7.56 96.62 8.49
7/8/2021 7:30:00 AM 19.1 66.38 0.28 7.56 67.77 8.5
7/8/2021 7:45:00 AM 19.07 66.326 0.28 7.57 70.24 8.51
7/8/2021 8:00:00 AM 19.05 66.29 0.281 7.58 69.76 8.53
7/8/2021 8:15:00 AM 19.04 66.272 0.282 7.58 68.28 8.56
7/8/2021 8:30:00 AM 19.01 66.218 0.283 7.59 72.37 8.55
7/8/2021 8:45:00 AM 18.99 66.182 0.284 7.6 54.97 8.58
7/8/2021 9:00:00 AM 18.98 66.164 0.285 7.6 58.33 8.6
7/8/2021 9:15:00 AM 18.99 66.182 0.285 7.61 44 8.65
7/8/2021 9:30:00 AM 19.03 66.254 0.287 7.63 48.75 8.72
7/8/2021 9:45:00 AM 19.07 66.326 0.287 7.64 46.12 8.79
7/8/2021 10:00:00 AM 19.12 66.416 0.289 7.66 41.96 8.87
7/8/2021 10:15:00 AM 19.17 66.506 0.29 7.67 36.57 8.91
7/8/2021 10:30:00 AM 19.19 66.542 0.29 7.69 44.92 8.91
7/8/2021 10:45:00 AM 19.23 66.614 0.291 7.7 41.32 8.94
7/8/2021 11:00:00 AM 19.37 66.866 0.292 7.73 44.55 9.11
7/8/2021 11:15:00 AM 19.5 67.1 0.293 7.77 37.19 9.21
7/8/2021 11:30:00 AM 19.66 67.388 0.294 7.8 34.39 9.33
7/8/2021 11:45:00 AM 19.89 67.802 0.295 7.86 36.29 9.5
7/8/2021 12:00:00 PM 20.04 68.07201 0.297 7.86 29.69 9.54
7/8/2021 12:15:00 PM 20.12 68.216 0.298 7.93 34.17 9.54
7/8/2021 12:30:00 PM 20.3 68.54 0.299 7.95 29.3 9.58
7/8/2021 12:45:00 PM 20.48 68.864 0.3 7.98 33.98 9.65
7/8/2021 1:00:00 PM 20.64 69.152 0.301 8.02 31.86 9.67
7/8/2021 1:15:00 PM 20.72 69.296 0.302 8.04 31.62 9.65
7/8/2021 1:30:00 PM 20.73 69.314 0.303 8.04 24.35 9.57
7/8/2021 1:45:00 PM 20.75 69.35 0.304 8.05 28.65 9.53
7/8/2021 2:00:00 PM 20.72 69.296 0.305 8.03 25.91 9.36
7/8/2021 2:15:00 PM 20.72 69.296 0.306 8.03 22.11 9.33
7/8/2021 2:30:00 PM 20.74 69.332 0.307 8.03 46.83 9.28
7/8/2021 2:45:00 PM 20.74 69.332 0.308 8.03 21.8 9.28
7/8/2021 3:00:00 PM 20.73 69.314 0.309 8 24.53 9.2
7/8/2021 3:15:00 PM 20.69 69.242 0.31 7.98 24.95 9.08
7/8/2021 3:30:00 PM 20.66 69.188 0.311 7.95 26 8.98
7/8/2021 3:45:00 PM 20.69 69.242 0.311 7.94 25.71 9
7/8/2021 4:00:00 PM 20.77 69.386 0.312 7.95 22.49 9.18
7/8/2021 4:15:00 PM 20.83 69.494 0.313 7.98 20.14 9.15
7/8/2021 4:30:00 PM 20.95 69.71 0.314 7.99 25 9.24
7/8/2021 4:45:00 PM 21.09 69.962 0.315 8.03 22.4 9.35
7/8/2021 5:00:00 PM 21.17 70.106 0.316 8.03 21.81 9.32
7/8/2021 5:15:00 PM 21.28 70.304 0.317 8.03 20.9 9.38
7/8/2021 5:30:00 PM 21.36 70.448 0.318 8.09 22.64 9.39
7/8/2021 5:45:00 PM 21.38 70.484 0.318 8.08 21.47 9.17
7/8/2021 6:00:00 PM 21.37 70.466 0.319 8.04 23.82 8.93
7/8/2021 6:15:00 PM 21.35 70.43 0.319 7.99 25.35 8.71
7/8/2021 6:30:00 PM 21.34 70.412 0.32 7.96 22.59 8.58
7/8/2021 6:45:00 PM 21.33 70.394 0.32 7.93 25.18 8.52
7/8/2021 7:00:00 PM 21.27 70.286 0.321 7.87 20.86 8.33
7/8/2021 7:15:00 PM 21.22 70.196 0.322 7.82 20.37 8.17
7/8/2021 7:30:00 PM 21.18 70.124 0.322 7.8 20.4 8.21
7/8/2021 7:45:00 PM 21.14 70.052 0.323 7.77 15.91 8.19
7/8/2021 8:00:00 PM 21.09 69.962 0.324 7.75 18.49 8.15
7/8/2021 8:15:00 PM 21.04 69.872 0.325 7.73 18.17 8.1
7/8/2021 8:30:00 PM 21.02 69.836 0.325 7.72 20.2 8.1
7/8/2021 8:45:00 PM 21 69.8 0.326 7.7 20.47 8.04
7/8/2021 9:00:00 PM 20.97 69.746 0.327 7.69 20.43 8
7/8/2021 9:15:00 PM 20.93 69.674 0.327 7.68 20.58 7.95
7/8/2021 9:30:00 PM 20.88 69.584 0.328 7.67 19.51 7.95
7/8/2021 9:45:00 PM 20.82 69.476 0.328 7.66 20.69 7.93
7/8/2021 10:00:00 PM 20.77 69.386 0.329 7.66 19.71 7.92
7/8/2021 10:15:00 PM 20.73 69.314 0.33 7.65 18.81 7.92
7/8/2021 10:30:00 PM 20.68 69.224 0.33 7.64 20.78 7.9
7/8/2021 10:45:00 PM 20.63 69.134 0.331 7.64 19.84 7.92
7/8/2021 11:00:00 PM 20.59 69.062 0.331 7.63 20.66 7.92
7/8/2021 11:15:00 PM 20.55 68.99 0.332 7.63 19.31 7.93
7/8/2021 11:30:00 PM 20.51 68.918 0.332 7.62 31.16 7.95
7/8/2021 11:45:00 PM 20.45 68.81 0.333 7.62 21.5 7.95
7/9/2021 12:00:00 AM 20.41 68.738 0.333 7.62 18.7 7.96
7/9/2021 12:15:00 AM 20.37 68.666 0.333 7.6 17.86 7.96
7/9/2021 12:30:00 AM 20.34 68.612 0.334 7.62 18.82 7.98
7/9/2021 12:45:00 AM 20.28 68.504 0.335 7.61 18.52 7.98
7/9/2021 1:00:00 AM 20.23 68.414 0.336 7.61 20.3 7.98
7/9/2021 1:15:00 AM 20.19 68.342 0.337 7.61 19.11 7.98
7/9/2021 1:30:00 AM 20.14 68.252 0.338 7.6 19.64 7.99
7/9/2021 1:45:00 AM 20.09 68.162 0.339 7.57 19.86 8
7/9/2021 2:00:00 AM 20.04 68.07201 0.34 7.61 20.1 8.01
7/9/2021 2:15:00 AM 19.98 67.964 0.34 7.61 18.25 8.02
7/9/2021 2:30:00 AM 19.93 67.874 0.34 7.61 19.3 8.02
7/9/2021 2:45:00 AM 19.88 67.784 0.34 7.61 18.18 8.05
7/9/2021 3:00:00 AM 19.82 67.676 0.341 7.61 17.03 8.05
7/9/2021 3:15:00 AM 19.76 67.568 0.341 7.61 19.71 8.06
7/9/2021 3:30:00 AM 19.7 67.46 0.341 7.6 19.73 8.04
7/9/2021 3:45:00 AM 19.63 67.334 0.341 7.6 16.88 8.08
7/9/2021 4:00:00 AM 19.58 67.244 0.341 7.61 21.51 8.1
7/9/2021 4:15:00 AM 19.52 67.136 0.342 7.6 17.16 8.1
7/9/2021 4:30:00 AM 19.49 67.082 0.342 7.61 15.83 8.11
7/9/2021 4:45:00 AM 19.46 67.028 0.342 7.61 17.94 8.14
7/9/2021 5:00:00 AM 19.41 66.938 0.342 7.61 20.61 8.15
7/9/2021 5:15:00 AM 19.35 66.83 0.343 7.6 17.39 8.14
7/9/2021 5:30:00 AM 19.31 66.758 0.343 7.6 21.27 8.14
7/9/2021 5:45:00 AM 19.26 66.668 0.343 7.59 16.54 8.15
7/9/2021 6:00:00 AM 19.21 66.578 0.344 7.59 18.19 8.18
7/9/2021 6:15:00 AM 19.17 66.506 0.344 7.59 18.75 8.22
7/9/2021 6:30:00 AM 19.13 66.434 0.344 7.58 16.89 8.22
7/9/2021 6:45:00 AM 19.11 66.398 0.345 7.6 14.95 8.31
7/9/2021 7:00:00 AM 19.09 66.362 0.345 7.59 15.95 8.38
7/9/2021 7:15:00 AM 19.08 66.344 0.345 7.61 15.17 8.53
7/9/2021 7:30:00 AM 19.06 66.308 0.345 7.63 17.76 8.6
7/9/2021 7:45:00 AM 19.05 66.29 0.346 7.63 14.42 8.66
7/9/2021 8:00:00 AM 19.04 66.272 0.346 7.66 15.18 8.74
7/9/2021 8:15:00 AM 19.05 66.29 0.346 7.69 13.33 8.91
7/9/2021 8:30:00 AM 19.09 66.362 0.346 7.72 13.42 9.06
7/9/2021 8:45:00 AM 19.15 66.47 0.347 7.74 13.32 9.21
7/9/2021 9:00:00 AM 19.21 66.578 0.347 7.79 13.98 9.42
7/9/2021 9:15:00 AM 19.3 66.74 0.348 7.83 14.01 9.51
7/9/2021 9:30:00 AM 19.39 66.902 0.348 7.87 13.04 9.7
7/9/2021 9:45:00 AM 19.54 67.172 0.349 7.93 11.82 9.77
7/9/2021 10:00:00 AM 19.62 67.316 0.35 7.96 11.98 9.9
7/9/2021 10:15:00 AM 19.78 67.604 0.35 8.01 12.86 10.07
7/9/2021 10:30:00 AM 19.92 67.856 0.351 8.06 11.4 10.21
7/9/2021 10:45:00 AM 20.07 68.126 0.352 8.11 11.25 10.25
7/9/2021 11:00:00 AM 20.18 68.324 0.353 8.13 11.3 10.27
7/9/2021 11:15:00 AM 20.49 68.882 0.353 8.16 11.14 10.4
7/9/2021 11:30:00 AM 20.63 69.134 0.354 8.23 10.84 10.34
7/9/2021 11:45:00 AM 20.66 69.188 0.353 8.24 11.01 10.18
7/9/2021 12:00:00 PM 20.62 69.116 0.353 8.26 10.11 10.26
7/9/2021 12:15:00 PM 20.84 69.512 0.353 8.25 10.9 10.27
7/9/2021 12:30:00 PM 21.2 70.16 0.354 8.3 10.52 10.55
7/9/2021 12:45:00 PM 21.41 70.538 0.354 8.38 10.35 10.71
7/9/2021 1:00:00 PM 21.41 70.538 0.354 8.38 9.8 10.54
7/9/2021 1:15:00 PM 21.28 70.304 0.353 8.38 9.26 10.31
7/9/2021 1:30:00 PM 21.52 70.736 0.354 8.36 9.05 10.45
7/9/2021 1:45:00 PM 21.68 71.024 0.354 8.42 9.98 10.4
7/9/2021 2:00:00 PM 21.72 71.096 0.353 8.41 10.19 10.17
7/9/2021 2:15:00 PM 21.85 71.33 0.353 8.42 9.35 10.47
7/9/2021 2:30:00 PM 21.99 71.582 0.353 8.47 9.31 10.56
7/9/2021 2:45:00 PM 22.17 71.906 0.354 8.49 8.53 10.48
7/9/2021 3:00:00 PM 22.35 72.23 0.355 8.49 10.73 10.51
7/9/2021 3:15:00 PM 22.44 72.392 0.355 8.52 8.32 10.56
7/9/2021 3:30:00 PM 22.54 72.57201 0.355 8.54 10.65 10.48
7/9/2021 3:45:00 PM 22.53 72.554 0.355 8.55 10 10.39
7/9/2021 4:00:00 PM 22.5 72.5 0.356 8.53 8.28 10.17
7/9/2021 4:15:00 PM 22.44 72.392 0.356 8.51 10.33 10.05
7/9/2021 4:30:00 PM 22.41 72.338 0.356 8.51 7.79 9.94
7/9/2021 4:45:00 PM 22.41 72.338 0.356 8.52 8.22 9.96
7/9/2021 5:00:00 PM 22.43 72.374 0.356 8.51 7.64 9.84
7/9/2021 5:15:00 PM 22.47 72.446 0.356 8.52 8.69 9.82
7/9/2021 5:30:00 PM 22.49 72.482 0.356 8.51 7.43 9.81
7/9/2021 5:45:00 PM 22.45 72.41 0.357 8.48 7.71 9.6
7/9/2021 6:00:00 PM 22.37 72.266 0.357 8.45 8.35 9.48
7/9/2021 6:15:00 PM 22.31 72.158 0.358 8.42 7.47 9.29
7/9/2021 6:30:00 PM 22.25 72.05 0.359 8.37 7.97 9.16
7/9/2021 6:45:00 PM 22.15 71.87 0.36 8.33 7.03 8.97
7/9/2021 7:00:00 PM 22.12 71.816 0.36 8.31 6.91 8.92
7/9/2021 7:15:00 PM 22.1 71.78 0.361 8.3 13.01 8.89
7/9/2021 7:30:00 PM 22.06 71.708 0.361 8.27 7.7 8.78
7/9/2021 7:45:00 PM 22 71.6 0.361 8.22 7.07 8.64
7/9/2021 8:00:00 PM 21.95 71.51 0.361 8.18 8.06 8.47
7/9/2021 8:15:00 PM 21.9 71.42 0.362 8.11 8.59 8.3
7/9/2021 8:30:00 PM 21.84 71.312 0.361 8.05 7.96 8.16
7/9/2021 8:45:00 PM 21.76 71.168 0.361 7.98 7.71 8
7/9/2021 9:00:00 PM 21.68 71.024 0.361 7.94 8.13 7.9
7/9/2021 9:15:00 PM 21.58 70.844 0.362 7.89 8.69 7.81
7/9/2021 9:30:00 PM 21.5 70.7 0.362 7.85 9.14 7.74
7/9/2021 9:45:00 PM 21.42 70.556 0.362 7.8 10.82 7.7
7/9/2021 10:00:00 PM 21.35 70.43 0.362 7.78 10.16 7.66
7/9/2021 10:15:00 PM 21.29 70.32201 0.362 7.76 10 7.63
7/9/2021 10:30:00 PM 21.24 70.232 0.362 7.73 10.22 7.58
7/9/2021 10:45:00 PM 21.18 70.124 0.362 7.71 9.41 7.58
7/9/2021 11:00:00 PM 21.09 69.962 0.362 7.69 11.26 7.59
7/9/2021 11:15:00 PM 21.01 69.818 0.363 7.68 10.29 7.58
7/9/2021 11:30:00 PM 20.95 69.71 0.363 7.66 10.04 7.58
7/9/2021 11:45:00 PM 20.9 69.62 0.363 7.66 10.5 7.6
7/10/2021 12:00:00 AM 20.84 69.512 0.363 7.65 8.98 7.61
7/10/2021 12:15:00 AM 20.76 69.368 0.363 7.64 10.19 7.59
7/10/2021 12:30:00 AM 20.68 69.224 0.363 7.63 11.37 7.6
7/10/2021 12:45:00 AM 20.63 69.134 0.363 7.63 10.22 7.61
7/10/2021 1:00:00 AM 20.57 69.026 0.363 7.62 10.42 7.62
7/10/2021 1:15:00 AM 20.53 68.954 0.364 7.62 10.46 7.62
7/10/2021 1:30:00 AM 20.47 68.846 0.364 7.62 11.43 7.66
7/10/2021 1:45:00 AM 20.43 68.774 0.364 7.62 10.43 7.66
7/10/2021 2:00:00 AM 20.36 68.648 0.364 7.61 10.34 7.65
7/10/2021 2:15:00 AM 20.3 68.54 0.364 7.6 11.48 7.65
7/10/2021 2:30:00 AM 20.23 68.414 0.364 7.6 10.02 7.68
7/10/2021 2:45:00 AM 20.17 68.306 0.365 7.6 10.06 7.69
7/10/2021 3:00:00 AM 20.11 68.198 0.365 7.6 9.62 7.71
7/10/2021 3:15:00 AM 20.03 68.054 0.365 7.59 12.61 7.69
7/10/2021 3:30:00 AM 19.96 67.92799 0.366 7.59 10.16 7.72
7/10/2021 3:45:00 AM 19.88 67.784 0.367 7.59 9.39 7.76
7/10/2021 4:00:00 AM 19.8 67.64 0.367 7.59 14.79 7.78
7/10/2021 4:15:00 AM 19.73 67.514 0.368 7.58 9.84 7.79
7/10/2021 4:30:00 AM 19.67 67.406 0.369 7.57 10.01 7.76
7/10/2021 4:45:00 AM 19.62 67.316 0.369 7.57 9.78 7.77
7/10/2021 5:00:00 AM 19.56 67.208 0.37 7.56 10.4 7.77
7/10/2021 5:15:00 AM 19.51 67.118 0.37 7.57 9.17 7.84
7/10/2021 5:30:00 AM 19.45 67.01 0.37 7.54 8.75 7.84
7/10/2021 5:45:00 AM 19.41 66.938 0.37 7.54 11.65 7.83
7/10/2021 6:00:00 AM 19.37 66.866 0.37 7.55 7.93 7.81
7/10/2021 6:15:00 AM 19.33 66.794 0.37 7.55 9.37 7.84
7/10/2021 6:30:00 AM 19.3 66.74 0.37 7.56 9.7 7.9
7/10/2021 6:45:00 AM 19.27 66.686 0.37 7.55 9.68 7.97
7/10/2021 7:00:00 AM 19.25 66.65 0.37 7.56 8.96 7.94
7/10/2021 7:15:00 AM 19.23 66.614 0.37 7.57 9.39 8.21
7/10/2021 7:30:00 AM 19.22 66.596 0.37 7.61 8.59 8.36
7/10/2021 7:45:00 AM 19.22 66.596 0.37 7.63 7.96 8.59
7/10/2021 8:00:00 AM 19.23 66.614 0.37 7.65 7.98 8.71
7/10/2021 8:15:00 AM 19.24 66.632 0.37 7.68 7.03 8.85
7/10/2021 8:30:00 AM 19.27 66.686 0.37 7.7 8.16 8.99
7/10/2021 8:45:00 AM 19.3 66.74 0.37 7.75 7.7 9.26
7/10/2021 9:00:00 AM 19.31 66.758 0.37 7.77 8.38 9.48
7/10/2021 9:15:00 AM 19.34 66.812 0.37 7.81 7.52 9.51
7/10/2021 9:30:00 AM 19.37 66.866 0.37 7.84 7.18 9.59
7/10/2021 9:45:00 AM 19.39 66.902 0.37 7.89 6.86 9.75
7/10/2021 10:00:00 AM 19.42 66.956 0.37 7.89 6.68 9.69
7/10/2021 10:15:00 AM 19.51 67.118 0.37 7.96 6.39 10.09
7/10/2021 10:30:00 AM 19.6 67.28 0.37 8 7.61 10.29
7/10/2021 10:45:00 AM 19.69 67.442 0.37 8.08 7.02 10.64
7/10/2021 11:00:00 AM 19.79 67.622 0.37 8.18 5.79 10.86
7/10/2021 11:15:00 AM 19.83 67.694 0.37 8.17 6.79 10.81
7/10/2021 11:30:00 AM 19.89 67.802 0.37 8.22 7.43 10.76
7/10/2021 11:45:00 AM 19.99 67.982 0.37 8.23 6.59 10.86
7/10/2021 12:00:00 PM 20.07 68.126 0.37 8.29 6.96 11.14
7/10/2021 12:15:00 PM 20.14 68.252 0.37 8.37 5.67 11.18
7/10/2021 12:30:00 PM 20.2 68.36 0.37 8.42 6.33 11.27
7/10/2021 12:45:00 PM 20.27 68.486 0.371 8.44 6.37 11.34
7/10/2021 1:00:00 PM 20.4 68.72 0.371 8.48 5.93 11.4
7/10/2021 1:15:00 PM 20.58 69.044 0.371 8.52 7.39 11.63
7/10/2021 1:30:00 PM 20.83 69.494 0.371 8.62 8.59 11.83
7/10/2021 1:45:00 PM 21.03 69.854 0.371 8.67 5.45 11.89
7/10/2021 2:00:00 PM 21.21 70.17799 0.371 8.69 5.96 11.94
7/10/2021 2:15:00 PM 21.38 70.484 0.371 8.7 6.16 11.96
7/10/2021 2:30:00 PM 21.5 70.7 0.371 8.76 5.79 11.98
7/10/2021 2:45:00 PM 21.65 70.97 0.371 8.77 6.02 11.77
7/10/2021 3:00:00 PM 21.8 71.24 0.371 8.78 6.12 11.71
7/10/2021 3:15:00 PM 21.88 71.384 0.371 8.81 5.46 11.66
7/10/2021 3:30:00 PM 22 71.6 0.37 8.83 6.69 11.57
7/10/2021 3:45:00 PM 22.07 71.726 0.37 8.83 5.82 11.48
7/10/2021 4:00:00 PM 22.14 71.852 0.37 8.85 5.67 11.39
7/10/2021 4:15:00 PM 22.25 72.05 0.37 8.86 5.1 11.3
7/10/2021 4:30:00 PM 22.37 72.266 0.37 8.86 4.87 11.17
7/10/2021 4:45:00 PM 22.39 72.302 0.37 8.86 5.12 11.05
7/10/2021 5:00:00 PM 22.38 72.284 0.369 8.86 5.06 10.93
7/10/2021 5:15:00 PM 22.34 72.212 0.369 8.84 5.31 10.63
7/10/2021 5:30:00 PM 22.29 72.122 0.369 8.82 5.28 10.37
7/10/2021 5:45:00 PM 22.25 72.05 0.369 8.79 10.62 10.08
7/10/2021 6:00:00 PM 22.22 71.996 0.369 8.75 5.18 9.9
7/10/2021 6:15:00 PM 22.15 71.87 0.369 8.74 4.7 9.83
7/10/2021 6:30:00 PM 22.06 71.708 0.37 8.71 6.76 9.62
7/10/2021 6:45:00 PM 21.97 71.546 0.37 8.67 5.38 9.48
7/10/2021 7:00:00 PM 21.85 71.33 0.37 8.64 5.51 9.42
7/10/2021 7:15:00 PM 21.73 71.114 0.37 8.61 5.7 9.28
7/10/2021 7:30:00 PM 21.62 70.916 0.37 8.55 5.2 9.09
7/10/2021 7:45:00 PM 21.49 70.682 0.371 8.49 5.48 8.86
7/10/2021 8:00:00 PM 21.36 70.448 0.372 8.44 5.28 8.7
7/10/2021 8:15:00 PM 21.24 70.232 0.372 8.39 5.15 8.59
7/10/2021 8:30:00 PM 21.14 70.052 0.373 8.33 6.55 8.46
7/10/2021 8:45:00 PM 21.04 69.872 0.373 8.26 5.11 8.32
7/10/2021 9:00:00 PM 20.93 69.674 0.374 8.19 5.69 8.17
7/10/2021 9:15:00 PM 20.81 69.458 0.374 8.11 5.57 8.04
7/10/2021 9:30:00 PM 20.69 69.242 0.374 8.03 5.98 7.93
7/10/2021 9:45:00 PM 20.59 69.062 0.374 7.97 6.22 7.86
7/10/2021 10:00:00 PM 20.48 68.864 0.375 7.9 7.15 7.79
7/10/2021 10:15:00 PM 20.37 68.666 0.375 7.86 6.44 7.77
7/10/2021 10:30:00 PM 20.28 68.504 0.375 7.82 6.39 7.74
7/10/2021 10:45:00 PM 20.17 68.306 0.375 7.78 6.62 7.7
7/10/2021 11:00:00 PM 20.08 68.144 0.375 7.73 7.85 7.68
7/10/2021 11:15:00 PM 20 68 0.375 7.74 7.2 7.69
7/10/2021 11:30:00 PM 19.9 67.82 0.375 7.71 7.78 7.7
7/10/2021 11:45:00 PM 19.82 67.676 0.375 7.69 6.97 7.69
7/11/2021 12:00:00 AM 19.73 67.514 0.375 7.67 6.7 7.69
7/11/2021 12:15:00 AM 19.66 67.388 0.375 7.66 6.58 7.71
7/11/2021 12:30:00 AM 19.58 67.244 0.374 7.65 6.52 7.69
7/11/2021 12:45:00 AM 19.5 67.1 0.374 7.64 6.17 7.71
7/11/2021 1:00:00 AM 19.44 66.992 0.374 7.63 7.04 7.72
7/11/2021 1:15:00 AM 19.36 66.848 0.374 7.61 6.69 7.74
7/11/2021 1:30:00 AM 19.29 66.722 0.374 7.6 6.71 7.77
7/11/2021 1:45:00 AM 19.23 66.614 0.374 7.57 7.48 7.8
7/11/2021 2:00:00 AM 19.17 66.506 0.374 7.59 7.07 7.78
7/11/2021 2:15:00 AM 19.1 66.38 0.374 7.58 6.2 7.8
7/11/2021 2:30:00 AM 19.06 66.308 0.374 7.57 6.96 7.79
7/11/2021 2:45:00 AM 19.01 66.218 0.374 7.56 6.65 7.8
7/11/2021 3:00:00 AM 18.96 66.128 0.374 7.56 6.72 7.82
7/11/2021 3:15:00 AM 18.88 65.984 0.374 7.55 6.84 7.83
7/11/2021 3:30:00 AM 18.82 65.876 0.374 7.53 5.94 7.81
7/11/2021 3:45:00 AM 18.77 65.786 0.374 7.54 6.96 7.86
7/11/2021 4:00:00 AM 18.72 65.696 0.374 7.54 7.48 7.87
7/11/2021 4:15:00 AM 18.68 65.624 0.374 7.54 7.1 7.87
7/11/2021 4:30:00 AM 18.63 65.534 0.374 7.54 6.86 7.88
7/11/2021 4:45:00 AM 18.58 65.444 0.374 7.53 6.33 7.89
7/11/2021 5:00:00 AM 18.54 65.372 0.374 7.53 6.72 7.88
7/11/2021 5:15:00 AM 18.5 65.3 0.374 7.53 7.41 7.9
7/11/2021 5:30:00 AM 18.46 65.228 0.375 7.52 6.99 7.87
7/11/2021 5:45:00 AM 18.42 65.156 0.375 7.52 6.72 7.86
7/11/2021 6:00:00 AM 18.39 65.102 0.375 7.54 5.81 7.92
7/11/2021 6:15:00 AM 18.34 65.012 0.375 7.53 6 7.9
7/11/2021 6:30:00 AM 18.31 64.958 0.375 7.53 6.06 7.92
7/11/2021 6:45:00 AM 18.29 64.922 0.376 7.54 10.02 8.02
7/11/2021 7:00:00 AM 18.27 64.886 0.376 7.54 6.2 8.17
7/11/2021 7:15:00 AM 18.26 64.868 0.375 7.57 5.55 8.32
7/11/2021 7:30:00 AM 18.25 64.85 0.375 7.58 5.59 8.45
7/11/2021 7:45:00 AM 18.25 64.85 0.375 7.6 6.03 8.59
7/11/2021 8:00:00 AM 18.27 64.886 0.375 7.61 5.81 8.75
7/11/2021 8:15:00 AM 18.28 64.904 0.375 7.65 5.21 8.91
7/11/2021 8:30:00 AM 18.32 64.976 0.375 7.67 5.71 9.12
7/11/2021 8:45:00 AM 18.36 65.048 0.374 7.71 7.57 9.38
7/11/2021 9:00:00 AM 18.42 65.156 0.374 7.76 5.36 9.73
7/11/2021 9:15:00 AM 18.49 65.282 0.374 7.82 5.39 9.96
7/11/2021 9:30:00 AM 18.56 65.408 0.374 7.84 5.83 10.24
7/11/2021 9:45:00 AM 18.62 65.516 0.374 7.91 5.24 10.31
7/11/2021 10:00:00 AM 18.67 65.606 0.373 7.94 5.2 10.41
7/11/2021 10:15:00 AM 18.73 65.714 0.373 7.96 7.31 10.37
7/11/2021 10:30:00 AM 18.79 65.82201 0.373 7.98 5.73 10.46
7/11/2021 10:45:00 AM 18.87 65.966 0.373 8.02 5.24 10.65
7/11/2021 11:00:00 AM 18.95 66.11 0.373 8.09 5.47 10.8
7/11/2021 11:15:00 AM 19.03 66.254 0.372 8.15 5.33 10.93
7/11/2021 11:30:00 AM 19.08 66.344 0.372 8.22 6.54 11.05
7/11/2021 11:45:00 AM 19.09 66.362 0.372 8.23 6.13 10.93
7/11/2021 12:00:00 PM 19.09 66.362 0.372 8.2 6.63 10.54
7/11/2021 12:15:00 PM 19.09 66.362 0.371 8.18 5.75 10.22
7/11/2021 12:30:00 PM 19.1 66.38 0.371 8.18 4.26 10.26
7/11/2021 12:45:00 PM 19.13 66.434 0.372 8.19 5.89 10.42
7/11/2021 1:00:00 PM 19.19 66.542 0.372 8.27 4.89 10.58
7/11/2021 1:15:00 PM 19.23 66.614 0.371 8.3 4.48 10.72
7/11/2021 1:30:00 PM 19.26 66.668 0.372 8.34 4.61 10.74
7/11/2021 1:45:00 PM 19.26 66.668 0.371 8.32 4.83 10.52
7/11/2021 2:00:00 PM 19.25 66.65 0.371 8.27 7.14 10.13
7/11/2021 2:15:00 PM 19.22 66.596 0.372 8.23 5.65 10.05
7/11/2021 2:30:00 PM 19.19 66.542 0.372 8.2 4.2 9.96
7/11/2021 2:45:00 PM 19.16 66.488 0.371 8.16 5.51 9.77
7/11/2021 3:00:00 PM 19.14 66.452 0.371 8.15 5.41 9.67
7/11/2021 3:15:00 PM 19.13 66.434 0.371 8.15 4.94 9.76
7/11/2021 3:30:00 PM 19.13 66.434 0.37 8.16 5.04 9.78
7/11/2021 3:45:00 PM 19.13 66.434 0.371 8.15 4.9 9.69
7/11/2021 4:00:00 PM 19.11 66.398 0.372 8.13 4.7 9.61
7/11/2021 4:15:00 PM 19.09 66.362 0.372 8.09 4.26 9.47
7/11/2021 4:30:00 PM 19.05 66.29 0.373 8.05 4.4 9.35
7/11/2021 4:45:00 PM 19.02 66.236 0.373 8.01 4.66 9.25
7/11/2021 5:00:00 PM 18.99 66.182 0.373 7.99 4.53 9.15
7/11/2021 5:15:00 PM 18.95 66.11 0.373 7.96 5.01 9.12
7/11/2021 5:30:00 PM 18.93 66.074 0.372 7.96 4.85 9.15
7/11/2021 5:45:00 PM 18.89 66.002 0.372 7.94 4.34 9.09
7/11/2021 6:00:00 PM 18.85 65.93 0.372 7.92 4.33 9.05
7/11/2021 6:15:00 PM 18.81 65.858 0.371 7.89 5.46 8.98
7/11/2021 6:30:00 PM 18.77 65.786 0.37 7.86 5.35 8.96
7/11/2021 6:45:00 PM 18.73 65.714 0.369 7.86 4.9 8.92
7/11/2021 7:00:00 PM 18.7 65.66 0.369 7.84 5.5 8.85
7/11/2021 7:15:00 PM 18.66 65.588 0.369 7.84 5.4 8.74
7/11/2021 7:30:00 PM 18.62 65.516 0.369 7.82 5.54 8.68
7/11/2021 7:45:00 PM 18.59 65.462 0.368 7.8 6.48 8.65
7/11/2021 8:00:00 PM 18.56 65.408 0.368 7.79 6.45 8.66
7/11/2021 8:15:00 PM 18.54 65.372 0.368 7.78 5.96 8.63
7/11/2021 8:30:00 PM 18.52 65.336 0.368 7.78 6.33 8.57
7/11/2021 8:45:00 PM 18.46 65.228 0.367 7.77 6.66 8.55
7/11/2021 9:00:00 PM 18.42 65.156 0.365 7.76 8.05 8.56
7/11/2021 9:15:00 PM 18.38 65.084 0.364 7.72 7.39 8.5
7/11/2021 9:30:00 PM 18.38 65.084 0.364 7.71 8.54 8.44
7/11/2021 9:45:00 PM 18.37 65.066 0.365 7.68 10.06 8.4
7/11/2021 10:00:00 PM 18.36 65.048 0.365 7.7 9.23 8.4
7/11/2021 10:15:00 PM 18.35 65.03 0.365 7.7 10.69 8.41
7/11/2021 10:30:00 PM 18.34 65.012 0.366 7.71 9.91 8.42
7/11/2021 10:45:00 PM 18.34 65.012 0.366 7.73 11.75 8.47
7/11/2021 11:00:00 PM 18.35 65.03 0.366 7.76 14.17 8.5
7/11/2021 11:15:00 PM 18.34 65.012 0.369 7.76 16.33 8.53
7/11/2021 11:30:00 PM 18.32 64.976 0.371 7.76 17.75 8.56
7/11/2021 11:45:00 PM 18.29 64.922 0.371 7.76 21.05 8.6
7/12/2021 12:00:00 AM 18.24 64.832 0.367 7.76 23.14 8.63
7/12/2021 12:15:00 AM 18.21 64.778 0.364 7.76 25.91 8.66
7/12/2021 12:30:00 AM 18.17 64.706 0.358 7.76 38.37 8.69
7/12/2021 12:45:00 AM 18.12 64.616 0.353 7.76 28.19 8.71
7/12/2021 1:00:00 AM 18.07 64.526 0.347 7.77 34.39 8.75
7/12/2021 1:15:00 AM 18 64.4 0.344 7.74 34.1 8.77
7/12/2021 1:30:00 AM 17.94 64.292 0.34 7.77 33.85 8.78
7/12/2021 1:45:00 AM 17.88 64.184 0.336 7.77 37.26 8.81
7/12/2021 2:00:00 AM 17.82 64.076 0.332 7.76 40.77 8.82
7/12/2021 2:15:00 AM 17.76 63.968 0.326 7.75 35.88 8.85
7/12/2021 2:30:00 AM 17.69 63.842 0.321 7.72 33.68 8.88
7/12/2021 2:45:00 AM 17.62 63.716 0.317 7.7 37.2 8.89
7/12/2021 3:00:00 AM 17.55 63.59 0.314 7.68 38.26 8.91
7/12/2021 3:15:00 AM 17.49 63.482 0.313 7.68 31.31 8.9
7/12/2021 3:30:00 AM 17.44 63.392 0.314 7.69 31.68 8.93
7/12/2021 3:45:00 AM 17.41 63.338 0.316 7.69 30 8.93
7/12/2021 4:00:00 AM 17.39 63.302 0.317 7.69 28.58 8.93
7/12/2021 4:15:00 AM 17.37 63.266 0.318 7.69 32.05 8.94
7/12/2021 4:30:00 AM 17.36 63.248 0.319 7.7 31.73 8.93
7/12/2021 4:45:00 AM 17.36 63.248 0.319 7.7 30.5 8.94
7/12/2021 5:00:00 AM 17.36 63.248 0.32 7.7 30.1 8.93
7/12/2021 5:15:00 AM 17.36 63.248 0.322 7.7 30.64 8.93
7/12/2021 5:30:00 AM 17.36 63.248 0.323 7.7 38.43 8.93
7/12/2021 5:45:00 AM 17.36 63.248 0.325 7.71 29.7 8.92
7/12/2021 6:00:00 AM 17.36 63.248 0.326 7.71 22.79 8.91
7/12/2021 6:15:00 AM 17.35 63.23 0.327 7.71 26.65 8.9
7/12/2021 6:30:00 AM 17.34 63.212 0.329 7.71 19.54 8.92
7/12/2021 6:45:00 AM 17.34 63.212 0.331 7.72 25.05 8.94
7/12/2021 7:00:00 AM 17.34 63.212 0.333 7.72 24.75 8.95
7/12/2021 7:15:00 AM 17.34 63.212 0.336 7.72 22.54 8.96
7/12/2021 7:30:00 AM 17.34 63.212 0.339 7.69 20.25 8.96
7/12/2021 7:45:00 AM 17.35 63.23 0.341 7.72 21.61 8.97
7/12/2021 8:00:00 AM 17.36 63.248 0.343 7.73 18.41 9.06
7/12/2021 8:15:00 AM 17.38 63.284 0.345 7.74 19.29 9.1
7/12/2021 8:30:00 AM 17.39 63.302 0.345 7.75 17.98 9.13
7/12/2021 8:45:00 AM 17.41 63.338 0.345 7.76 17.14 9.22
7/12/2021 9:00:00 AM 17.46 63.428 0.345 7.79 16.43 9.34
7/12/2021 9:15:00 AM 17.51 63.518 0.344 7.83 16.5 9.5
7/12/2021 9:30:00 AM 17.53 63.554 0.343 7.84 14.03 9.51
7/12/2021 9:45:00 AM 17.54 63.572 0.342 7.85 17.32 9.49
7/12/2021 10:00:00 AM 17.56 63.608 0.342 7.85 15.37 9.49
7/12/2021 10:15:00 AM 17.61 63.698 0.341 7.86 14.82 9.55
7/12/2021 10:30:00 AM 17.74 63.932 0.34 7.9 14.08 9.81
7/12/2021 10:45:00 AM 17.87 64.166 0.339 7.96 14.85 9.97
7/12/2021 11:00:00 AM 18.02 64.436 0.338 8.01 15 10.16
7/12/2021 11:15:00 AM 18.19 64.742 0.337 8.02 13.96 10.32
7/12/2021 11:30:00 AM 18.54 65.372 0.337 8.12 12.81 10.53
7/12/2021 11:45:00 AM 18.72 65.696 0.336 8.17 13.46 10.54
7/12/2021 12:00:00 PM 18.92 66.056 0.336 8.22 12.39 10.67
7/12/2021 12:15:00 PM 19.17 66.506 0.336 8.26 12.65 10.75
7/12/2021 12:30:00 PM 19.29 66.722 0.336 8.27 12.35 10.74
7/12/2021 12:45:00 PM 19.53 67.154 0.335 8.32 12.55 10.81
7/12/2021 1:00:00 PM 19.58 67.244 0.335 8.35 12.01 10.74
7/12/2021 1:15:00 PM 19.56 67.208 0.334 8.35 11.65 10.64
7/12/2021 1:30:00 PM 19.59 67.262 0.334 8.35 10.74 10.53
7/12/2021 1:45:00 PM 19.59 67.262 0.334 8.34 13.1 10.4
7/12/2021 2:00:00 PM 19.67 67.406 0.333 8.34 10.98 10.45
7/12/2021 2:15:00 PM 19.77 67.586 0.333 8.37 10.93 10.53
7/12/2021 2:30:00 PM 19.94 67.892 0.333 8.37 10.69 10.58
7/12/2021 2:45:00 PM 20.08 68.144 0.333 8.39 10.66 10.58
7/12/2021 3:00:00 PM 20.09 68.162 0.333 8.39 10.71 10.42
7/12/2021 3:15:00 PM 20.18 68.324 0.333 8.38 10.81 10.29
7/12/2021 3:30:00 PM 20.33 68.594 0.333 8.41 10.72 10.38
7/12/2021 3:45:00 PM 20.49 68.882 0.333 8.43 15.95 10.33
7/12/2021 4:00:00 PM 20.54 68.972 0.333 8.4 10.15 10.17
7/12/2021 4:15:00 PM 20.5 68.9 0.334 8.36 9.54 9.88
7/12/2021 4:30:00 PM 20.46 68.828 0.334 8.3 9.68 9.61
7/12/2021 4:45:00 PM 20.48 68.864 0.335 8.3 9.5 9.62
7/12/2021 5:00:00 PM 20.48 68.864 0.335 8.25 9.24 9.35
7/12/2021 5:15:00 PM 20.46 68.828 0.334 8.18 10.67 9.05
7/12/2021 5:30:00 PM 20.43 68.774 0.33 8.11 11.19 9
7/12/2021 5:45:00 PM 20.39 68.702 0.329 8.07 11.26 8.94
7/12/2021 6:00:00 PM 20.36 68.648 0.328 8.01 13.06 8.9
7/12/2021 6:15:00 PM 20.38 68.684 0.327 8.03 11.71 9.05
7/12/2021 6:30:00 PM 20.42 68.756 0.326 8.04 20.46 9.09
7/12/2021 6:45:00 PM 20.47 68.846 0.324 8.05 17.09 9.1
7/12/2021 7:00:00 PM 20.49 68.882 0.324 8.06 15.14 8.99
7/12/2021 7:15:00 PM 20.52 68.936 0.324 8.04 18.87 8.89
7/12/2021 7:30:00 PM 20.48 68.864 0.318 7.88 168.03 8.56
7/12/2021 7:45:00 PM 20.25 68.45 0.313 7.86 239.19 8.57
7/12/2021 8:00:00 PM 19.93 67.874 0.275 7.64 524.13 8.51
7/12/2021 8:15:00 PM 19.79 67.622 0.254 7.62 711.11 8.45
7/12/2021 8:30:00 PM 19.63 67.334 0.249 7.59 677.13 8.47
7/12/2021 8:45:00 PM 19.54 67.172 0.242 7.56 629.21 8.51
7/12/2021 9:00:00 PM 19.47 67.046 0.233 7.52 587.38 8.55
7/12/2021 9:15:00 PM 19.42 66.956 0.227 7.48 540.91 8.57
7/12/2021 9:30:00 PM 19.36 66.848 0.223 7.45 474.52 8.58
7/12/2021 9:45:00 PM 19.31 66.758 0.222 7.45 411.5 8.59
7/12/2021 10:00:00 PM 19.28 66.704 0.221 7.44 367.36 8.6
7/12/2021 10:15:00 PM 19.25 66.65 0.222 7.43 319.07 8.61
7/12/2021 10:30:00 PM 19.22 66.596 0.223 7.45 298.08 8.61
7/12/2021 10:45:00 PM 19.19 66.542 0.223 7.44 258.82 8.62
7/12/2021 11:00:00 PM 19.15 66.47 0.224 7.44 215.52 8.62
7/12/2021 11:15:00 PM 19.11 66.398 0.224 7.44 194.06 8.63
7/12/2021 11:30:00 PM 19.07 66.326 0.224 7.44 171.38 8.64
7/12/2021 11:45:00 PM 19.02 66.236 0.225 7.44 167.18 8.65
7/13/2021 12:00:00 AM 18.98 66.164 0.225 7.44 174.04 8.66
7/13/2021 12:15:00 AM 18.94 66.092 0.226 7.45 115 8.67
7/13/2021 12:30:00 AM 18.9 66.02 0.227 7.44 103.85 8.68
7/13/2021 12:45:00 AM 18.85 65.93 0.228 7.45 116.38 8.69
7/13/2021 1:00:00 AM 18.81 65.858 0.229 7.47 107.12 8.71
7/13/2021 1:15:00 AM 18.77 65.786 0.23 7.47 108.39 8.72
7/13/2021 1:30:00 AM 18.73 65.714 0.232 7.46 78.02 8.71
7/13/2021 1:45:00 AM 18.69 65.642 0.233 7.46 91.95 8.73
7/13/2021 2:00:00 AM 18.65 65.57 0.235 7.47 61.53 8.72
7/13/2021 2:15:00 AM 18.61 65.498 0.236 7.47 71.47 8.73
7/13/2021 2:30:00 AM 18.58 65.444 0.237 7.47 62.71 8.73
7/13/2021 2:45:00 AM 18.54 65.372 0.238 7.48 66.02 8.74
7/13/2021 3:00:00 AM 18.51 65.318 0.239 7.47 78.66 8.75
7/13/2021 3:15:00 AM 18.47 65.246 0.24 7.47 75.74 8.75
7/13/2021 3:30:00 AM 18.44 65.192 0.241 7.45 57.53 8.75
7/13/2021 3:45:00 AM 18.41 65.138 0.242 7.47 54.93 8.77
7/13/2021 4:00:00 AM 18.37 65.066 0.243 7.47 55.08 8.78
7/13/2021 4:15:00 AM 18.35 65.03 0.244 7.47 62.95 8.78
7/13/2021 4:30:00 AM 18.31 64.958 0.244 7.47 49.67 8.79
7/13/2021 4:45:00 AM 18.28 64.904 0.245 7.43 52.8 8.79
7/13/2021 5:00:00 AM 18.24 64.832 0.246 7.48 43.94 8.8
7/13/2021 5:15:00 AM 18.21 64.778 0.247 7.49 44.16 8.81
7/13/2021 5:30:00 AM 18.18 64.724 0.248 7.48 46.2 8.81
7/13/2021 5:45:00 AM 18.15 64.67 0.248 7.48 51.5 8.82
7/13/2021 6:00:00 AM 18.13 64.634 0.249 7.48 38.43 8.82
7/13/2021 6:15:00 AM 18.11 64.598 0.25 7.48 37.95 8.83
7/13/2021 6:30:00 AM 18.08 64.544 0.251 7.49 39.85 8.85
7/13/2021 6:45:00 AM 18.06 64.508 0.252 7.49 33.96 8.86
7/13/2021 7:00:00 AM 18.04 64.472 0.253 7.49 29.11 8.88
7/13/2021 7:15:00 AM 18.02 64.436 0.254 7.5 46.06 8.91
7/13/2021 7:30:00 AM 18.01 64.418 0.255 7.5 30.45 8.94
7/13/2021 7:45:00 AM 18.03 64.454 0.255 7.52 32.21 9
7/13/2021 8:00:00 AM 18.05 64.49 0.256 7.53 31.98 9.05
7/13/2021 8:15:00 AM 18.09 64.562 0.256 7.54 27.75 9.11
7/13/2021 8:30:00 AM 18.13 64.634 0.257 7.56 29.23 9.17
7/13/2021 8:45:00 AM 18.17 64.706 0.258 7.53 28.57 9.22
7/13/2021 9:00:00 AM 18.21 64.778 0.258 7.58 28.27 9.21
7/13/2021 9:15:00 AM 18.24 64.832 0.259 7.61 27.41 9.23
7/13/2021 9:30:00 AM 18.26 64.868 0.26 7.61 27.06 9.22
7/13/2021 9:45:00 AM 18.3 64.94 0.261 7.62 25.97 9.25
7/13/2021 10:00:00 AM 18.38 65.084 0.261 7.65 25.6 9.36
7/13/2021 10:15:00 AM 18.48 65.264 0.262 7.67 24.07 9.46
7/13/2021 10:30:00 AM 18.57 65.426 0.263 7.7 24.94 9.5
7/13/2021 10:45:00 AM 18.68 65.624 0.263 7.73 22.72 9.6
7/13/2021 11:00:00 AM 18.77 65.786 0.264 7.75 22.11 9.62
7/13/2021 11:15:00 AM 18.83 65.894 0.265 7.74 24.22 9.59
7/13/2021 11:30:00 AM 18.93 66.074 0.266 7.78 17.92 9.65
7/13/2021 11:45:00 AM 19.01 66.218 0.267 7.8 21.84 9.68
7/13/2021 12:00:00 PM 19.1 66.38 0.268 7.82 20.64 9.71
7/13/2021 12:15:00 PM 19.21 66.578 0.268 7.82 19.57 9.73
7/13/2021 12:30:00 PM 19.4 66.92 0.269 7.84 20.41 9.79
7/13/2021 12:45:00 PM 19.51 67.118 0.27 7.87 20.24 9.77
7/13/2021 1:00:00 PM 19.73 67.514 0.271 7.89 20.49 9.82
7/13/2021 1:15:00 PM 19.92 67.856 0.272 7.91 19.5 9.8
7/13/2021 1:30:00 PM 20.08 68.144 0.272 7.91 17.75 9.77
7/13/2021 1:45:00 PM 20.34 68.612 0.273 7.96 22.68 9.87
7/13/2021 2:00:00 PM 20.47 68.846 0.274 7.95 19.19 9.81
7/13/2021 2:15:00 PM 20.58 69.044 0.275 7.98 19.48 9.78
7/13/2021 2:30:00 PM 20.71 69.278 0.275 7.98 22.02 9.72
7/13/2021 2:45:00 PM 20.85 69.53 0.276 7.98 21.98 9.72
7/13/2021 3:00:00 PM 20.98 69.764 0.277 7.99 19.11 9.66
7/13/2021 3:15:00 PM 21.09 69.962 0.278 7.98 19.34 9.55
7/13/2021 3:30:00 PM 21.18 70.124 0.278 7.98 19.29 9.39
7/13/2021 3:45:00 PM 21.2 70.16 0.279 7.91 19.55 9.24
7/13/2021 4:00:00 PM 21.19 70.142 0.28 7.89 18.78 9.12
7/13/2021 4:15:00 PM 21.23 70.214 0.281 7.88 18.88 9.14
7/13/2021 4:30:00 PM 21.28 70.304 0.282 7.87 17.1 9.13
7/13/2021 4:45:00 PM 21.35 70.43 0.283 7.87 18.18 9.15
7/13/2021 5:00:00 PM 21.45 70.61 0.284 7.88 18.1 9.17
7/13/2021 5:15:00 PM 21.48 70.664 0.285 7.85 17.28 9.08
7/13/2021 5:30:00 PM 21.54 70.772 0.285 7.85 17.58 9.01
7/13/2021 5:45:00 PM 21.57 70.826 0.285 7.83 18.86 8.92
7/13/2021 6:00:00 PM 21.59 70.862 0.286 7.81 18.15 8.84
7/13/2021 6:15:00 PM 21.61 70.898 0.287 7.8 17.53 8.81
7/13/2021 6:30:00 PM 21.62 70.916 0.287 7.79 17.61 8.74
7/13/2021 6:45:00 PM 21.64 70.952 0.288 7.78 18.08 8.7
7/13/2021 7:00:00 PM 21.63 70.934 0.289 7.74 18.26 8.67
7/13/2021 7:15:00 PM 21.62 70.916 0.289 7.73 17.43 8.58
7/13/2021 7:30:00 PM 21.62 70.916 0.29 7.68 17.55 8.51
7/13/2021 7:45:00 PM 21.61 70.898 0.29 7.67 18.7 8.39
7/13/2021 8:00:00 PM 21.58 70.844 0.291 7.65 19.78 8.31
7/13/2021 8:15:00 PM 21.46 70.628 0.29 7.6 19.46 8.25
7/13/2021 8:30:00 PM 21.39 70.502 0.291 7.61 18.36 8.2
7/13/2021 8:45:00 PM 21.32 70.376 0.29 7.62 18.43 8.17
7/13/2021 9:00:00 PM 21.24 70.232 0.29 7.61 18.89 8.16
7/13/2021 9:15:00 PM 21.15 70.07 0.29 7.62 21.2 8.18
7/13/2021 9:30:00 PM 21.07 69.926 0.29 7.6 22.95 8.17
7/13/2021 9:45:00 PM 21 69.8 0.29 7.6 22.11 8.2
7/13/2021 10:00:00 PM 20.92 69.656 0.29 7.61 23.5 8.22
7/13/2021 10:15:00 PM 20.82 69.476 0.291 7.6 25.52 8.2
7/13/2021 10:30:00 PM 20.72 69.296 0.292 7.59 30.47 8.21
7/13/2021 10:45:00 PM 20.59 69.062 0.291 7.59 27.6 8.23
7/13/2021 11:00:00 PM 20.47 68.846 0.289 7.61 30.02 8.29
7/13/2021 11:15:00 PM 20.34 68.612 0.288 7.61 32.93 8.32
7/13/2021 11:30:00 PM 20.19 68.342 0.287 7.61 38.14 8.35
7/13/2021 11:45:00 PM 20.06 68.108 0.285 7.62 37.31 8.39
7/14/2021 12:00:00 AM 19.92 67.856 0.282 7.64 48.71 8.47
7/14/2021 12:15:00 AM 19.76 67.568 0.28 7.66 60.66 8.52
7/14/2021 12:30:00 AM 19.6 67.28 0.277 7.66 55.56 8.56
7/14/2021 12:45:00 AM 19.45 67.01 0.273 7.66 62.52 8.61
7/14/2021 1:00:00 AM 19.33 66.794 0.268 7.65 64.51 8.64
7/14/2021 1:15:00 AM 19.23 66.614 0.264 7.63 70.51 8.66
7/14/2021 1:30:00 AM 19.17 66.506 0.261 7.62 75.54 8.67
7/14/2021 1:45:00 AM 19.11 66.398 0.259 7.61 70.15 8.68
7/14/2021 2:00:00 AM 19.06 66.308 0.259 7.6 69.62 8.68
7/14/2021 2:15:00 AM 19 66.2 0.259 7.59 66.16 8.69
7/14/2021 2:30:00 AM 18.93 66.074 0.26 7.59 67.87 8.71
7/14/2021 2:45:00 AM 18.88 65.984 0.262 7.58 65.55 8.72
7/14/2021 3:00:00 AM 18.82 65.876 0.263 7.58 64.35 8.72
7/14/2021 3:15:00 AM 18.77 65.786 0.263 7.57 73.18 8.73
7/14/2021 3:30:00 AM 18.71 65.67799 0.262 7.56 57.81 8.74
7/14/2021 3:45:00 AM 18.66 65.588 0.262 7.56 58.16 8.74
7/14/2021 4:00:00 AM 18.62 65.516 0.261 7.54 48.64 8.74
7/14/2021 4:15:00 AM 18.58 65.444 0.26 7.54 42.48 8.75
7/14/2021 4:30:00 AM 18.53 65.354 0.259 7.53 47.51 8.75
7/14/2021 4:45:00 AM 18.49 65.282 0.258 7.52 46.9 8.76
7/14/2021 5:00:00 AM 18.45 65.21 0.257 7.52 46.85 8.76
7/14/2021 5:15:00 AM 18.42 65.156 0.257 7.5 40.58 8.78
7/14/2021 5:30:00 AM 18.38 65.084 0.257 7.51 36.91 8.78
7/14/2021 5:45:00 AM 18.35 65.03 0.257 7.51 41.37 8.78
7/14/2021 6:00:00 AM 18.32 64.976 0.257 7.51 38.26 8.79
7/14/2021 6:15:00 AM 18.3 64.94 0.257 7.5 34.83 8.8
7/14/2021 6:30:00 AM 18.27 64.886 0.257 7.51 44.96 8.81
7/14/2021 6:45:00 AM 18.26 64.868 0.258 7.51 58.19 8.84
7/14/2021 7:00:00 AM 18.24 64.832 0.258 7.52 32.4 8.85
7/14/2021 7:15:00 AM 18.22 64.796 0.258 7.51 29.11 8.86
7/14/2021 7:30:00 AM 18.2 64.76 0.258 7.5 30.15 8.88
7/14/2021 7:45:00 AM 18.2 64.76 0.258 7.53 29.57 8.92
7/14/2021 8:00:00 AM 18.19 64.742 0.259 7.52 28.03 8.95
7/14/2021 8:15:00 AM 18.24 64.832 0.259 7.54 27.72 9.05
7/14/2021 8:30:00 AM 18.27 64.886 0.259 7.57 22.35 9.09
7/14/2021 8:45:00 AM 18.29 64.922 0.26 7.58 28.28 9.13
7/14/2021 9:00:00 AM 18.34 65.012 0.26 7.6 24.44 9.18
7/14/2021 9:15:00 AM 18.4 65.12 0.261 7.62 23.2 9.24
7/14/2021 9:30:00 AM 18.43 65.174 0.261 7.64 22.02 9.26
7/14/2021 9:45:00 AM 18.45 65.21 0.262 7.64 22.94 9.26
7/14/2021 10:00:00 AM 18.51 65.318 0.262 7.67 21.86 9.3
7/14/2021 10:15:00 AM 18.56 65.408 0.263 7.68 21.59 9.36
7/14/2021 10:30:00 AM 18.62 65.516 0.263 7.69 20.33 9.41
7/14/2021 10:45:00 AM 18.79 65.82201 0.264 7.72 20.14 9.55
7/14/2021 11:00:00 AM 18.9 66.02 0.265 7.76 23.46 9.62
7/14/2021 11:15:00 AM 19.05 66.29 0.265 7.81 20.54 9.71
7/14/2021 11:30:00 AM 19.26 66.668 0.266 7.84 19.05 9.84
7/14/2021 11:45:00 AM 19.45 67.01 0.266 7.85 18.16 9.86
7/14/2021 12:00:00 PM 19.69 67.442 0.267 7.91 18.68 9.93
7/14/2021 12:15:00 PM 19.89 67.802 0.268 7.94 17.55 9.98
7/14/2021 12:30:00 PM 20.03 68.054 0.269 7.95 17.9 9.94
7/14/2021 12:45:00 PM 20.02 68.036 0.269 7.95 17.19 9.75
7/14/2021 1:00:00 PM 19.98 67.964 0.269 7.89 16.41 9.48
7/14/2021 1:15:00 PM 20.05 68.09 0.27 7.89 16.82 9.57
7/14/2021 1:30:00 PM 20.3 68.54 0.27 7.95 16.28 9.75
7/14/2021 1:45:00 PM 20.48 68.864 0.27 7.98 17.19 9.84
7/14/2021 2:00:00 PM 20.67 69.206 0.271 8 16.96 9.81
7/14/2021 2:15:00 PM 20.74 69.332 0.271 8.02 17.46 9.69
7/14/2021 2:30:00 PM 20.88 69.584 0.271 8 17.17 9.68
7/14/2021 2:45:00 PM 20.97 69.746 0.273 8.01 18.26 9.68
7/14/2021 3:00:00 PM 20.9 69.62 0.273 7.96 17.36 9.42
7/14/2021 3:15:00 PM 20.89 69.602 0.274 7.94 18.24 9.39
7/14/2021 3:30:00 PM 20.87 69.566 0.274 7.93 19.67 9.36
7/14/2021 3:45:00 PM 20.89 69.602 0.274 7.92 19.48 9.39
7/14/2021 4:00:00 PM 21.04 69.872 0.274 7.97 18.95 9.44
7/14/2021 4:15:00 PM 21.2 70.16 0.274 7.99 18.96 9.47
7/14/2021 4:30:00 PM 21.25 70.25 0.274 7.98 19.3 9.35
7/14/2021 4:45:00 PM 21.27 70.286 0.274 7.97 21.27 9.26
7/14/2021 5:00:00 PM 21.18 70.124 0.274 7.93 19.56 9.15
7/14/2021 5:15:00 PM 21.09 69.962 0.274 7.9 20.01 9.03
7/14/2021 5:30:00 PM 21.04 69.872 0.274 7.88 20.09 9.03
7/14/2021 5:45:00 PM 21 69.8 0.273 7.89 21.09 9.01
7/14/2021 6:00:00 PM 20.99 69.782 0.273 7.89 21.85 8.99
7/14/2021 6:15:00 PM 20.98 69.764 0.272 7.88 94.36 8.92
7/14/2021 6:30:00 PM 20.94 69.692 0.271 7.87 25.56 8.85
7/14/2021 6:45:00 PM 20.9 69.62 0.271 7.86 24.5 8.81
7/14/2021 7:00:00 PM 20.85 69.53 0.27 7.85 32.57 8.74
7/14/2021 7:15:00 PM 20.81 69.458 0.27 7.83 35.33 8.68
7/14/2021 7:30:00 PM 20.76 69.368 0.27 7.81 39.64 8.64
7/14/2021 7:45:00 PM 20.68 69.224 0.269 7.78 43.27 8.6
7/14/2021 8:00:00 PM 20.57 69.026 0.269 7.76 38.33 8.6
7/14/2021 8:15:00 PM 20.46 68.828 0.269 7.74 39.82 8.59
7/14/2021 8:30:00 PM 20.36 68.648 0.269 7.72 39 8.57
7/14/2021 8:45:00 PM 20.27 68.486 0.27 7.7 39.64 8.55
7/14/2021 9:00:00 PM 20.18 68.324 0.271 7.68 45.35 8.53
7/14/2021 9:15:00 PM 20.09 68.162 0.271 7.66 44.81 8.52
7/14/2021 9:30:00 PM 20.01 68.018 0.27 7.65 39.26 8.53
7/14/2021 9:45:00 PM 19.93 67.874 0.269 7.63 40.06 8.54
7/14/2021 10:00:00 PM 19.84 67.712 0.267 7.63 41.69 8.54
7/14/2021 10:15:00 PM 19.76 67.568 0.265 7.61 37.54 8.55
7/14/2021 10:30:00 PM 19.68 67.424 0.264 7.6 34.16 8.55
7/14/2021 10:45:00 PM 19.59 67.262 0.262 7.6 30.82 8.57
7/14/2021 11:00:00 PM 19.5 67.1 0.261 7.58 34.73 8.58
7/14/2021 11:15:00 PM 19.42 66.956 0.26 7.58 33.79 8.6
7/14/2021 11:30:00 PM 19.34 66.812 0.26 7.57 32.25 8.6
7/14/2021 11:45:00 PM 19.27 66.686 0.259 7.57 31.33 8.62
7/15/2021 12:00:00 AM 19.2 66.56 0.259 7.56 31.35 8.63
7/15/2021 12:15:00 AM 19.13 66.434 0.259 7.56 29.77 8.63
7/15/2021 12:30:00 AM 19.08 66.344 0.259 7.56 28.41 8.64
7/15/2021 12:45:00 AM 19.03 66.254 0.26 7.55 27.45 8.64
7/15/2021 1:00:00 AM 18.98 66.164 0.26 7.52 27.13 8.65
7/15/2021 1:15:00 AM 18.93 66.074 0.26 7.56 25.77 8.67
7/15/2021 1:30:00 AM 18.88 65.984 0.261 7.55 25.66 8.68
7/15/2021 1:45:00 AM 18.82 65.876 0.261 7.54 24.45 8.69
7/15/2021 2:00:00 AM 18.78 65.804 0.261 7.54 26.01 8.7
7/15/2021 2:15:00 AM 18.72 65.696 0.261 7.54 27.15 8.71
7/15/2021 2:30:00 AM 18.67 65.606 0.262 7.53 25.49 8.71
7/15/2021 2:45:00 AM 18.61 65.498 0.262 7.54 24.36 8.71
7/15/2021 3:00:00 AM 18.57 65.426 0.263 7.52 32.5 8.73
7/15/2021 3:15:00 AM 18.51 65.318 0.263 7.53 23.77 8.73
7/15/2021 3:30:00 AM 18.46 65.228 0.264 7.51 21.56 8.73
7/15/2021 3:45:00 AM 18.41 65.138 0.264 7.5 23.01 8.74
7/15/2021 4:00:00 AM 18.36 65.048 0.264 7.51 23.18 8.77
7/15/2021 4:15:00 AM 18.31 64.958 0.264 7.5 22.09 8.77
7/15/2021 4:30:00 AM 18.25 64.85 0.265 7.47 22.05 8.78
7/15/2021 4:45:00 AM 18.2 64.76 0.266 7.49 21.74 8.79
7/15/2021 5:00:00 AM 18.15 64.67 0.266 7.49 21.67 8.79
7/15/2021 5:15:00 AM 18.1 64.58 0.266 7.49 17.06 8.8
7/15/2021 5:30:00 AM 18.05 64.49 0.267 7.49 21.27 8.8
7/15/2021 5:45:00 AM 18 64.4 0.267 7.48 19.82 8.79
7/15/2021 6:00:00 AM 17.95 64.31 0.267 7.48 20.57 8.81
7/15/2021 6:15:00 AM 17.9 64.22 0.268 7.48 25.25 8.84
7/15/2021 6:30:00 AM 17.85 64.13 0.268 7.48 19.81 8.86
7/15/2021 6:45:00 AM 17.82 64.076 0.268 7.5 18.24 8.93
7/15/2021 7:00:00 AM 17.77 63.986 0.269 7.49 19.84 8.97
7/15/2021 7:15:00 AM 17.74 63.932 0.269 7.5 19.57 9.03
7/15/2021 7:30:00 AM 17.72 63.896 0.269 7.51 19.76 9.1
7/15/2021 7:45:00 AM 17.69 63.842 0.27 7.52 18.52 9.16
7/15/2021 8:00:00 AM 17.68 63.824 0.27 7.54 15.46 9.23
7/15/2021 8:15:00 AM 17.67 63.806 0.27 7.56 17.53 9.33
7/15/2021 8:30:00 AM 17.69 63.842 0.27 7.59 18.47 9.41
7/15/2021 8:45:00 AM 17.7 63.86 0.271 7.62 18.31 9.48
7/15/2021 9:00:00 AM 17.74 63.932 0.271 7.64 18.43 9.57
7/15/2021 9:15:00 AM 17.8 64.04 0.272 7.65 17.63 9.63
7/15/2021 9:30:00 AM 17.9 64.22 0.272 7.69 16.49 9.74
7/15/2021 9:45:00 AM 18.01 64.418 0.272 7.74 16.1 9.84
7/15/2021 10:00:00 AM 18.15 64.67 0.273 7.76 16.51 9.96
7/15/2021 10:15:00 AM 18.32 64.976 0.273 7.81 15.62 10.08
7/15/2021 10:30:00 AM 18.49 65.282 0.274 7.86 14.95 10.17
7/15/2021 10:45:00 AM 18.68 65.624 0.274 7.91 14.93 10.28
7/15/2021 11:00:00 AM 18.86 65.948 0.275 7.95 15.75 10.37
7/15/2021 11:15:00 AM 19.09 66.362 0.275 8.03 14.48 10.45
7/15/2021 11:30:00 AM 19.24 66.632 0.275 8.04 13.59 10.44
7/15/2021 11:45:00 AM 19.38 66.884 0.276 8.07 13.54 10.44
7/15/2021 12:00:00 PM 19.53 67.154 0.276 8.1 14.04 10.39
7/15/2021 12:15:00 PM 19.77 67.586 0.277 8.13 13.33 10.52
7/15/2021 12:30:00 PM 19.97 67.946 0.277 8.18 13.55 10.58
7/15/2021 12:45:00 PM 20.12 68.216 0.277 8.18 12.3 10.38
7/15/2021 1:00:00 PM 20.42 68.756 0.278 8.24 13.12 10.55
7/15/2021 1:15:00 PM 20.52 68.936 0.278 8.23 13.87 10.29
7/15/2021 1:30:00 PM 20.72 69.296 0.278 8.26 15.23 10.34
7/15/2021 1:45:00 PM 20.95 69.71 0.279 8.28 14.68 10.4
7/15/2021 2:00:00 PM 21.15 70.07 0.28 8.3 14.93 10.38
7/15/2021 2:15:00 PM 21.33 70.394 0.28 8.32 14.88 10.38
7/15/2021 2:30:00 PM 21.54 70.772 0.281 8.37 13.7 10.41
7/15/2021 2:45:00 PM 21.68 71.024 0.281 8.38 14.44 10.34
7/15/2021 3:00:00 PM 21.79 71.222 0.282 8.37 13.39 10.25
7/15/2021 3:15:00 PM 21.89 71.402 0.282 8.37 13.08 10.21
7/15/2021 3:30:00 PM 22 71.6 0.283 8.37 14.88 10.17
7/15/2021 3:45:00 PM 22.06 71.708 0.283 8.38 13.17 10.1
7/15/2021 4:00:00 PM 22.12 71.816 0.284 8.37 12.87 10.01
7/15/2021 4:15:00 PM 22.18 71.924 0.284 8.37 13.74 9.94
7/15/2021 4:30:00 PM 22.2 71.96 0.284 8.35 13.56 9.85
7/15/2021 4:45:00 PM 22.22 71.996 0.284 8.33 13.32 9.71
7/15/2021 5:00:00 PM 22.24 72.032 0.284 8.31 14 9.62
7/15/2021 5:15:00 PM 22.26 72.068 0.285 8.28 14.48 9.55
7/15/2021 5:30:00 PM 22.27 72.086 0.286 8.24 14.33 9.41
7/15/2021 5:45:00 PM 22.25 72.05 0.286 8.19 14.27 9.23
7/15/2021 6:00:00 PM 22.26 72.068 0.287 8.14 13.93 9.16
7/15/2021 6:15:00 PM 22.3 72.14 0.287 8.15 13.86 9.13
7/15/2021 6:30:00 PM 22.3 72.14 0.287 8.12 13.31 9.04
7/15/2021 6:45:00 PM 22.26 72.068 0.288 8.05 15.26 8.91
7/15/2021 7:00:00 PM 22.22 71.996 0.288 8.02 15.92 8.81
7/15/2021 7:15:00 PM 22.19 71.942 0.288 7.97 15.74 8.72
7/15/2021 7:30:00 PM 22.15 71.87 0.288 7.92 15.81 8.57
7/15/2021 7:45:00 PM 22.1 71.78 0.289 7.89 13.63 8.51
7/15/2021 8:00:00 PM 22.02 71.636 0.289 7.83 13.67 8.38
7/15/2021 8:15:00 PM 21.95 71.51 0.289 7.79 14.35 8.29
7/15/2021 8:30:00 PM 21.87 71.366 0.289 7.74 13.93 8.2
7/15/2021 8:45:00 PM 21.79 71.222 0.29 7.71 13.46 8.11
7/15/2021 9:00:00 PM 21.71 71.078 0.29 7.68 14.11 8.06
7/15/2021 9:15:00 PM 21.62 70.916 0.291 7.65 14.23 8.01
7/15/2021 9:30:00 PM 21.54 70.772 0.291 7.64 15.11 7.99
7/15/2021 9:45:00 PM 21.45 70.61 0.291 7.62 14.04 7.98
7/15/2021 10:00:00 PM 21.38 70.484 0.291 7.61 14.24 7.98
7/15/2021 10:15:00 PM 21.28 70.304 0.292 7.59 15.53 7.94
7/15/2021 10:30:00 PM 21.21 70.17799 0.292 7.58 14.39 7.95
7/15/2021 10:45:00 PM 21.13 70.034 0.293 7.58 13.41 7.96
7/15/2021 11:00:00 PM 21.05 69.89 0.293 7.57 15.02 7.97
7/15/2021 11:15:00 PM 20.97 69.746 0.293 7.57 14.52 7.99
7/15/2021 11:30:00 PM 20.89 69.602 0.294 7.56 14 7.99
7/15/2021 11:45:00 PM 20.8 69.44 0.295 7.55 14.33 8
7/16/2021 12:00:00 AM 20.71 69.278 0.295 7.54 13.83 7.99
7/16/2021 12:15:00 AM 20.63 69.134 0.295 7.53 15.14 8
7/16/2021 12:30:00 AM 20.55 68.99 0.296 7.52 14.8 8.02
7/16/2021 12:45:00 AM 20.46 68.828 0.296 7.53 15.32 8.05
7/16/2021 1:00:00 AM 20.38 68.684 0.297 7.53 13.89 8.06
7/16/2021 1:15:00 AM 20.3 68.54 0.297 7.52 12.99 8.06
7/16/2021 1:30:00 AM 20.22 68.396 0.298 7.53 15.34 8.09
7/16/2021 1:45:00 AM 20.15 68.27 0.298 7.52 13.96 8.09
7/16/2021 2:00:00 AM 20.07 68.126 0.299 7.51 13.44 8.11
7/16/2021 2:15:00 AM 19.99 67.982 0.299 7.52 14.68 8.12
7/16/2021 2:30:00 AM 19.91 67.838 0.299 7.51 14.86 8.14
7/16/2021 2:45:00 AM 19.83 67.694 0.3 7.51 14.14 8.16
7/16/2021 3:00:00 AM 19.76 67.568 0.3 7.51 14.61 8.18
7/16/2021 3:15:00 AM 19.68 67.424 0.3 7.5 15.94 8.17
7/16/2021 3:30:00 AM 19.61 67.298 0.301 7.5 14.6 8.18
7/16/2021 3:45:00 AM 19.55 67.19 0.301 7.5 15.16 8.21
7/16/2021 4:00:00 AM 19.48 67.064 0.302 7.5 14.7 8.21
7/16/2021 4:15:00 AM 19.41 66.938 0.302 7.5 14 8.24
7/16/2021 4:30:00 AM 19.36 66.848 0.302 7.5 13.51 8.26
7/16/2021 4:45:00 AM 19.31 66.758 0.303 7.5 15.26 8.27
7/16/2021 5:00:00 AM 19.25 66.65 0.303 7.5 14.67 8.29
7/16/2021 5:15:00 AM 19.19 66.542 0.303 7.49 16.96 8.27
7/16/2021 5:30:00 AM 19.13 66.434 0.303 7.49 14.82 8.27
7/16/2021 5:45:00 AM 19.08 66.344 0.304 7.48 15.77 8.27
7/16/2021 6:00:00 AM 19.03 66.254 0.304 7.49 14.42 8.3
7/16/2021 6:15:00 AM 18.98 66.164 0.304 7.48 15.07 8.35
7/16/2021 6:30:00 AM 18.94 66.092 0.304 7.48 17.94 8.41
7/16/2021 6:45:00 AM 18.9 66.02 0.305 7.49 12.79 8.5
7/16/2021 7:00:00 AM 18.89 66.002 0.305 7.52 13.93 8.63
7/16/2021 7:15:00 AM 18.87 65.966 0.305 7.52 14.93 8.7
7/16/2021 7:30:00 AM 18.87 65.966 0.306 7.53 12.68 8.82
7/16/2021 7:45:00 AM 18.89 66.002 0.306 7.58 13.64 9.06
7/16/2021 8:00:00 AM 18.9 66.02 0.306 7.59 12.67 9.09
7/16/2021 8:15:00 AM 18.9 66.02 0.306 7.6 12.47 9.12
7/16/2021 8:30:00 AM 18.91 66.038 0.307 7.62 12.76 9.14
7/16/2021 8:45:00 AM 18.94 66.092 0.307 7.64 13.77 9.34
7/16/2021 9:00:00 AM 18.98 66.164 0.307 7.7 13.27 9.56
7/16/2021 9:15:00 AM 19.03 66.254 0.307 7.73 11.76 9.66
7/16/2021 9:30:00 AM 19.1 66.38 0.308 7.78 11.51 9.89
7/16/2021 9:45:00 AM 19.16 66.488 0.308 7.83 11.41 9.99
7/16/2021 10:00:00 AM 19.19 66.542 0.308 7.87 10.84 10.05<